<?xml version="1.0" encoding="UTF-8" standalone="no" ?>
<gpx xmlns="http://www.topografix.com/GPX/1/1" xmlns:xsi="http://www.w3.org/2001/XMLSchema-instance" xsi:schemaLocation="http://www.topografix.com/GPX/1/1 http://www.topografix.com/GPX/1/1/gpx.xsd" version="1.1" creator="VisuGPX - https://www.visugpx.com">
  <metadata>
    <name>De gap à l\'autre rive de la Durance en 04</name>
    <desc><![CDATA[Un itineraire varié  avec au menu la dure montée à Piegut (du 13/14% )]]></desc>
  </metadata>
  <trk>
    <name><![CDATA[ACTIVE LOG 006]]></name>
    <trkseg>
      <trkpt lat="44.55873" lon="6.07466">
        <ele>570.198975</ele>
        <time>2011-03-24T08:57:35Z</time>
      </trkpt>
      <trkpt lat="44.55882" lon="6.07489">
        <ele>569.718506</ele>
        <time>2011-03-24T08:58:12Z</time>
      </trkpt>
      <trkpt lat="44.55881" lon="6.07489">
        <ele>570.679688</ele>
        <time>2011-03-24T08:58:13Z</time>
      </trkpt>
      <trkpt lat="44.55844" lon="6.07461">
        <ele>568.75708</ele>
        <time>2011-03-24T08:58:24Z</time>
      </trkpt>
      <trkpt lat="44.55836" lon="6.07454">
        <ele>568.75708</ele>
        <time>2011-03-24T08:58:26Z</time>
      </trkpt>
      <trkpt lat="44.5583" lon="6.07448">
        <ele>569.237793</ele>
        <time>2011-03-24T08:58:28Z</time>
      </trkpt>
      <trkpt lat="44.5581" lon="6.07443">
        <ele>567.795654</ele>
        <time>2011-03-24T08:58:34Z</time>
      </trkpt>
      <trkpt lat="44.55785" lon="6.07452">
        <ele>564.911865</ele>
        <time>2011-03-24T08:58:39Z</time>
      </trkpt>
      <trkpt lat="44.55766" lon="6.07459">
        <ele>565.392578</ele>
        <time>2011-03-24T08:58:43Z</time>
      </trkpt>
      <trkpt lat="44.55744" lon="6.07484">
        <ele>563.950439</ele>
        <time>2011-03-24T08:58:49Z</time>
      </trkpt>
      <trkpt lat="44.55685" lon="6.07602">
        <ele>561.547363</ele>
        <time>2011-03-24T08:59:07Z</time>
      </trkpt>
      <trkpt lat="44.55676" lon="6.07619">
        <ele>561.06665</ele>
        <time>2011-03-24T08:59:10Z</time>
      </trkpt>
      <trkpt lat="44.55665" lon="6.07642">
        <ele>561.06665</ele>
        <time>2011-03-24T08:59:15Z</time>
      </trkpt>
      <trkpt lat="44.55649" lon="6.0765">
        <ele>558.182861</ele>
        <time>2011-03-24T08:59:19Z</time>
      </trkpt>
      <trkpt lat="44.55637" lon="6.07647">
        <ele>559.144043</ele>
        <time>2011-03-24T08:59:21Z</time>
      </trkpt>
      <trkpt lat="44.55585" lon="6.07584">
        <ele>558.182861</ele>
        <time>2011-03-24T08:59:37Z</time>
      </trkpt>
      <trkpt lat="44.55545" lon="6.07536">
        <ele>558.182861</ele>
        <time>2011-03-24T08:59:49Z</time>
      </trkpt>
      <trkpt lat="44.55503" lon="6.07474">
        <ele>558.66333</ele>
        <time>2011-03-24T09:00:02Z</time>
      </trkpt>
      <trkpt lat="44.55497" lon="6.07469">
        <ele>560.105225</ele>
        <time>2011-03-24T09:00:04Z</time>
      </trkpt>
      <trkpt lat="44.55491" lon="6.07462">
        <ele>558.66333</ele>
        <time>2011-03-24T09:00:06Z</time>
      </trkpt>
      <trkpt lat="44.55435" lon="6.07383">
        <ele>558.182861</ele>
        <time>2011-03-24T09:00:25Z</time>
      </trkpt>
      <trkpt lat="44.5542" lon="6.07362">
        <ele>561.547363</ele>
        <time>2011-03-24T09:00:31Z</time>
      </trkpt>
      <trkpt lat="44.55417" lon="6.07358">
        <ele>561.547363</ele>
        <time>2011-03-24T09:00:32Z</time>
      </trkpt>
      <trkpt lat="44.55391" lon="6.07329">
        <ele>562.028076</ele>
        <time>2011-03-24T09:00:44Z</time>
      </trkpt>
      <trkpt lat="44.55333" lon="6.07278">
        <ele>563.950439</ele>
        <time>2011-03-24T09:01:05Z</time>
      </trkpt>
      <trkpt lat="44.55322" lon="6.07264">
        <ele>565.392578</ele>
        <time>2011-03-24T09:01:09Z</time>
      </trkpt>
      <trkpt lat="44.55295" lon="6.07231">
        <ele>566.35376</ele>
        <time>2011-03-24T09:01:18Z</time>
      </trkpt>
      <trkpt lat="44.55247" lon="6.07173">
        <ele>567.795654</ele>
        <time>2011-03-24T09:01:35Z</time>
      </trkpt>
      <trkpt lat="44.55201" lon="6.07112">
        <ele>571.1604</ele>
        <time>2011-03-24T09:01:52Z</time>
      </trkpt>
      <trkpt lat="44.55199" lon="6.07109">
        <ele>571.1604</ele>
        <time>2011-03-24T09:01:53Z</time>
      </trkpt>
      <trkpt lat="44.55161" lon="6.07058">
        <ele>573.083252</ele>
        <time>2011-03-24T09:02:07Z</time>
      </trkpt>
      <trkpt lat="44.55109" lon="6.06996">
        <ele>574.525146</ele>
        <time>2011-03-24T09:02:22Z</time>
      </trkpt>
      <trkpt lat="44.55062" lon="6.06936">
        <ele>576.928467</ele>
        <time>2011-03-24T09:02:39Z</time>
      </trkpt>
      <trkpt lat="44.54998" lon="6.06859">
        <ele>578.370361</ele>
        <time>2011-03-24T09:03:00Z</time>
      </trkpt>
      <trkpt lat="44.54933" lon="6.06779">
        <ele>579.812256</ele>
        <time>2011-03-24T09:03:18Z</time>
      </trkpt>
      <trkpt lat="44.54866" lon="6.06696">
        <ele>580.773682</ele>
        <time>2011-03-24T09:03:36Z</time>
      </trkpt>
      <trkpt lat="44.54851" lon="6.06679">
        <ele>580.773682</ele>
        <time>2011-03-24T09:03:41Z</time>
      </trkpt>
      <trkpt lat="44.5476" lon="6.06573">
        <ele>582.215576</ele>
        <time>2011-03-24T09:04:08Z</time>
      </trkpt>
      <trkpt lat="44.54701" lon="6.06504">
        <ele>583.657471</ele>
        <time>2011-03-24T09:04:25Z</time>
      </trkpt>
      <trkpt lat="44.54665" lon="6.06476">
        <ele>586.060791</ele>
        <time>2011-03-24T09:04:36Z</time>
      </trkpt>
      <trkpt lat="44.54664" lon="6.06475">
        <ele>587.983398</ele>
        <time>2011-03-24T09:04:50Z</time>
      </trkpt>
      <trkpt lat="44.54664" lon="6.06475">
        <ele>589.90625</ele>
        <time>2011-03-24T09:05:11Z</time>
      </trkpt>
      <trkpt lat="44.54664" lon="6.06475">
        <ele>588.464355</ele>
        <time>2011-03-24T09:05:16Z</time>
      </trkpt>
      <trkpt lat="44.54664" lon="6.06475">
        <ele>588.945068</ele>
        <time>2011-03-24T09:05:23Z</time>
      </trkpt>
      <trkpt lat="44.54664" lon="6.06475">
        <ele>591.828857</ele>
        <time>2011-03-24T09:05:33Z</time>
      </trkpt>
      <trkpt lat="44.54664" lon="6.06475">
        <ele>590.386963</ele>
        <time>2011-03-24T09:05:36Z</time>
      </trkpt>
      <trkpt lat="44.54664" lon="6.06475">
        <ele>591.828857</ele>
        <time>2011-03-24T09:05:49Z</time>
      </trkpt>
      <trkpt lat="44.54664" lon="6.06475">
        <ele>594.232178</ele>
        <time>2011-03-24T09:06:08Z</time>
      </trkpt>
      <trkpt lat="44.54658" lon="6.06454">
        <ele>593.751465</ele>
        <time>2011-03-24T09:06:35Z</time>
      </trkpt>
      <trkpt lat="44.54658" lon="6.06454">
        <ele>594.712646</ele>
        <time>2011-03-24T09:06:37Z</time>
      </trkpt>
      <trkpt lat="44.54658" lon="6.06454">
        <ele>594.232178</ele>
        <time>2011-03-24T09:06:41Z</time>
      </trkpt>
      <trkpt lat="44.54654" lon="6.06449">
        <ele>595.674072</ele>
        <time>2011-03-24T09:06:46Z</time>
      </trkpt>
      <trkpt lat="44.54653" lon="6.06446">
        <ele>593.751465</ele>
        <time>2011-03-24T09:06:48Z</time>
      </trkpt>
      <trkpt lat="44.54651" lon="6.06443">
        <ele>595.193359</ele>
        <time>2011-03-24T09:06:50Z</time>
      </trkpt>
      <trkpt lat="44.54633" lon="6.06457">
        <ele>596.154785</ele>
        <time>2011-03-24T09:07:08Z</time>
      </trkpt>
      <trkpt lat="44.54628" lon="6.06457">
        <ele>595.674072</ele>
        <time>2011-03-24T09:07:15Z</time>
      </trkpt>
      <trkpt lat="44.54619" lon="6.06458">
        <ele>595.674072</ele>
        <time>2011-03-24T09:07:22Z</time>
      </trkpt>
      <trkpt lat="44.54499" lon="6.06482">
        <ele>594.712646</ele>
        <time>2011-03-24T09:07:43Z</time>
      </trkpt>
      <trkpt lat="44.54374" lon="6.06504">
        <ele>593.270752</ele>
        <time>2011-03-24T09:08:02Z</time>
      </trkpt>
      <trkpt lat="44.54362" lon="6.06506">
        <ele>593.751465</ele>
        <time>2011-03-24T09:08:04Z</time>
      </trkpt>
      <trkpt lat="44.54336" lon="6.0651">
        <ele>593.270752</ele>
        <time>2011-03-24T09:08:09Z</time>
      </trkpt>
      <trkpt lat="44.54313" lon="6.06508">
        <ele>592.30957</ele>
        <time>2011-03-24T09:08:13Z</time>
      </trkpt>
      <trkpt lat="44.54301" lon="6.06507">
        <ele>592.790283</ele>
        <time>2011-03-24T09:08:15Z</time>
      </trkpt>
      <trkpt lat="44.54252" lon="6.06499">
        <ele>592.30957</ele>
        <time>2011-03-24T09:08:23Z</time>
      </trkpt>
      <trkpt lat="44.54127" lon="6.06447">
        <ele>592.30957</ele>
        <time>2011-03-24T09:08:45Z</time>
      </trkpt>
      <trkpt lat="44.53998" lon="6.06392">
        <ele>593.751465</ele>
        <time>2011-03-24T09:09:10Z</time>
      </trkpt>
      <trkpt lat="44.53942" lon="6.06354">
        <ele>593.751465</ele>
        <time>2011-03-24T09:09:22Z</time>
      </trkpt>
      <trkpt lat="44.53916" lon="6.0635">
        <ele>594.232178</ele>
        <time>2011-03-24T09:09:27Z</time>
      </trkpt>
      <trkpt lat="44.53794" lon="6.06303">
        <ele>593.270752</ele>
        <time>2011-03-24T09:09:50Z</time>
      </trkpt>
      <trkpt lat="44.53645" lon="6.06249">
        <ele>591.828857</ele>
        <time>2011-03-24T09:10:14Z</time>
      </trkpt>
      <trkpt lat="44.53471" lon="6.06195">
        <ele>589.90625</ele>
        <time>2011-03-24T09:10:39Z</time>
      </trkpt>
      <trkpt lat="44.53397" lon="6.06173">
        <ele>591.828857</ele>
        <time>2011-03-24T09:10:54Z</time>
      </trkpt>
      <trkpt lat="44.53373" lon="6.06166">
        <ele>591.828857</ele>
        <time>2011-03-24T09:11:02Z</time>
      </trkpt>
      <trkpt lat="44.53292" lon="6.06145">
        <ele>592.30957</ele>
        <time>2011-03-24T09:11:21Z</time>
      </trkpt>
      <trkpt lat="44.53271" lon="6.0614">
        <ele>592.30957</ele>
        <time>2011-03-24T09:11:26Z</time>
      </trkpt>
      <trkpt lat="44.53254" lon="6.06135">
        <ele>592.30957</ele>
        <time>2011-03-24T09:11:30Z</time>
      </trkpt>
      <trkpt lat="44.53224" lon="6.06127">
        <ele>592.790283</ele>
        <time>2011-03-24T09:11:37Z</time>
      </trkpt>
      <trkpt lat="44.53186" lon="6.06116">
        <ele>593.270752</ele>
        <time>2011-03-24T09:11:49Z</time>
      </trkpt>
      <trkpt lat="44.53135" lon="6.06102">
        <ele>593.270752</ele>
        <time>2011-03-24T09:12:02Z</time>
      </trkpt>
      <trkpt lat="44.53027" lon="6.06072">
        <ele>593.751465</ele>
        <time>2011-03-24T09:12:24Z</time>
      </trkpt>
      <trkpt lat="44.52885" lon="6.06032">
        <ele>595.193359</ele>
        <time>2011-03-24T09:12:52Z</time>
      </trkpt>
      <trkpt lat="44.52742" lon="6.06">
        <ele>594.712646</ele>
        <time>2011-03-24T09:13:16Z</time>
      </trkpt>
      <trkpt lat="44.52687" lon="6.05988">
        <ele>593.270752</ele>
        <time>2011-03-24T09:13:25Z</time>
      </trkpt>
      <trkpt lat="44.52622" lon="6.05979">
        <ele>590.386963</ele>
        <time>2011-03-24T09:13:34Z</time>
      </trkpt>
      <trkpt lat="44.52605" lon="6.05977">
        <ele>588.464355</ele>
        <time>2011-03-24T09:13:36Z</time>
      </trkpt>
      <trkpt lat="44.52579" lon="6.05973">
        <ele>587.021973</ele>
        <time>2011-03-24T09:13:39Z</time>
      </trkpt>
      <trkpt lat="44.52544" lon="6.05968">
        <ele>582.215576</ele>
        <time>2011-03-24T09:13:43Z</time>
      </trkpt>
      <trkpt lat="44.52534" lon="6.05966">
        <ele>582.215576</ele>
        <time>2011-03-24T09:13:44Z</time>
      </trkpt>
      <trkpt lat="44.52514" lon="6.05964">
        <ele>581.254395</ele>
        <time>2011-03-24T09:13:46Z</time>
      </trkpt>
      <trkpt lat="44.52495" lon="6.05961">
        <ele>579.331543</ele>
        <time>2011-03-24T09:13:48Z</time>
      </trkpt>
      <trkpt lat="44.52475" lon="6.05958">
        <ele>577.889648</ele>
        <time>2011-03-24T09:13:50Z</time>
      </trkpt>
      <trkpt lat="44.52447" lon="6.05955">
        <ele>575.486328</ele>
        <time>2011-03-24T09:13:53Z</time>
      </trkpt>
      <trkpt lat="44.52401" lon="6.05936">
        <ele>572.121826</ele>
        <time>2011-03-24T09:13:58Z</time>
      </trkpt>
      <trkpt lat="44.52384" lon="6.05924">
        <ele>570.679688</ele>
        <time>2011-03-24T09:14:00Z</time>
      </trkpt>
      <trkpt lat="44.52367" lon="6.05913">
        <ele>568.276367</ele>
        <time>2011-03-24T09:14:02Z</time>
      </trkpt>
      <trkpt lat="44.52352" lon="6.05903">
        <ele>566.834473</ele>
        <time>2011-03-24T09:14:04Z</time>
      </trkpt>
      <trkpt lat="44.52277" lon="6.05962">
        <ele>567.315186</ele>
        <time>2011-03-24T09:14:11Z</time>
      </trkpt>
      <trkpt lat="44.52252" lon="6.05945">
        <ele>567.315186</ele>
        <time>2011-03-24T09:14:16Z</time>
      </trkpt>
      <trkpt lat="44.52211" lon="6.05871">
        <ele>570.679688</ele>
        <time>2011-03-24T09:14:34Z</time>
      </trkpt>
      <trkpt lat="44.52198" lon="6.05847">
        <ele>572.121826</ele>
        <time>2011-03-24T09:14:41Z</time>
      </trkpt>
      <trkpt lat="44.52194" lon="6.05841">
        <ele>571.1604</ele>
        <time>2011-03-24T09:14:43Z</time>
      </trkpt>
      <trkpt lat="44.52189" lon="6.05832">
        <ele>572.602539</ele>
        <time>2011-03-24T09:14:46Z</time>
      </trkpt>
      <trkpt lat="44.52174" lon="6.05808">
        <ele>575.486328</ele>
        <time>2011-03-24T09:14:55Z</time>
      </trkpt>
      <trkpt lat="44.52147" lon="6.05781">
        <ele>578.370361</ele>
        <time>2011-03-24T09:15:07Z</time>
      </trkpt>
      <trkpt lat="44.5211" lon="6.05787">
        <ele>581.254395</ele>
        <time>2011-03-24T09:15:21Z</time>
      </trkpt>
      <trkpt lat="44.52059" lon="6.05801">
        <ele>584.618896</ele>
        <time>2011-03-24T09:15:41Z</time>
      </trkpt>
      <trkpt lat="44.52005" lon="6.05813">
        <ele>586.060791</ele>
        <time>2011-03-24T09:15:59Z</time>
      </trkpt>
      <trkpt lat="44.51907" lon="6.05836">
        <ele>587.983398</ele>
        <time>2011-03-24T09:16:26Z</time>
      </trkpt>
      <trkpt lat="44.51839" lon="6.05845">
        <ele>591.348145</ele>
        <time>2011-03-24T09:16:45Z</time>
      </trkpt>
      <trkpt lat="44.51778" lon="6.0583">
        <ele>594.232178</ele>
        <time>2011-03-24T09:17:03Z</time>
      </trkpt>
      <trkpt lat="44.51732" lon="6.05813">
        <ele>597.59668</ele>
        <time>2011-03-24T09:17:18Z</time>
      </trkpt>
      <trkpt lat="44.51653" lon="6.05776">
        <ele>600.480713</ele>
        <time>2011-03-24T09:17:43Z</time>
      </trkpt>
      <trkpt lat="44.51591" lon="6.05734">
        <ele>602.403076</ele>
        <time>2011-03-24T09:18:04Z</time>
      </trkpt>
      <trkpt lat="44.51535" lon="6.05697">
        <ele>605.287354</ele>
        <time>2011-03-24T09:18:23Z</time>
      </trkpt>
      <trkpt lat="44.51483" lon="6.05664">
        <ele>608.171387</ele>
        <time>2011-03-24T09:18:43Z</time>
      </trkpt>
      <trkpt lat="44.51449" lon="6.05644">
        <ele>612.016602</ele>
        <time>2011-03-24T09:18:57Z</time>
      </trkpt>
      <trkpt lat="44.51405" lon="6.05626">
        <ele>614.900391</ele>
        <time>2011-03-24T09:19:14Z</time>
      </trkpt>
      <trkpt lat="44.51374" lon="6.05614">
        <ele>618.264893</ele>
        <time>2011-03-24T09:19:26Z</time>
      </trkpt>
      <trkpt lat="44.51329" lon="6.05589">
        <ele>621.14917</ele>
        <time>2011-03-24T09:19:45Z</time>
      </trkpt>
      <trkpt lat="44.51295" lon="6.05567">
        <ele>624.032959</ele>
        <time>2011-03-24T09:20:00Z</time>
      </trkpt>
      <trkpt lat="44.51285" lon="6.05559">
        <ele>625.474854</ele>
        <time>2011-03-24T09:20:05Z</time>
      </trkpt>
      <trkpt lat="44.51254" lon="6.05538">
        <ele>628.8396</ele>
        <time>2011-03-24T09:20:19Z</time>
      </trkpt>
      <trkpt lat="44.51206" lon="6.05524">
        <ele>632.204102</ele>
        <time>2011-03-24T09:20:38Z</time>
      </trkpt>
      <trkpt lat="44.51148" lon="6.05509">
        <ele>635.088135</ele>
        <time>2011-03-24T09:21:00Z</time>
      </trkpt>
      <trkpt lat="44.51089" lon="6.05495">
        <ele>637.491455</ele>
        <time>2011-03-24T09:21:22Z</time>
      </trkpt>
      <trkpt lat="44.51029" lon="6.05503">
        <ele>638.933594</ele>
        <time>2011-03-24T09:21:43Z</time>
      </trkpt>
      <trkpt lat="44.50977" lon="6.05517">
        <ele>642.298096</ele>
        <time>2011-03-24T09:22:02Z</time>
      </trkpt>
      <trkpt lat="44.50939" lon="6.05528">
        <ele>645.662598</ele>
        <time>2011-03-24T09:22:19Z</time>
      </trkpt>
      <trkpt lat="44.50905" lon="6.05533">
        <ele>648.546387</ele>
        <time>2011-03-24T09:22:34Z</time>
      </trkpt>
      <trkpt lat="44.50862" lon="6.05538">
        <ele>651.911133</ele>
        <time>2011-03-24T09:22:53Z</time>
      </trkpt>
      <trkpt lat="44.50819" lon="6.05548">
        <ele>655.275879</ele>
        <time>2011-03-24T09:23:12Z</time>
      </trkpt>
      <trkpt lat="44.50769" lon="6.05566">
        <ele>658.640381</ele>
        <time>2011-03-24T09:23:33Z</time>
      </trkpt>
      <trkpt lat="44.50721" lon="6.05574">
        <ele>661.524414</ele>
        <time>2011-03-24T09:23:54Z</time>
      </trkpt>
      <trkpt lat="44.50682" lon="6.05597">
        <ele>664.408203</ele>
        <time>2011-03-24T09:24:14Z</time>
      </trkpt>
      <trkpt lat="44.5065" lon="6.05613">
        <ele>667.292236</ele>
        <time>2011-03-24T09:24:28Z</time>
      </trkpt>
      <trkpt lat="44.50608" lon="6.05623">
        <ele>670.656982</ele>
        <time>2011-03-24T09:24:47Z</time>
      </trkpt>
      <trkpt lat="44.50568" lon="6.05638">
        <ele>674.021484</ele>
        <time>2011-03-24T09:25:06Z</time>
      </trkpt>
      <trkpt lat="44.5053" lon="6.05662">
        <ele>677.38623</ele>
        <time>2011-03-24T09:25:25Z</time>
      </trkpt>
      <trkpt lat="44.50497" lon="6.05711">
        <ele>680.27002</ele>
        <time>2011-03-24T09:25:46Z</time>
      </trkpt>
      <trkpt lat="44.50467" lon="6.05772">
        <ele>683.634521</ele>
        <time>2011-03-24T09:26:09Z</time>
      </trkpt>
      <trkpt lat="44.50419" lon="6.05793">
        <ele>686.518799</ele>
        <time>2011-03-24T09:26:30Z</time>
      </trkpt>
      <trkpt lat="44.50373" lon="6.05787">
        <ele>689.883301</ele>
        <time>2011-03-24T09:26:51Z</time>
      </trkpt>
      <trkpt lat="44.50329" lon="6.05761">
        <ele>692.767334</ele>
        <time>2011-03-24T09:27:12Z</time>
      </trkpt>
      <trkpt lat="44.50278" lon="6.05733">
        <ele>695.17041</ele>
        <time>2011-03-24T09:27:34Z</time>
      </trkpt>
      <trkpt lat="44.50219" lon="6.05701">
        <ele>698.054443</ele>
        <time>2011-03-24T09:27:59Z</time>
      </trkpt>
      <trkpt lat="44.5017" lon="6.05674">
        <ele>701.419189</ele>
        <time>2011-03-24T09:28:20Z</time>
      </trkpt>
      <trkpt lat="44.50132" lon="6.0565">
        <ele>705.264404</ele>
        <time>2011-03-24T09:28:37Z</time>
      </trkpt>
      <trkpt lat="44.50094" lon="6.05629">
        <ele>708.148438</ele>
        <time>2011-03-24T09:28:54Z</time>
      </trkpt>
      <trkpt lat="44.50044" lon="6.05619">
        <ele>711.512939</ele>
        <time>2011-03-24T09:29:15Z</time>
      </trkpt>
      <trkpt lat="44.49994" lon="6.05615">
        <ele>714.396729</ele>
        <time>2011-03-24T09:29:34Z</time>
      </trkpt>
      <trkpt lat="44.49942" lon="6.05621">
        <ele>717.761475</ele>
        <time>2011-03-24T09:29:54Z</time>
      </trkpt>
      <trkpt lat="44.49901" lon="6.05627">
        <ele>721.126221</ele>
        <time>2011-03-24T09:30:11Z</time>
      </trkpt>
      <trkpt lat="44.49871" lon="6.0563">
        <ele>724.01001</ele>
        <time>2011-03-24T09:30:24Z</time>
      </trkpt>
      <trkpt lat="44.49843" lon="6.05633">
        <ele>727.374756</ele>
        <time>2011-03-24T09:30:37Z</time>
      </trkpt>
      <trkpt lat="44.49814" lon="6.05637">
        <ele>730.739258</ele>
        <time>2011-03-24T09:30:52Z</time>
      </trkpt>
      <trkpt lat="44.49783" lon="6.05639">
        <ele>734.104004</ele>
        <time>2011-03-24T09:31:08Z</time>
      </trkpt>
      <trkpt lat="44.49744" lon="6.05636">
        <ele>736.987793</ele>
        <time>2011-03-24T09:31:27Z</time>
      </trkpt>
      <trkpt lat="44.49695" lon="6.0562">
        <ele>739.391113</ele>
        <time>2011-03-24T09:31:49Z</time>
      </trkpt>
      <trkpt lat="44.49644" lon="6.05596">
        <ele>738.429932</ele>
        <time>2011-03-24T09:32:05Z</time>
      </trkpt>
      <trkpt lat="44.49565" lon="6.0555">
        <ele>735.06543</ele>
        <time>2011-03-24T09:32:21Z</time>
      </trkpt>
      <trkpt lat="44.49465" lon="6.05532">
        <ele>733.142578</ele>
        <time>2011-03-24T09:32:36Z</time>
      </trkpt>
      <trkpt lat="44.49353" lon="6.055">
        <ele>732.181396</ele>
        <time>2011-03-24T09:32:54Z</time>
      </trkpt>
      <trkpt lat="44.4925" lon="6.05423">
        <ele>730.258545</ele>
        <time>2011-03-24T09:33:13Z</time>
      </trkpt>
      <trkpt lat="44.49174" lon="6.05356">
        <ele>730.258545</ele>
        <time>2011-03-24T09:33:30Z</time>
      </trkpt>
      <trkpt lat="44.49103" lon="6.0531">
        <ele>726.894043</ele>
        <time>2011-03-24T09:33:43Z</time>
      </trkpt>
      <trkpt lat="44.49096" lon="6.05306">
        <ele>727.374756</ele>
        <time>2011-03-24T09:33:44Z</time>
      </trkpt>
      <trkpt lat="44.48981" lon="6.05249">
        <ele>726.894043</ele>
        <time>2011-03-24T09:34:03Z</time>
      </trkpt>
      <trkpt lat="44.48973" lon="6.05245">
        <ele>727.374756</ele>
        <time>2011-03-24T09:34:05Z</time>
      </trkpt>
      <trkpt lat="44.4892" lon="6.05211">
        <ele>731.219971</ele>
        <time>2011-03-24T09:34:22Z</time>
      </trkpt>
      <trkpt lat="44.48877" lon="6.05129">
        <ele>734.104004</ele>
        <time>2011-03-24T09:34:45Z</time>
      </trkpt>
      <trkpt lat="44.48847" lon="6.05081">
        <ele>736.987793</ele>
        <time>2011-03-24T09:35:01Z</time>
      </trkpt>
      <trkpt lat="44.48823" lon="6.0503">
        <ele>740.352539</ele>
        <time>2011-03-24T09:35:18Z</time>
      </trkpt>
      <trkpt lat="44.48773" lon="6.05">
        <ele>740.833008</ele>
        <time>2011-03-24T09:35:36Z</time>
      </trkpt>
      <trkpt lat="44.48766" lon="6.04995">
        <ele>740.352539</ele>
        <time>2011-03-24T09:35:38Z</time>
      </trkpt>
      <trkpt lat="44.48745" lon="6.04984">
        <ele>738.910645</ele>
        <time>2011-03-24T09:35:42Z</time>
      </trkpt>
      <trkpt lat="44.48714" lon="6.04982">
        <ele>736.026611</ele>
        <time>2011-03-24T09:35:46Z</time>
      </trkpt>
      <trkpt lat="44.48696" lon="6.04982">
        <ele>732.662109</ele>
        <time>2011-03-24T09:35:48Z</time>
      </trkpt>
      <trkpt lat="44.48688" lon="6.04977">
        <ele>732.662109</ele>
        <time>2011-03-24T09:35:49Z</time>
      </trkpt>
      <trkpt lat="44.48669" lon="6.04972">
        <ele>731.219971</ele>
        <time>2011-03-24T09:35:51Z</time>
      </trkpt>
      <trkpt lat="44.4865" lon="6.04971">
        <ele>728.81665</ele>
        <time>2011-03-24T09:35:53Z</time>
      </trkpt>
      <trkpt lat="44.48612" lon="6.04972">
        <ele>727.374756</ele>
        <time>2011-03-24T09:35:57Z</time>
      </trkpt>
      <trkpt lat="44.48521" lon="6.04967">
        <ele>728.81665</ele>
        <time>2011-03-24T09:36:08Z</time>
      </trkpt>
      <trkpt lat="44.48469" lon="6.0495">
        <ele>728.335938</ele>
        <time>2011-03-24T09:36:16Z</time>
      </trkpt>
      <trkpt lat="44.48435" lon="6.04957">
        <ele>727.855225</ele>
        <time>2011-03-24T09:36:22Z</time>
      </trkpt>
      <trkpt lat="44.48398" lon="6.04991">
        <ele>729.297119</ele>
        <time>2011-03-24T09:36:30Z</time>
      </trkpt>
      <trkpt lat="44.48387" lon="6.05017">
        <ele>729.297119</ele>
        <time>2011-03-24T09:36:35Z</time>
      </trkpt>
      <trkpt lat="44.48355" lon="6.05105">
        <ele>729.777832</ele>
        <time>2011-03-24T09:36:52Z</time>
      </trkpt>
      <trkpt lat="44.48295" lon="6.05217">
        <ele>729.297119</ele>
        <time>2011-03-24T09:37:14Z</time>
      </trkpt>
      <trkpt lat="44.4828" lon="6.0523">
        <ele>727.855225</ele>
        <time>2011-03-24T09:37:17Z</time>
      </trkpt>
      <trkpt lat="44.48257" lon="6.05239">
        <ele>726.894043</ele>
        <time>2011-03-24T09:37:21Z</time>
      </trkpt>
      <trkpt lat="44.48244" lon="6.05241">
        <ele>724.971436</ele>
        <time>2011-03-24T09:37:23Z</time>
      </trkpt>
      <trkpt lat="44.48201" lon="6.05257">
        <ele>723.048828</ele>
        <time>2011-03-24T09:37:29Z</time>
      </trkpt>
      <trkpt lat="44.48179" lon="6.05262">
        <ele>721.606689</ele>
        <time>2011-03-24T09:37:32Z</time>
      </trkpt>
      <trkpt lat="44.48166" lon="6.05255">
        <ele>719.203613</ele>
        <time>2011-03-24T09:37:34Z</time>
      </trkpt>
      <trkpt lat="44.48119" lon="6.05204">
        <ele>716.800293</ele>
        <time>2011-03-24T09:37:42Z</time>
      </trkpt>
      <trkpt lat="44.48089" lon="6.05152">
        <ele>713.435547</ele>
        <time>2011-03-24T09:37:48Z</time>
      </trkpt>
      <trkpt lat="44.48083" lon="6.05143">
        <ele>713.435547</ele>
        <time>2011-03-24T09:37:49Z</time>
      </trkpt>
      <trkpt lat="44.48058" lon="6.05096">
        <ele>711.032227</ele>
        <time>2011-03-24T09:37:54Z</time>
      </trkpt>
      <trkpt lat="44.48046" lon="6.0508">
        <ele>710.551514</ele>
        <time>2011-03-24T09:37:56Z</time>
      </trkpt>
      <trkpt lat="44.48015" lon="6.05045">
        <ele>709.109619</ele>
        <time>2011-03-24T09:38:01Z</time>
      </trkpt>
      <trkpt lat="44.48005" lon="6.05015">
        <ele>707.187012</ele>
        <time>2011-03-24T09:38:04Z</time>
      </trkpt>
      <trkpt lat="44.48001" lon="6.05008">
        <ele>707.187012</ele>
        <time>2011-03-24T09:38:05Z</time>
      </trkpt>
      <trkpt lat="44.47979" lon="6.04994">
        <ele>706.706299</ele>
        <time>2011-03-24T09:38:09Z</time>
      </trkpt>
      <trkpt lat="44.47957" lon="6.04993">
        <ele>704.303223</ele>
        <time>2011-03-24T09:38:12Z</time>
      </trkpt>
      <trkpt lat="44.47915" lon="6.04992">
        <ele>700.938477</ele>
        <time>2011-03-24T09:38:17Z</time>
      </trkpt>
      <trkpt lat="44.47898" lon="6.04995">
        <ele>699.496338</ele>
        <time>2011-03-24T09:38:19Z</time>
      </trkpt>
      <trkpt lat="44.47859" lon="6.05013">
        <ele>697.57373</ele>
        <time>2011-03-24T09:38:24Z</time>
      </trkpt>
      <trkpt lat="44.47842" lon="6.05016">
        <ele>697.093018</ele>
        <time>2011-03-24T09:38:26Z</time>
      </trkpt>
      <trkpt lat="44.47825" lon="6.05016">
        <ele>695.651123</ele>
        <time>2011-03-24T09:38:28Z</time>
      </trkpt>
      <trkpt lat="44.47774" lon="6.05009">
        <ele>692.767334</ele>
        <time>2011-03-24T09:38:34Z</time>
      </trkpt>
      <trkpt lat="44.47722" lon="6.04996">
        <ele>690.844482</ele>
        <time>2011-03-24T09:38:40Z</time>
      </trkpt>
      <trkpt lat="44.47693" lon="6.04976">
        <ele>689.883301</ele>
        <time>2011-03-24T09:38:44Z</time>
      </trkpt>
      <trkpt lat="44.47644" lon="6.04943">
        <ele>686.038086</ele>
        <time>2011-03-24T09:38:51Z</time>
      </trkpt>
      <trkpt lat="44.47613" lon="6.04929">
        <ele>683.153809</ele>
        <time>2011-03-24T09:38:55Z</time>
      </trkpt>
      <trkpt lat="44.47607" lon="6.04927">
        <ele>683.153809</ele>
        <time>2011-03-24T09:38:56Z</time>
      </trkpt>
      <trkpt lat="44.47569" lon="6.04942">
        <ele>680.750732</ele>
        <time>2011-03-24T09:39:02Z</time>
      </trkpt>
      <trkpt lat="44.47551" lon="6.04961">
        <ele>679.789307</ele>
        <time>2011-03-24T09:39:05Z</time>
      </trkpt>
      <trkpt lat="44.47526" lon="6.04991">
        <ele>675.944092</ele>
        <time>2011-03-24T09:39:09Z</time>
      </trkpt>
      <trkpt lat="44.4752" lon="6.04999">
        <ele>675.944092</ele>
        <time>2011-03-24T09:39:10Z</time>
      </trkpt>
      <trkpt lat="44.47504" lon="6.05019">
        <ele>675.944092</ele>
        <time>2011-03-24T09:39:13Z</time>
      </trkpt>
      <trkpt lat="44.47467" lon="6.0501">
        <ele>675.463379</ele>
        <time>2011-03-24T09:39:20Z</time>
      </trkpt>
      <trkpt lat="44.47465" lon="6.05002">
        <ele>675.944092</ele>
        <time>2011-03-24T09:39:21Z</time>
      </trkpt>
      <trkpt lat="44.47461" lon="6.04984">
        <ele>674.98291</ele>
        <time>2011-03-24T09:39:23Z</time>
      </trkpt>
      <trkpt lat="44.47445" lon="6.0496">
        <ele>671.618164</ele>
        <time>2011-03-24T09:39:26Z</time>
      </trkpt>
      <trkpt lat="44.47431" lon="6.04947">
        <ele>669.695801</ele>
        <time>2011-03-24T09:39:28Z</time>
      </trkpt>
      <trkpt lat="44.47424" lon="6.04942">
        <ele>668.734375</ele>
        <time>2011-03-24T09:39:29Z</time>
      </trkpt>
      <trkpt lat="44.47393" lon="6.04928">
        <ele>666.330811</ele>
        <time>2011-03-24T09:39:33Z</time>
      </trkpt>
      <trkpt lat="44.47384" lon="6.04927">
        <ele>666.330811</ele>
        <time>2011-03-24T09:39:34Z</time>
      </trkpt>
      <trkpt lat="44.47341" lon="6.04918">
        <ele>662.966309</ele>
        <time>2011-03-24T09:39:39Z</time>
      </trkpt>
      <trkpt lat="44.47332" lon="6.04915">
        <ele>662.966309</ele>
        <time>2011-03-24T09:39:40Z</time>
      </trkpt>
      <trkpt lat="44.47308" lon="6.04909">
        <ele>662.966309</ele>
        <time>2011-03-24T09:39:43Z</time>
      </trkpt>
      <trkpt lat="44.47231" lon="6.04911">
        <ele>660.082275</ele>
        <time>2011-03-24T09:39:52Z</time>
      </trkpt>
      <trkpt lat="44.47161" lon="6.04913">
        <ele>656.717773</ele>
        <time>2011-03-24T09:40:00Z</time>
      </trkpt>
      <trkpt lat="44.47153" lon="6.04913">
        <ele>656.717773</ele>
        <time>2011-03-24T09:40:01Z</time>
      </trkpt>
      <trkpt lat="44.47063" lon="6.04934">
        <ele>653.833984</ele>
        <time>2011-03-24T09:40:13Z</time>
      </trkpt>
      <trkpt lat="44.47013" lon="6.04967">
        <ele>650.469238</ele>
        <time>2011-03-24T09:40:20Z</time>
      </trkpt>
      <trkpt lat="44.46973" lon="6.04993">
        <ele>649.0271</ele>
        <time>2011-03-24T09:40:26Z</time>
      </trkpt>
      <trkpt lat="44.4694" lon="6.04997">
        <ele>646.624023</ele>
        <time>2011-03-24T09:40:31Z</time>
      </trkpt>
      <trkpt lat="44.46933" lon="6.04997">
        <ele>645.662598</ele>
        <time>2011-03-24T09:40:32Z</time>
      </trkpt>
      <trkpt lat="44.46898" lon="6.04989">
        <ele>642.298096</ele>
        <time>2011-03-24T09:40:37Z</time>
      </trkpt>
      <trkpt lat="44.46871" lon="6.0494">
        <ele>639.894775</ele>
        <time>2011-03-24T09:40:45Z</time>
      </trkpt>
      <trkpt lat="44.46885" lon="6.04906">
        <ele>637.491455</ele>
        <time>2011-03-24T09:40:49Z</time>
      </trkpt>
      <trkpt lat="44.4689" lon="6.04901">
        <ele>637.491455</ele>
        <time>2011-03-24T09:40:50Z</time>
      </trkpt>
      <trkpt lat="44.46915" lon="6.04876">
        <ele>636.049561</ele>
        <time>2011-03-24T09:40:56Z</time>
      </trkpt>
      <trkpt lat="44.46897" lon="6.04865">
        <ele>633.165283</ele>
        <time>2011-03-24T09:41:02Z</time>
      </trkpt>
      <trkpt lat="44.46891" lon="6.04868">
        <ele>633.165283</ele>
        <time>2011-03-24T09:41:03Z</time>
      </trkpt>
      <trkpt lat="44.46838" lon="6.04896">
        <ele>628.8396</ele>
        <time>2011-03-24T09:41:11Z</time>
      </trkpt>
      <trkpt lat="44.46813" lon="6.04911">
        <ele>627.397705</ele>
        <time>2011-03-24T09:41:15Z</time>
      </trkpt>
      <trkpt lat="44.468" lon="6.04918">
        <ele>626.916992</ele>
        <time>2011-03-24T09:41:17Z</time>
      </trkpt>
      <trkpt lat="44.46792" lon="6.04958">
        <ele>624.994385</ele>
        <time>2011-03-24T09:41:24Z</time>
      </trkpt>
      <trkpt lat="44.46811" lon="6.04994">
        <ele>623.071777</ele>
        <time>2011-03-24T09:41:29Z</time>
      </trkpt>
      <trkpt lat="44.4682" lon="6.05012">
        <ele>621.629639</ele>
        <time>2011-03-24T09:41:31Z</time>
      </trkpt>
      <trkpt lat="44.46831" lon="6.05031">
        <ele>620.187744</ele>
        <time>2011-03-24T09:41:33Z</time>
      </trkpt>
      <trkpt lat="44.4685" lon="6.05064">
        <ele>617.303711</ele>
        <time>2011-03-24T09:41:37Z</time>
      </trkpt>
      <trkpt lat="44.4687" lon="6.05107">
        <ele>614.900391</ele>
        <time>2011-03-24T09:41:42Z</time>
      </trkpt>
      <trkpt lat="44.46877" lon="6.05123">
        <ele>614.419678</ele>
        <time>2011-03-24T09:41:44Z</time>
      </trkpt>
      <trkpt lat="44.46882" lon="6.05138">
        <ele>614.419678</ele>
        <time>2011-03-24T09:41:46Z</time>
      </trkpt>
      <trkpt lat="44.46887" lon="6.05168">
        <ele>613.938965</ele>
        <time>2011-03-24T09:41:50Z</time>
      </trkpt>
      <trkpt lat="44.46892" lon="6.05182">
        <ele>612.977783</ele>
        <time>2011-03-24T09:41:52Z</time>
      </trkpt>
      <trkpt lat="44.46901" lon="6.05192">
        <ele>612.49707</ele>
        <time>2011-03-24T09:41:54Z</time>
      </trkpt>
      <trkpt lat="44.46892" lon="6.05228">
        <ele>610.09375</ele>
        <time>2011-03-24T09:42:00Z</time>
      </trkpt>
      <trkpt lat="44.46874" lon="6.05235">
        <ele>609.613281</ele>
        <time>2011-03-24T09:42:03Z</time>
      </trkpt>
      <trkpt lat="44.46851" lon="6.05237">
        <ele>607.690674</ele>
        <time>2011-03-24T09:42:06Z</time>
      </trkpt>
      <trkpt lat="44.46835" lon="6.05235">
        <ele>606.729248</ele>
        <time>2011-03-24T09:42:08Z</time>
      </trkpt>
      <trkpt lat="44.4679" lon="6.05251">
        <ele>602.883789</ele>
        <time>2011-03-24T09:42:14Z</time>
      </trkpt>
      <trkpt lat="44.46783" lon="6.05258">
        <ele>602.883789</ele>
        <time>2011-03-24T09:42:15Z</time>
      </trkpt>
      <trkpt lat="44.46769" lon="6.05273">
        <ele>601.441895</ele>
        <time>2011-03-24T09:42:17Z</time>
      </trkpt>
      <trkpt lat="44.46755" lon="6.05289">
        <ele>599.038574</ele>
        <time>2011-03-24T09:42:19Z</time>
      </trkpt>
      <trkpt lat="44.46716" lon="6.05335">
        <ele>596.154785</ele>
        <time>2011-03-24T09:42:25Z</time>
      </trkpt>
      <trkpt lat="44.46689" lon="6.05366">
        <ele>594.232178</ele>
        <time>2011-03-24T09:42:29Z</time>
      </trkpt>
      <trkpt lat="44.46666" lon="6.05395">
        <ele>592.30957</ele>
        <time>2011-03-24T09:42:33Z</time>
      </trkpt>
      <trkpt lat="44.46646" lon="6.05405">
        <ele>590.386963</ele>
        <time>2011-03-24T09:42:36Z</time>
      </trkpt>
      <trkpt lat="44.46619" lon="6.05399">
        <ele>589.425537</ele>
        <time>2011-03-24T09:42:40Z</time>
      </trkpt>
      <trkpt lat="44.466" lon="6.05392">
        <ele>587.502686</ele>
        <time>2011-03-24T09:42:43Z</time>
      </trkpt>
      <trkpt lat="44.46587" lon="6.05392">
        <ele>586.060791</ele>
        <time>2011-03-24T09:42:45Z</time>
      </trkpt>
      <trkpt lat="44.46572" lon="6.05396">
        <ele>585.099609</ele>
        <time>2011-03-24T09:42:47Z</time>
      </trkpt>
      <trkpt lat="44.4655" lon="6.05409">
        <ele>582.696289</ele>
        <time>2011-03-24T09:42:50Z</time>
      </trkpt>
      <trkpt lat="44.46483" lon="6.05446">
        <ele>579.331543</ele>
        <time>2011-03-24T09:43:00Z</time>
      </trkpt>
      <trkpt lat="44.46441" lon="6.05423">
        <ele>577.889648</ele>
        <time>2011-03-24T09:43:08Z</time>
      </trkpt>
      <trkpt lat="44.46438" lon="6.05414">
        <ele>577.40918</ele>
        <time>2011-03-24T09:43:09Z</time>
      </trkpt>
      <trkpt lat="44.46426" lon="6.05378">
        <ele>575.967041</ele>
        <time>2011-03-24T09:43:13Z</time>
      </trkpt>
      <trkpt lat="44.46421" lon="6.05361">
        <ele>574.525146</ele>
        <time>2011-03-24T09:43:15Z</time>
      </trkpt>
      <trkpt lat="44.46409" lon="6.05325">
        <ele>573.083252</ele>
        <time>2011-03-24T09:43:19Z</time>
      </trkpt>
      <trkpt lat="44.46392" lon="6.05278">
        <ele>574.525146</ele>
        <time>2011-03-24T09:43:26Z</time>
      </trkpt>
      <trkpt lat="44.46385" lon="6.05258">
        <ele>574.525146</ele>
        <time>2011-03-24T09:43:31Z</time>
      </trkpt>
      <trkpt lat="44.46373" lon="6.05268">
        <ele>573.563965</ele>
        <time>2011-03-24T09:43:37Z</time>
      </trkpt>
      <trkpt lat="44.46366" lon="6.05277">
        <ele>573.083252</ele>
        <time>2011-03-24T09:43:39Z</time>
      </trkpt>
      <trkpt lat="44.46283" lon="6.05366">
        <ele>570.198975</ele>
        <time>2011-03-24T09:43:56Z</time>
      </trkpt>
      <trkpt lat="44.46249" lon="6.05401">
        <ele>566.834473</ele>
        <time>2011-03-24T09:44:03Z</time>
      </trkpt>
      <trkpt lat="44.46244" lon="6.05407">
        <ele>566.834473</ele>
        <time>2011-03-24T09:44:04Z</time>
      </trkpt>
      <trkpt lat="44.46201" lon="6.05453">
        <ele>564.911865</ele>
        <time>2011-03-24T09:44:13Z</time>
      </trkpt>
      <trkpt lat="44.46189" lon="6.05466">
        <ele>563.950439</ele>
        <time>2011-03-24T09:44:16Z</time>
      </trkpt>
      <trkpt lat="44.46183" lon="6.05486">
        <ele>563.950439</ele>
        <time>2011-03-24T09:44:20Z</time>
      </trkpt>
      <trkpt lat="44.46182" lon="6.05505">
        <ele>563.469971</ele>
        <time>2011-03-24T09:44:25Z</time>
      </trkpt>
      <trkpt lat="44.46193" lon="6.05519">
        <ele>562.989258</ele>
        <time>2011-03-24T09:44:31Z</time>
      </trkpt>
      <trkpt lat="44.46231" lon="6.05551">
        <ele>562.508545</ele>
        <time>2011-03-24T09:44:42Z</time>
      </trkpt>
      <trkpt lat="44.46234" lon="6.05571">
        <ele>562.028076</ele>
        <time>2011-03-24T09:44:45Z</time>
      </trkpt>
      <trkpt lat="44.46258" lon="6.05631">
        <ele>559.144043</ele>
        <time>2011-03-24T09:44:55Z</time>
      </trkpt>
      <trkpt lat="44.46265" lon="6.05646">
        <ele>559.144043</ele>
        <time>2011-03-24T09:44:58Z</time>
      </trkpt>
      <trkpt lat="44.46273" lon="6.05663">
        <ele>559.144043</ele>
        <time>2011-03-24T09:45:01Z</time>
      </trkpt>
      <trkpt lat="44.46285" lon="6.05686">
        <ele>557.702148</ele>
        <time>2011-03-24T09:45:07Z</time>
      </trkpt>
      <trkpt lat="44.46285" lon="6.05686">
        <ele>559.144043</ele>
        <time>2011-03-24T09:45:10Z</time>
      </trkpt>
      <trkpt lat="44.46324" lon="6.05723">
        <ele>558.182861</ele>
        <time>2011-03-24T09:45:15Z</time>
      </trkpt>
      <trkpt lat="44.46311" lon="6.05731">
        <ele>555.298584</ele>
        <time>2011-03-24T09:45:18Z</time>
      </trkpt>
      <trkpt lat="44.46305" lon="6.05731">
        <ele>555.298584</ele>
        <time>2011-03-24T09:45:19Z</time>
      </trkpt>
      <trkpt lat="44.46289" lon="6.05726">
        <ele>554.337402</ele>
        <time>2011-03-24T09:45:22Z</time>
      </trkpt>
      <trkpt lat="44.46272" lon="6.0573">
        <ele>553.375977</ele>
        <time>2011-03-24T09:45:25Z</time>
      </trkpt>
      <trkpt lat="44.46261" lon="6.05738">
        <ele>553.375977</ele>
        <time>2011-03-24T09:45:27Z</time>
      </trkpt>
      <trkpt lat="44.46231" lon="6.05771">
        <ele>552.414551</ele>
        <time>2011-03-24T09:45:33Z</time>
      </trkpt>
      <trkpt lat="44.46215" lon="6.05806">
        <ele>551.453369</ele>
        <time>2011-03-24T09:45:38Z</time>
      </trkpt>
      <trkpt lat="44.46193" lon="6.0592">
        <ele>553.375977</ele>
        <time>2011-03-24T09:45:54Z</time>
      </trkpt>
      <trkpt lat="44.46182" lon="6.05966">
        <ele>555.779297</ele>
        <time>2011-03-24T09:46:07Z</time>
      </trkpt>
      <trkpt lat="44.46178" lon="6.0603">
        <ele>556.740723</ele>
        <time>2011-03-24T09:46:22Z</time>
      </trkpt>
      <trkpt lat="44.46178" lon="6.06115">
        <ele>558.182861</ele>
        <time>2011-03-24T09:46:40Z</time>
      </trkpt>
      <trkpt lat="44.46178" lon="6.06154">
        <ele>561.547363</ele>
        <time>2011-03-24T09:46:51Z</time>
      </trkpt>
      <trkpt lat="44.46182" lon="6.06198">
        <ele>564.431152</ele>
        <time>2011-03-24T09:47:07Z</time>
      </trkpt>
      <trkpt lat="44.46184" lon="6.06204">
        <ele>564.911865</ele>
        <time>2011-03-24T09:47:10Z</time>
      </trkpt>
      <trkpt lat="44.46205" lon="6.06246">
        <ele>568.276367</ele>
        <time>2011-03-24T09:47:27Z</time>
      </trkpt>
      <trkpt lat="44.46214" lon="6.06294">
        <ele>569.718506</ele>
        <time>2011-03-24T09:47:44Z</time>
      </trkpt>
      <trkpt lat="44.46188" lon="6.06331">
        <ele>571.640869</ele>
        <time>2011-03-24T09:47:59Z</time>
      </trkpt>
      <trkpt lat="44.46161" lon="6.06361">
        <ele>574.525146</ele>
        <time>2011-03-24T09:48:10Z</time>
      </trkpt>
      <trkpt lat="44.46147" lon="6.06378">
        <ele>575.486328</ele>
        <time>2011-03-24T09:48:16Z</time>
      </trkpt>
      <trkpt lat="44.46135" lon="6.06392">
        <ele>576.447754</ele>
        <time>2011-03-24T09:48:22Z</time>
      </trkpt>
      <trkpt lat="44.46093" lon="6.0644">
        <ele>579.331543</ele>
        <time>2011-03-24T09:48:42Z</time>
      </trkpt>
      <trkpt lat="44.46082" lon="6.06453">
        <ele>580.773682</ele>
        <time>2011-03-24T09:48:47Z</time>
      </trkpt>
      <trkpt lat="44.46068" lon="6.06469">
        <ele>583.176758</ele>
        <time>2011-03-24T09:48:54Z</time>
      </trkpt>
      <trkpt lat="44.46048" lon="6.06497">
        <ele>587.021973</ele>
        <time>2011-03-24T09:49:08Z</time>
      </trkpt>
      <trkpt lat="44.46046" lon="6.06499">
        <ele>587.021973</ele>
        <time>2011-03-24T09:49:09Z</time>
      </trkpt>
      <trkpt lat="44.46051" lon="6.06528">
        <ele>587.021973</ele>
        <time>2011-03-24T09:49:23Z</time>
      </trkpt>
      <trkpt lat="44.46054" lon="6.06532">
        <ele>588.464355</ele>
        <time>2011-03-24T09:49:25Z</time>
      </trkpt>
      <trkpt lat="44.46085" lon="6.06563">
        <ele>589.425537</ele>
        <time>2011-03-24T09:49:41Z</time>
      </trkpt>
      <trkpt lat="44.46133" lon="6.06592">
        <ele>589.90625</ele>
        <time>2011-03-24T09:49:56Z</time>
      </trkpt>
      <trkpt lat="44.46161" lon="6.06637">
        <ele>589.425537</ele>
        <time>2011-03-24T09:50:08Z</time>
      </trkpt>
      <trkpt lat="44.46182" lon="6.06716">
        <ele>589.90625</ele>
        <time>2011-03-24T09:50:25Z</time>
      </trkpt>
      <trkpt lat="44.46216" lon="6.06786">
        <ele>590.867432</ele>
        <time>2011-03-24T09:50:42Z</time>
      </trkpt>
      <trkpt lat="44.46264" lon="6.0685">
        <ele>590.386963</ele>
        <time>2011-03-24T09:51:00Z</time>
      </trkpt>
      <trkpt lat="44.4627" lon="6.06861">
        <ele>589.425537</ele>
        <time>2011-03-24T09:51:02Z</time>
      </trkpt>
      <trkpt lat="44.46277" lon="6.06917">
        <ele>587.021973</ele>
        <time>2011-03-24T09:51:09Z</time>
      </trkpt>
      <trkpt lat="44.46274" lon="6.06947">
        <ele>586.060791</ele>
        <time>2011-03-24T09:51:13Z</time>
      </trkpt>
      <trkpt lat="44.46274" lon="6.06964">
        <ele>585.099609</ele>
        <time>2011-03-24T09:51:15Z</time>
      </trkpt>
      <trkpt lat="44.46278" lon="6.06982">
        <ele>584.138184</ele>
        <time>2011-03-24T09:51:17Z</time>
      </trkpt>
      <trkpt lat="44.46303" lon="6.07019">
        <ele>580.292969</ele>
        <time>2011-03-24T09:51:22Z</time>
      </trkpt>
      <trkpt lat="44.46316" lon="6.0703">
        <ele>579.331543</ele>
        <time>2011-03-24T09:51:24Z</time>
      </trkpt>
      <trkpt lat="44.46362" lon="6.07071">
        <ele>575.967041</ele>
        <time>2011-03-24T09:51:32Z</time>
      </trkpt>
      <trkpt lat="44.46391" lon="6.07099">
        <ele>574.044434</ele>
        <time>2011-03-24T09:51:37Z</time>
      </trkpt>
      <trkpt lat="44.46401" lon="6.07109">
        <ele>573.563965</ele>
        <time>2011-03-24T09:51:39Z</time>
      </trkpt>
      <trkpt lat="44.46416" lon="6.07143">
        <ele>572.602539</ele>
        <time>2011-03-24T09:51:44Z</time>
      </trkpt>
      <trkpt lat="44.46423" lon="6.07173">
        <ele>570.198975</ele>
        <time>2011-03-24T09:51:47Z</time>
      </trkpt>
      <trkpt lat="44.46433" lon="6.07216">
        <ele>567.795654</ele>
        <time>2011-03-24T09:51:51Z</time>
      </trkpt>
      <trkpt lat="44.46458" lon="6.07342">
        <ele>567.795654</ele>
        <time>2011-03-24T09:52:05Z</time>
      </trkpt>
      <trkpt lat="44.46499" lon="6.07464">
        <ele>568.75708</ele>
        <time>2011-03-24T09:52:22Z</time>
      </trkpt>
      <trkpt lat="44.46531" lon="6.0753">
        <ele>569.718506</ele>
        <time>2011-03-24T09:52:37Z</time>
      </trkpt>
      <trkpt lat="44.46581" lon="6.07606">
        <ele>571.1604</ele>
        <time>2011-03-24T09:52:57Z</time>
      </trkpt>
      <trkpt lat="44.4662" lon="6.07644">
        <ele>569.718506</ele>
        <time>2011-03-24T09:53:07Z</time>
      </trkpt>
      <trkpt lat="44.46662" lon="6.07669">
        <ele>573.083252</ele>
        <time>2011-03-24T09:53:21Z</time>
      </trkpt>
      <trkpt lat="44.46705" lon="6.07706">
        <ele>574.044434</ele>
        <time>2011-03-24T09:53:37Z</time>
      </trkpt>
      <trkpt lat="44.46762" lon="6.07744">
        <ele>574.525146</ele>
        <time>2011-03-24T09:53:56Z</time>
      </trkpt>
      <trkpt lat="44.46769" lon="6.07748">
        <ele>575.967041</ele>
        <time>2011-03-24T09:53:59Z</time>
      </trkpt>
      <trkpt lat="44.46815" lon="6.07773">
        <ele>578.370361</ele>
        <time>2011-03-24T09:54:18Z</time>
      </trkpt>
      <trkpt lat="44.46827" lon="6.07817">
        <ele>581.254395</ele>
        <time>2011-03-24T09:54:26Z</time>
      </trkpt>
      <trkpt lat="44.46819" lon="6.0783">
        <ele>583.176758</ele>
        <time>2011-03-24T09:54:34Z</time>
      </trkpt>
      <trkpt lat="44.46835" lon="6.07865">
        <ele>585.099609</ele>
        <time>2011-03-24T09:54:50Z</time>
      </trkpt>
      <trkpt lat="44.46869" lon="6.07854">
        <ele>586.541504</ele>
        <time>2011-03-24T09:55:06Z</time>
      </trkpt>
      <trkpt lat="44.46878" lon="6.07846">
        <ele>586.060791</ele>
        <time>2011-03-24T09:55:10Z</time>
      </trkpt>
      <trkpt lat="44.46897" lon="6.07847">
        <ele>588.945068</ele>
        <time>2011-03-24T09:55:19Z</time>
      </trkpt>
      <trkpt lat="44.46919" lon="6.07899">
        <ele>589.425537</ele>
        <time>2011-03-24T09:55:35Z</time>
      </trkpt>
      <trkpt lat="44.4693" lon="6.07919">
        <ele>588.945068</ele>
        <time>2011-03-24T09:55:40Z</time>
      </trkpt>
      <trkpt lat="44.46936" lon="6.07927">
        <ele>589.90625</ele>
        <time>2011-03-24T09:55:42Z</time>
      </trkpt>
      <trkpt lat="44.46943" lon="6.07934">
        <ele>588.464355</ele>
        <time>2011-03-24T09:55:44Z</time>
      </trkpt>
      <trkpt lat="44.4696" lon="6.07952">
        <ele>587.983398</ele>
        <time>2011-03-24T09:55:49Z</time>
      </trkpt>
      <trkpt lat="44.46977" lon="6.07983">
        <ele>588.945068</ele>
        <time>2011-03-24T09:55:55Z</time>
      </trkpt>
      <trkpt lat="44.46989" lon="6.08022">
        <ele>589.90625</ele>
        <time>2011-03-24T09:56:02Z</time>
      </trkpt>
      <trkpt lat="44.47001" lon="6.08047">
        <ele>589.90625</ele>
        <time>2011-03-24T09:56:07Z</time>
      </trkpt>
      <trkpt lat="44.47042" lon="6.08112">
        <ele>590.867432</ele>
        <time>2011-03-24T09:56:22Z</time>
      </trkpt>
      <trkpt lat="44.47089" lon="6.08237">
        <ele>593.270752</ele>
        <time>2011-03-24T09:56:48Z</time>
      </trkpt>
      <trkpt lat="44.47122" lon="6.08337">
        <ele>595.674072</ele>
        <time>2011-03-24T09:57:09Z</time>
      </trkpt>
      <trkpt lat="44.47156" lon="6.08442">
        <ele>597.115967</ele>
        <time>2011-03-24T09:57:31Z</time>
      </trkpt>
      <trkpt lat="44.47172" lon="6.0854">
        <ele>599.038574</ele>
        <time>2011-03-24T09:57:51Z</time>
      </trkpt>
      <trkpt lat="44.47179" lon="6.08637">
        <ele>601.922607</ele>
        <time>2011-03-24T09:58:14Z</time>
      </trkpt>
      <trkpt lat="44.47187" lon="6.08705">
        <ele>605.287354</ele>
        <time>2011-03-24T09:58:33Z</time>
      </trkpt>
      <trkpt lat="44.47194" lon="6.08768">
        <ele>609.132568</ele>
        <time>2011-03-24T09:58:50Z</time>
      </trkpt>
      <trkpt lat="44.47202" lon="6.08835">
        <ele>612.016602</ele>
        <time>2011-03-24T09:59:09Z</time>
      </trkpt>
      <trkpt lat="44.47203" lon="6.0888">
        <ele>615.381104</ele>
        <time>2011-03-24T09:59:22Z</time>
      </trkpt>
      <trkpt lat="44.47194" lon="6.08937">
        <ele>618.264893</ele>
        <time>2011-03-24T09:59:39Z</time>
      </trkpt>
      <trkpt lat="44.47162" lon="6.08998">
        <ele>619.707031</ele>
        <time>2011-03-24T09:59:57Z</time>
      </trkpt>
      <trkpt lat="44.47148" lon="6.09055">
        <ele>620.668457</ele>
        <time>2011-03-24T10:00:12Z</time>
      </trkpt>
      <trkpt lat="44.47153" lon="6.09123">
        <ele>622.591064</ele>
        <time>2011-03-24T10:00:29Z</time>
      </trkpt>
      <trkpt lat="44.47152" lon="6.09202">
        <ele>624.994385</ele>
        <time>2011-03-24T10:00:50Z</time>
      </trkpt>
      <trkpt lat="44.47154" lon="6.09285">
        <ele>627.397705</ele>
        <time>2011-03-24T10:01:12Z</time>
      </trkpt>
      <trkpt lat="44.4714" lon="6.09362">
        <ele>629.320068</ele>
        <time>2011-03-24T10:01:32Z</time>
      </trkpt>
      <trkpt lat="44.47123" lon="6.09437">
        <ele>629.800781</ele>
        <time>2011-03-24T10:01:50Z</time>
      </trkpt>
      <trkpt lat="44.47124" lon="6.09517">
        <ele>631.24292</ele>
        <time>2011-03-24T10:02:08Z</time>
      </trkpt>
      <trkpt lat="44.47124" lon="6.09593">
        <ele>631.723389</ele>
        <time>2011-03-24T10:02:24Z</time>
      </trkpt>
      <trkpt lat="44.47098" lon="6.09681">
        <ele>633.645996</ele>
        <time>2011-03-24T10:02:44Z</time>
      </trkpt>
      <trkpt lat="44.47075" lon="6.0977">
        <ele>636.049561</ele>
        <time>2011-03-24T10:03:06Z</time>
      </trkpt>
      <trkpt lat="44.4705" lon="6.09841">
        <ele>637.972168</ele>
        <time>2011-03-24T10:03:24Z</time>
      </trkpt>
      <trkpt lat="44.47022" lon="6.09869">
        <ele>641.33667</ele>
        <time>2011-03-24T10:03:38Z</time>
      </trkpt>
      <trkpt lat="44.47004" lon="6.09905">
        <ele>643.73999</ele>
        <time>2011-03-24T10:03:52Z</time>
      </trkpt>
      <trkpt lat="44.47005" lon="6.09917">
        <ele>644.220703</ele>
        <time>2011-03-24T10:03:55Z</time>
      </trkpt>
      <trkpt lat="44.47035" lon="6.09961">
        <ele>647.585205</ele>
        <time>2011-03-24T10:04:12Z</time>
      </trkpt>
      <trkpt lat="44.47028" lon="6.1001">
        <ele>649.988525</ele>
        <time>2011-03-24T10:04:27Z</time>
      </trkpt>
      <trkpt lat="44.47005" lon="6.10061">
        <ele>652.872559</ele>
        <time>2011-03-24T10:04:46Z</time>
      </trkpt>
      <trkpt lat="44.46979" lon="6.10105">
        <ele>656.237061</ele>
        <time>2011-03-24T10:05:05Z</time>
      </trkpt>
      <trkpt lat="44.4696" lon="6.10153">
        <ele>659.121094</ele>
        <time>2011-03-24T10:05:24Z</time>
      </trkpt>
      <trkpt lat="44.46949" lon="6.10204">
        <ele>662.005127</ele>
        <time>2011-03-24T10:05:42Z</time>
      </trkpt>
      <trkpt lat="44.46936" lon="6.10262">
        <ele>664.408203</ele>
        <time>2011-03-24T10:06:02Z</time>
      </trkpt>
      <trkpt lat="44.46923" lon="6.10322">
        <ele>667.772705</ele>
        <time>2011-03-24T10:06:23Z</time>
      </trkpt>
      <trkpt lat="44.46915" lon="6.10397">
        <ele>671.137695</ele>
        <time>2011-03-24T10:06:48Z</time>
      </trkpt>
      <trkpt lat="44.46913" lon="6.10462">
        <ele>673.541016</ele>
        <time>2011-03-24T10:07:10Z</time>
      </trkpt>
      <trkpt lat="44.46909" lon="6.10528">
        <ele>676.905518</ele>
        <time>2011-03-24T10:07:32Z</time>
      </trkpt>
      <trkpt lat="44.46914" lon="6.10587">
        <ele>679.308594</ele>
        <time>2011-03-24T10:07:51Z</time>
      </trkpt>
      <trkpt lat="44.46912" lon="6.10622">
        <ele>681.711914</ele>
        <time>2011-03-24T10:08:03Z</time>
      </trkpt>
      <trkpt lat="44.46897" lon="6.10677">
        <ele>684.115479</ele>
        <time>2011-03-24T10:08:25Z</time>
      </trkpt>
      <trkpt lat="44.46882" lon="6.10719">
        <ele>686.518799</ele>
        <time>2011-03-24T10:08:43Z</time>
      </trkpt>
      <trkpt lat="44.46882" lon="6.1073">
        <ele>686.518799</ele>
        <time>2011-03-24T10:08:49Z</time>
      </trkpt>
      <trkpt lat="44.46883" lon="6.10734">
        <ele>686.999268</ele>
        <time>2011-03-24T10:09:06Z</time>
      </trkpt>
      <trkpt lat="44.46883" lon="6.10734">
        <ele>686.518799</ele>
        <time>2011-03-24T10:09:28Z</time>
      </trkpt>
      <trkpt lat="44.46883" lon="6.10734">
        <ele>687.960693</ele>
        <time>2011-03-24T10:10:03Z</time>
      </trkpt>
      <trkpt lat="44.46883" lon="6.10734">
        <ele>687.960693</ele>
        <time>2011-03-24T10:10:38Z</time>
      </trkpt>
      <trkpt lat="44.46883" lon="6.10734">
        <ele>688.922119</ele>
        <time>2011-03-24T10:11:17Z</time>
      </trkpt>
      <trkpt lat="44.46883" lon="6.10734">
        <ele>689.402588</ele>
        <time>2011-03-24T10:12:49Z</time>
      </trkpt>
      <trkpt lat="44.46883" lon="6.10734">
        <ele>690.364014</ele>
        <time>2011-03-24T10:13:53Z</time>
      </trkpt>
      <trkpt lat="44.46883" lon="6.10734">
        <ele>690.844482</ele>
        <time>2011-03-24T10:14:14Z</time>
      </trkpt>
      <trkpt lat="44.46883" lon="6.10734">
        <ele>689.883301</ele>
        <time>2011-03-24T10:14:16Z</time>
      </trkpt>
      <trkpt lat="44.46899" lon="6.10756">
        <ele>689.883301</ele>
        <time>2011-03-24T10:14:18Z</time>
      </trkpt>
      <trkpt lat="44.46902" lon="6.10747">
        <ele>692.767334</ele>
        <time>2011-03-24T10:14:33Z</time>
      </trkpt>
      <trkpt lat="44.46903" lon="6.10743">
        <ele>695.17041</ele>
        <time>2011-03-24T10:14:51Z</time>
      </trkpt>
      <trkpt lat="44.46943" lon="6.10683">
        <ele>698.534912</ele>
        <time>2011-03-24T10:15:05Z</time>
      </trkpt>
      <trkpt lat="44.46953" lon="6.10671">
        <ele>700.458008</ele>
        <time>2011-03-24T10:15:12Z</time>
      </trkpt>
      <trkpt lat="44.46975" lon="6.10628">
        <ele>702.380371</ele>
        <time>2011-03-24T10:15:31Z</time>
      </trkpt>
      <trkpt lat="44.46978" lon="6.1057">
        <ele>702.380371</ele>
        <time>2011-03-24T10:15:47Z</time>
      </trkpt>
      <trkpt lat="44.46988" lon="6.10544">
        <ele>701.899902</ele>
        <time>2011-03-24T10:15:54Z</time>
      </trkpt>
      <trkpt lat="44.46999" lon="6.10532">
        <ele>700.458008</ele>
        <time>2011-03-24T10:15:57Z</time>
      </trkpt>
      <trkpt lat="44.47025" lon="6.10525">
        <ele>697.57373</ele>
        <time>2011-03-24T10:16:01Z</time>
      </trkpt>
      <trkpt lat="44.47053" lon="6.10534">
        <ele>695.17041</ele>
        <time>2011-03-24T10:16:05Z</time>
      </trkpt>
      <trkpt lat="44.47098" lon="6.10578">
        <ele>691.325195</ele>
        <time>2011-03-24T10:16:16Z</time>
      </trkpt>
      <trkpt lat="44.47108" lon="6.10588">
        <ele>690.364014</ele>
        <time>2011-03-24T10:16:18Z</time>
      </trkpt>
      <trkpt lat="44.47118" lon="6.10599">
        <ele>689.402588</ele>
        <time>2011-03-24T10:16:20Z</time>
      </trkpt>
      <trkpt lat="44.47125" lon="6.10613">
        <ele>687.960693</ele>
        <time>2011-03-24T10:16:22Z</time>
      </trkpt>
      <trkpt lat="44.47134" lon="6.10635">
        <ele>686.518799</ele>
        <time>2011-03-24T10:16:25Z</time>
      </trkpt>
      <trkpt lat="44.47135" lon="6.10645">
        <ele>685.557373</ele>
        <time>2011-03-24T10:16:26Z</time>
      </trkpt>
      <trkpt lat="44.47136" lon="6.1067">
        <ele>684.115479</ele>
        <time>2011-03-24T10:16:29Z</time>
      </trkpt>
      <trkpt lat="44.47137" lon="6.10679">
        <ele>683.153809</ele>
        <time>2011-03-24T10:16:30Z</time>
      </trkpt>
      <trkpt lat="44.47133" lon="6.10717">
        <ele>681.711914</ele>
        <time>2011-03-24T10:16:34Z</time>
      </trkpt>
      <trkpt lat="44.47128" lon="6.10723">
        <ele>680.27002</ele>
        <time>2011-03-24T10:16:35Z</time>
      </trkpt>
      <trkpt lat="44.47063" lon="6.10821">
        <ele>676.905518</ele>
        <time>2011-03-24T10:16:49Z</time>
      </trkpt>
      <trkpt lat="44.47039" lon="6.10868">
        <ele>674.98291</ele>
        <time>2011-03-24T10:16:55Z</time>
      </trkpt>
      <trkpt lat="44.47017" lon="6.10943">
        <ele>671.618164</ele>
        <time>2011-03-24T10:17:03Z</time>
      </trkpt>
      <trkpt lat="44.4701" lon="6.10995">
        <ele>670.17627</ele>
        <time>2011-03-24T10:17:08Z</time>
      </trkpt>
      <trkpt lat="44.4701" lon="6.11033">
        <ele>668.734375</ele>
        <time>2011-03-24T10:17:12Z</time>
      </trkpt>
      <trkpt lat="44.47009" lon="6.11051">
        <ele>667.772705</ele>
        <time>2011-03-24T10:17:14Z</time>
      </trkpt>
      <trkpt lat="44.46999" lon="6.11089">
        <ele>665.850342</ele>
        <time>2011-03-24T10:17:18Z</time>
      </trkpt>
      <trkpt lat="44.46984" lon="6.11152">
        <ele>662.485596</ele>
        <time>2011-03-24T10:17:24Z</time>
      </trkpt>
      <trkpt lat="44.46982" lon="6.11164">
        <ele>662.485596</ele>
        <time>2011-03-24T10:17:25Z</time>
      </trkpt>
      <trkpt lat="44.46968" lon="6.11213">
        <ele>662.485596</ele>
        <time>2011-03-24T10:17:30Z</time>
      </trkpt>
      <trkpt lat="44.46934" lon="6.11269">
        <ele>659.601807</ele>
        <time>2011-03-24T10:17:38Z</time>
      </trkpt>
      <trkpt lat="44.46929" lon="6.11298">
        <ele>660.082275</ele>
        <time>2011-03-24T10:17:42Z</time>
      </trkpt>
      <trkpt lat="44.46929" lon="6.11299">
        <ele>661.043701</ele>
        <time>2011-03-24T10:17:47Z</time>
      </trkpt>
      <trkpt lat="44.4695" lon="6.11405">
        <ele>662.966309</ele>
        <time>2011-03-24T10:18:04Z</time>
      </trkpt>
      <trkpt lat="44.46943" lon="6.11459">
        <ele>664.888916</ele>
        <time>2011-03-24T10:18:19Z</time>
      </trkpt>
      <trkpt lat="44.46941" lon="6.11517">
        <ele>666.811523</ele>
        <time>2011-03-24T10:18:34Z</time>
      </trkpt>
      <trkpt lat="44.46938" lon="6.1156">
        <ele>670.17627</ele>
        <time>2011-03-24T10:18:47Z</time>
      </trkpt>
      <trkpt lat="44.46937" lon="6.11562">
        <ele>670.17627</ele>
        <time>2011-03-24T10:18:48Z</time>
      </trkpt>
      <trkpt lat="44.46918" lon="6.11593">
        <ele>672.57959</ele>
        <time>2011-03-24T10:19:03Z</time>
      </trkpt>
      <trkpt lat="44.46915" lon="6.11599">
        <ele>674.021484</ele>
        <time>2011-03-24T10:19:06Z</time>
      </trkpt>
      <trkpt lat="44.4691" lon="6.11609">
        <ele>674.502197</ele>
        <time>2011-03-24T10:19:11Z</time>
      </trkpt>
      <trkpt lat="44.46895" lon="6.11634">
        <ele>674.98291</ele>
        <time>2011-03-24T10:19:23Z</time>
      </trkpt>
      <trkpt lat="44.46891" lon="6.11643">
        <ele>676.424805</ele>
        <time>2011-03-24T10:19:27Z</time>
      </trkpt>
      <trkpt lat="44.46871" lon="6.11686">
        <ele>679.789307</ele>
        <time>2011-03-24T10:19:46Z</time>
      </trkpt>
      <trkpt lat="44.46844" lon="6.11726">
        <ele>683.153809</ele>
        <time>2011-03-24T10:20:06Z</time>
      </trkpt>
      <trkpt lat="44.46804" lon="6.11774">
        <ele>686.038086</ele>
        <time>2011-03-24T10:20:29Z</time>
      </trkpt>
      <trkpt lat="44.46765" lon="6.11823">
        <ele>687.47998</ele>
        <time>2011-03-24T10:20:49Z</time>
      </trkpt>
      <trkpt lat="44.46724" lon="6.11877">
        <ele>689.402588</ele>
        <time>2011-03-24T10:21:09Z</time>
      </trkpt>
      <trkpt lat="44.46678" lon="6.11935">
        <ele>691.805908</ele>
        <time>2011-03-24T10:21:32Z</time>
      </trkpt>
      <trkpt lat="44.46633" lon="6.11978">
        <ele>694.209229</ele>
        <time>2011-03-24T10:21:53Z</time>
      </trkpt>
      <trkpt lat="44.46587" lon="6.12018">
        <ele>697.093018</ele>
        <time>2011-03-24T10:22:14Z</time>
      </trkpt>
      <trkpt lat="44.46559" lon="6.12034">
        <ele>699.496338</ele>
        <time>2011-03-24T10:22:30Z</time>
      </trkpt>
      <trkpt lat="44.4654" lon="6.12068">
        <ele>702.380371</ele>
        <time>2011-03-24T10:22:45Z</time>
      </trkpt>
      <trkpt lat="44.46526" lon="6.121">
        <ele>705.745117</ele>
        <time>2011-03-24T10:23:00Z</time>
      </trkpt>
      <trkpt lat="44.46507" lon="6.12141">
        <ele>708.628906</ele>
        <time>2011-03-24T10:23:19Z</time>
      </trkpt>
      <trkpt lat="44.46497" lon="6.12141">
        <ele>709.109619</ele>
        <time>2011-03-24T10:23:23Z</time>
      </trkpt>
      <trkpt lat="44.46496" lon="6.12124">
        <ele>710.070801</ele>
        <time>2011-03-24T10:23:29Z</time>
      </trkpt>
      <trkpt lat="44.46506" lon="6.12077">
        <ele>713.435547</ele>
        <time>2011-03-24T10:23:48Z</time>
      </trkpt>
      <trkpt lat="44.46512" lon="6.1204">
        <ele>716.800293</ele>
        <time>2011-03-24T10:24:03Z</time>
      </trkpt>
      <trkpt lat="44.4651" lon="6.11991">
        <ele>719.684326</ele>
        <time>2011-03-24T10:24:23Z</time>
      </trkpt>
      <trkpt lat="44.4651" lon="6.11947">
        <ele>723.048828</ele>
        <time>2011-03-24T10:24:41Z</time>
      </trkpt>
      <trkpt lat="44.46522" lon="6.11901">
        <ele>725.932617</ele>
        <time>2011-03-24T10:25:00Z</time>
      </trkpt>
      <trkpt lat="44.46545" lon="6.11864">
        <ele>729.297119</ele>
        <time>2011-03-24T10:25:19Z</time>
      </trkpt>
      <trkpt lat="44.4658" lon="6.11835">
        <ele>732.181396</ele>
        <time>2011-03-24T10:25:42Z</time>
      </trkpt>
      <trkpt lat="44.46582" lon="6.11834">
        <ele>732.181396</ele>
        <time>2011-03-24T10:25:43Z</time>
      </trkpt>
      <trkpt lat="44.466" lon="6.11797">
        <ele>735.06543</ele>
        <time>2011-03-24T10:26:03Z</time>
      </trkpt>
      <trkpt lat="44.46595" lon="6.11761">
        <ele>738.429932</ele>
        <time>2011-03-24T10:26:19Z</time>
      </trkpt>
      <trkpt lat="44.46607" lon="6.11719">
        <ele>741.313721</ele>
        <time>2011-03-24T10:26:37Z</time>
      </trkpt>
      <trkpt lat="44.46613" lon="6.1168">
        <ele>744.197754</ele>
        <time>2011-03-24T10:26:54Z</time>
      </trkpt>
      <trkpt lat="44.46622" lon="6.11696">
        <ele>746.120361</ele>
        <time>2011-03-24T10:27:05Z</time>
      </trkpt>
      <trkpt lat="44.46605" lon="6.11722">
        <ele>749.004395</ele>
        <time>2011-03-24T10:27:26Z</time>
      </trkpt>
      <trkpt lat="44.46605" lon="6.11722">
        <ele>751.407715</ele>
        <time>2011-03-24T10:27:39Z</time>
      </trkpt>
      <trkpt lat="44.4655" lon="6.11762">
        <ele>754.291748</ele>
        <time>2011-03-24T10:27:54Z</time>
      </trkpt>
      <trkpt lat="44.46525" lon="6.11789">
        <ele>757.175537</ele>
        <time>2011-03-24T10:28:12Z</time>
      </trkpt>
      <trkpt lat="44.46512" lon="6.11788">
        <ele>758.136963</ele>
        <time>2011-03-24T10:28:19Z</time>
      </trkpt>
      <trkpt lat="44.46524" lon="6.11747">
        <ele>760.059326</ele>
        <time>2011-03-24T10:28:37Z</time>
      </trkpt>
      <trkpt lat="44.46539" lon="6.1171">
        <ele>763.424072</ele>
        <time>2011-03-24T10:28:54Z</time>
      </trkpt>
      <trkpt lat="44.46551" lon="6.11678">
        <ele>764.866211</ele>
        <time>2011-03-24T10:29:09Z</time>
      </trkpt>
      <trkpt lat="44.46538" lon="6.11668">
        <ele>767.75</ele>
        <time>2011-03-24T10:29:22Z</time>
      </trkpt>
      <trkpt lat="44.46519" lon="6.117">
        <ele>771.114746</ele>
        <time>2011-03-24T10:29:40Z</time>
      </trkpt>
      <trkpt lat="44.46501" lon="6.1173">
        <ele>773.518066</ele>
        <time>2011-03-24T10:29:57Z</time>
      </trkpt>
      <trkpt lat="44.46484" lon="6.11764">
        <ele>776.882568</ele>
        <time>2011-03-24T10:30:14Z</time>
      </trkpt>
      <trkpt lat="44.46469" lon="6.11805">
        <ele>779.766357</ele>
        <time>2011-03-24T10:30:33Z</time>
      </trkpt>
      <trkpt lat="44.46446" lon="6.11853">
        <ele>783.131104</ele>
        <time>2011-03-24T10:30:56Z</time>
      </trkpt>
      <trkpt lat="44.46437" lon="6.11888">
        <ele>786.015137</ele>
        <time>2011-03-24T10:31:11Z</time>
      </trkpt>
      <trkpt lat="44.46433" lon="6.11927">
        <ele>788.89917</ele>
        <time>2011-03-24T10:31:27Z</time>
      </trkpt>
      <trkpt lat="44.46429" lon="6.11964">
        <ele>791.782959</ele>
        <time>2011-03-24T10:31:42Z</time>
      </trkpt>
      <trkpt lat="44.46424" lon="6.12007">
        <ele>793.705566</ele>
        <time>2011-03-24T10:32:00Z</time>
      </trkpt>
      <trkpt lat="44.46423" lon="6.1201">
        <ele>795.147461</ele>
        <time>2011-03-24T10:32:02Z</time>
      </trkpt>
      <trkpt lat="44.46404" lon="6.12033">
        <ele>797.551025</ele>
        <time>2011-03-24T10:32:17Z</time>
      </trkpt>
      <trkpt lat="44.46389" lon="6.12085">
        <ele>800.435059</ele>
        <time>2011-03-24T10:32:40Z</time>
      </trkpt>
      <trkpt lat="44.46376" lon="6.12118">
        <ele>803.799561</ele>
        <time>2011-03-24T10:32:54Z</time>
      </trkpt>
      <trkpt lat="44.46369" lon="6.12136">
        <ele>803.799561</ele>
        <time>2011-03-24T10:33:03Z</time>
      </trkpt>
      <trkpt lat="44.46359" lon="6.12157">
        <ele>805.722168</ele>
        <time>2011-03-24T10:33:14Z</time>
      </trkpt>
      <trkpt lat="44.46354" lon="6.12163">
        <ele>807.644775</ele>
        <time>2011-03-24T10:33:18Z</time>
      </trkpt>
      <trkpt lat="44.46334" lon="6.12182">
        <ele>809.567383</ele>
        <time>2011-03-24T10:33:32Z</time>
      </trkpt>
      <trkpt lat="44.46301" lon="6.12206">
        <ele>811.009277</ele>
        <time>2011-03-24T10:33:51Z</time>
      </trkpt>
      <trkpt lat="44.46279" lon="6.1222">
        <ele>811.970703</ele>
        <time>2011-03-24T10:34:02Z</time>
      </trkpt>
      <trkpt lat="44.4625" lon="6.12244">
        <ele>814.854736</ele>
        <time>2011-03-24T10:34:20Z</time>
      </trkpt>
      <trkpt lat="44.46237" lon="6.12247">
        <ele>816.296631</ele>
        <time>2011-03-24T10:34:27Z</time>
      </trkpt>
      <trkpt lat="44.46219" lon="6.12245">
        <ele>819.180664</ele>
        <time>2011-03-24T10:34:38Z</time>
      </trkpt>
      <trkpt lat="44.46213" lon="6.12242">
        <ele>820.141846</ele>
        <time>2011-03-24T10:34:42Z</time>
      </trkpt>
      <trkpt lat="44.4619" lon="6.12221">
        <ele>823.506592</ele>
        <time>2011-03-24T10:34:58Z</time>
      </trkpt>
      <trkpt lat="44.46167" lon="6.12197">
        <ele>826.390381</ele>
        <time>2011-03-24T10:35:15Z</time>
      </trkpt>
      <trkpt lat="44.4615" lon="6.12184">
        <ele>828.793945</ele>
        <time>2011-03-24T10:35:27Z</time>
      </trkpt>
      <trkpt lat="44.4612" lon="6.12175">
        <ele>832.63916</ele>
        <time>2011-03-24T10:35:46Z</time>
      </trkpt>
      <trkpt lat="44.46099" lon="6.12148">
        <ele>835.522949</ele>
        <time>2011-03-24T10:36:03Z</time>
      </trkpt>
      <trkpt lat="44.46084" lon="6.12123">
        <ele>838.406982</ele>
        <time>2011-03-24T10:36:18Z</time>
      </trkpt>
      <trkpt lat="44.4606" lon="6.12116">
        <ele>841.771484</ele>
        <time>2011-03-24T10:36:35Z</time>
      </trkpt>
      <trkpt lat="44.46062" lon="6.1215">
        <ele>844.655518</ele>
        <time>2011-03-24T10:36:51Z</time>
      </trkpt>
      <trkpt lat="44.46075" lon="6.12193">
        <ele>847.539551</ele>
        <time>2011-03-24T10:37:10Z</time>
      </trkpt>
      <trkpt lat="44.46085" lon="6.12227">
        <ele>850.904053</ele>
        <time>2011-03-24T10:37:26Z</time>
      </trkpt>
      <trkpt lat="44.46092" lon="6.12246">
        <ele>851.865479</ele>
        <time>2011-03-24T10:37:35Z</time>
      </trkpt>
      <trkpt lat="44.46078" lon="6.12256">
        <ele>854.749268</ele>
        <time>2011-03-24T10:37:46Z</time>
      </trkpt>
      <trkpt lat="44.46046" lon="6.12223">
        <ele>857.633301</ele>
        <time>2011-03-24T10:38:08Z</time>
      </trkpt>
      <trkpt lat="44.46044" lon="6.1221">
        <ele>858.594482</ele>
        <time>2011-03-24T10:38:14Z</time>
      </trkpt>
      <trkpt lat="44.46042" lon="6.12202">
        <ele>859.555908</ele>
        <time>2011-03-24T10:38:18Z</time>
      </trkpt>
      <trkpt lat="44.46041" lon="6.12192">
        <ele>860.517334</ele>
        <time>2011-03-24T10:38:23Z</time>
      </trkpt>
      <trkpt lat="44.46039" lon="6.12184">
        <ele>861.47876</ele>
        <time>2011-03-24T10:38:27Z</time>
      </trkpt>
      <trkpt lat="44.46025" lon="6.12172">
        <ele>863.881836</ele>
        <time>2011-03-24T10:38:40Z</time>
      </trkpt>
      <trkpt lat="44.46022" lon="6.12212">
        <ele>866.285156</ele>
        <time>2011-03-24T10:38:57Z</time>
      </trkpt>
      <trkpt lat="44.46021" lon="6.1226">
        <ele>869.169189</ele>
        <time>2011-03-24T10:39:17Z</time>
      </trkpt>
      <trkpt lat="44.46025" lon="6.12287">
        <ele>871.091797</ele>
        <time>2011-03-24T10:39:29Z</time>
      </trkpt>
      <trkpt lat="44.46038" lon="6.12328">
        <ele>874.937012</ele>
        <time>2011-03-24T10:39:49Z</time>
      </trkpt>
      <trkpt lat="44.46056" lon="6.12358">
        <ele>877.821045</ele>
        <time>2011-03-24T10:40:06Z</time>
      </trkpt>
      <trkpt lat="44.46065" lon="6.12382">
        <ele>879.262939</ele>
        <time>2011-03-24T10:40:18Z</time>
      </trkpt>
      <trkpt lat="44.46065" lon="6.12418">
        <ele>882.627686</ele>
        <time>2011-03-24T10:40:35Z</time>
      </trkpt>
      <trkpt lat="44.46055" lon="6.12455">
        <ele>885.511475</ele>
        <time>2011-03-24T10:40:53Z</time>
      </trkpt>
      <trkpt lat="44.46049" lon="6.12496">
        <ele>887.914795</ele>
        <time>2011-03-24T10:41:12Z</time>
      </trkpt>
      <trkpt lat="44.46049" lon="6.12517">
        <ele>890.318115</ele>
        <time>2011-03-24T10:41:22Z</time>
      </trkpt>
      <trkpt lat="44.46048" lon="6.12554">
        <ele>893.682861</ele>
        <time>2011-03-24T10:41:40Z</time>
      </trkpt>
      <trkpt lat="44.46046" lon="6.12557">
        <ele>894.163574</ele>
        <time>2011-03-24T10:41:42Z</time>
      </trkpt>
      <trkpt lat="44.46037" lon="6.12564">
        <ele>895.124756</ele>
        <time>2011-03-24T10:41:49Z</time>
      </trkpt>
      <trkpt lat="44.46033" lon="6.12556">
        <ele>896.086182</ele>
        <time>2011-03-24T10:41:53Z</time>
      </trkpt>
      <trkpt lat="44.46028" lon="6.12503">
        <ele>898.489258</ele>
        <time>2011-03-24T10:42:15Z</time>
      </trkpt>
      <trkpt lat="44.46028" lon="6.12484">
        <ele>899.931396</ele>
        <time>2011-03-24T10:42:23Z</time>
      </trkpt>
      <trkpt lat="44.46029" lon="6.12444">
        <ele>901.373291</ele>
        <time>2011-03-24T10:42:39Z</time>
      </trkpt>
      <trkpt lat="44.4602" lon="6.12407">
        <ele>905.699219</ele>
        <time>2011-03-24T10:42:54Z</time>
      </trkpt>
      <trkpt lat="44.46018" lon="6.12406">
        <ele>905.699219</ele>
        <time>2011-03-24T10:42:55Z</time>
      </trkpt>
      <trkpt lat="44.46011" lon="6.12397">
        <ele>906.6604</ele>
        <time>2011-03-24T10:43:01Z</time>
      </trkpt>
      <trkpt lat="44.45996" lon="6.12385">
        <ele>909.544678</ele>
        <time>2011-03-24T10:43:12Z</time>
      </trkpt>
      <trkpt lat="44.4599" lon="6.12382">
        <ele>909.544678</ele>
        <time>2011-03-24T10:43:16Z</time>
      </trkpt>
      <trkpt lat="44.45987" lon="6.1238">
        <ele>910.505859</ele>
        <time>2011-03-24T10:43:19Z</time>
      </trkpt>
      <trkpt lat="44.45975" lon="6.12372">
        <ele>912.428467</ele>
        <time>2011-03-24T10:43:28Z</time>
      </trkpt>
      <trkpt lat="44.45946" lon="6.12363">
        <ele>914.351074</ele>
        <time>2011-03-24T10:43:48Z</time>
      </trkpt>
      <trkpt lat="44.45923" lon="6.1236">
        <ele>917.715576</ele>
        <time>2011-03-24T10:44:02Z</time>
      </trkpt>
      <trkpt lat="44.45919" lon="6.12358">
        <ele>917.235107</ele>
        <time>2011-03-24T10:44:04Z</time>
      </trkpt>
      <trkpt lat="44.45909" lon="6.12344">
        <ele>918.677002</ele>
        <time>2011-03-24T10:44:12Z</time>
      </trkpt>
      <trkpt lat="44.45892" lon="6.12323">
        <ele>921.560791</ele>
        <time>2011-03-24T10:44:25Z</time>
      </trkpt>
      <trkpt lat="44.45882" lon="6.12332">
        <ele>922.522217</ele>
        <time>2011-03-24T10:44:33Z</time>
      </trkpt>
      <trkpt lat="44.45903" lon="6.12377">
        <ele>925.40625</ele>
        <time>2011-03-24T10:44:54Z</time>
      </trkpt>
      <trkpt lat="44.45932" lon="6.12402">
        <ele>927.329102</ele>
        <time>2011-03-24T10:45:14Z</time>
      </trkpt>
      <trkpt lat="44.45935" lon="6.12404">
        <ele>928.290283</ele>
        <time>2011-03-24T10:45:16Z</time>
      </trkpt>
      <trkpt lat="44.45963" lon="6.12437">
        <ele>931.654785</ele>
        <time>2011-03-24T10:45:38Z</time>
      </trkpt>
      <trkpt lat="44.45962" lon="6.12467">
        <ele>934.058105</ele>
        <time>2011-03-24T10:45:54Z</time>
      </trkpt>
      <trkpt lat="44.4595" lon="6.12482">
        <ele>935.5</ele>
        <time>2011-03-24T10:46:04Z</time>
      </trkpt>
      <trkpt lat="44.45932" lon="6.12528">
        <ele>938.864746</ele>
        <time>2011-03-24T10:46:27Z</time>
      </trkpt>
      <trkpt lat="44.45931" lon="6.12577">
        <ele>941.748779</ele>
        <time>2011-03-24T10:46:48Z</time>
      </trkpt>
      <trkpt lat="44.45934" lon="6.12615">
        <ele>945.113281</ele>
        <time>2011-03-24T10:47:05Z</time>
      </trkpt>
      <trkpt lat="44.45943" lon="6.12665">
        <ele>947.516602</ele>
        <time>2011-03-24T10:47:25Z</time>
      </trkpt>
      <trkpt lat="44.45949" lon="6.12713">
        <ele>950.400635</ele>
        <time>2011-03-24T10:47:45Z</time>
      </trkpt>
      <trkpt lat="44.4595" lon="6.12751">
        <ele>953.765137</ele>
        <time>2011-03-24T10:48:02Z</time>
      </trkpt>
      <trkpt lat="44.4595" lon="6.12761">
        <ele>954.726318</ele>
        <time>2011-03-24T10:48:07Z</time>
      </trkpt>
      <trkpt lat="44.45944" lon="6.12795">
        <ele>958.571777</ele>
        <time>2011-03-24T10:48:23Z</time>
      </trkpt>
      <trkpt lat="44.45934" lon="6.12828">
        <ele>960.975098</ele>
        <time>2011-03-24T10:48:39Z</time>
      </trkpt>
      <trkpt lat="44.45925" lon="6.12842">
        <ele>962.416992</ele>
        <time>2011-03-24T10:48:47Z</time>
      </trkpt>
      <trkpt lat="44.45904" lon="6.12878">
        <ele>965.781738</ele>
        <time>2011-03-24T10:49:08Z</time>
      </trkpt>
      <trkpt lat="44.45901" lon="6.12889">
        <ele>966.262207</ele>
        <time>2011-03-24T10:49:13Z</time>
      </trkpt>
      <trkpt lat="44.45888" lon="6.12928">
        <ele>969.626953</ele>
        <time>2011-03-24T10:49:32Z</time>
      </trkpt>
      <trkpt lat="44.4588" lon="6.12951">
        <ele>971.549316</ele>
        <time>2011-03-24T10:49:43Z</time>
      </trkpt>
      <trkpt lat="44.4587" lon="6.12955">
        <ele>972.510986</ele>
        <time>2011-03-24T10:49:50Z</time>
      </trkpt>
      <trkpt lat="44.45868" lon="6.12939">
        <ele>974.433594</ele>
        <time>2011-03-24T10:49:59Z</time>
      </trkpt>
      <trkpt lat="44.45883" lon="6.12877">
        <ele>977.798096</ele>
        <time>2011-03-24T10:50:23Z</time>
      </trkpt>
      <trkpt lat="44.45884" lon="6.12875">
        <ele>977.798096</ele>
        <time>2011-03-24T10:50:24Z</time>
      </trkpt>
      <trkpt lat="44.45888" lon="6.12822">
        <ele>980.682129</ele>
        <time>2011-03-24T10:50:47Z</time>
      </trkpt>
      <trkpt lat="44.45884" lon="6.12779">
        <ele>983.565918</ele>
        <time>2011-03-24T10:51:05Z</time>
      </trkpt>
      <trkpt lat="44.45876" lon="6.12735">
        <ele>986.93042</ele>
        <time>2011-03-24T10:51:24Z</time>
      </trkpt>
      <trkpt lat="44.45861" lon="6.12694">
        <ele>989.814697</ele>
        <time>2011-03-24T10:51:43Z</time>
      </trkpt>
      <trkpt lat="44.45841" lon="6.12665">
        <ele>992.218018</ele>
        <time>2011-03-24T10:52:00Z</time>
      </trkpt>
      <trkpt lat="44.45815" lon="6.12635">
        <ele>995.58252</ele>
        <time>2011-03-24T10:52:21Z</time>
      </trkpt>
      <trkpt lat="44.45787" lon="6.12613">
        <ele>997.98584</ele>
        <time>2011-03-24T10:52:40Z</time>
      </trkpt>
      <trkpt lat="44.4575" lon="6.12594">
        <ele>1000.869629</ele>
        <time>2011-03-24T10:53:02Z</time>
      </trkpt>
      <trkpt lat="44.45712" lon="6.12586">
        <ele>1002.792236</ele>
        <time>2011-03-24T10:53:22Z</time>
      </trkpt>
      <trkpt lat="44.4567" lon="6.12584">
        <ele>1006.156982</ele>
        <time>2011-03-24T10:53:43Z</time>
      </trkpt>
      <trkpt lat="44.45621" lon="6.12575">
        <ele>1008.079834</ele>
        <time>2011-03-24T10:54:04Z</time>
      </trkpt>
      <trkpt lat="44.45578" lon="6.12564">
        <ele>1010.963623</ele>
        <time>2011-03-24T10:54:24Z</time>
      </trkpt>
      <trkpt lat="44.45539" lon="6.12544">
        <ele>1013.366943</ele>
        <time>2011-03-24T10:54:45Z</time>
      </trkpt>
      <trkpt lat="44.45498" lon="6.12531">
        <ele>1015.770264</ele>
        <time>2011-03-24T10:55:05Z</time>
      </trkpt>
      <trkpt lat="44.45486" lon="6.12527">
        <ele>1017.212158</ele>
        <time>2011-03-24T10:55:12Z</time>
      </trkpt>
      <trkpt lat="44.45452" lon="6.12536">
        <ele>1019.615479</ele>
        <time>2011-03-24T10:55:31Z</time>
      </trkpt>
      <trkpt lat="44.45436" lon="6.12571">
        <ele>1022.499512</ele>
        <time>2011-03-24T10:55:48Z</time>
      </trkpt>
      <trkpt lat="44.45411" lon="6.12602">
        <ele>1025.864014</ele>
        <time>2011-03-24T10:56:06Z</time>
      </trkpt>
      <trkpt lat="44.45409" lon="6.12603">
        <ele>1025.864014</ele>
        <time>2011-03-24T10:56:07Z</time>
      </trkpt>
      <trkpt lat="44.45387" lon="6.12614">
        <ele>1028.267334</ele>
        <time>2011-03-24T10:56:20Z</time>
      </trkpt>
      <trkpt lat="44.45357" lon="6.12623">
        <ele>1031.631836</ele>
        <time>2011-03-24T10:56:38Z</time>
      </trkpt>
      <trkpt lat="44.4533" lon="6.12637">
        <ele>1034.515869</ele>
        <time>2011-03-24T10:56:55Z</time>
      </trkpt>
      <trkpt lat="44.45311" lon="6.12661">
        <ele>1037.880615</ele>
        <time>2011-03-24T10:57:11Z</time>
      </trkpt>
      <trkpt lat="44.45293" lon="6.12682">
        <ele>1040.764404</ele>
        <time>2011-03-24T10:57:26Z</time>
      </trkpt>
      <trkpt lat="44.45268" lon="6.12702">
        <ele>1044.12915</ele>
        <time>2011-03-24T10:57:43Z</time>
      </trkpt>
      <trkpt lat="44.45239" lon="6.12724">
        <ele>1046.051758</ele>
        <time>2011-03-24T10:58:02Z</time>
      </trkpt>
      <trkpt lat="44.45226" lon="6.12738">
        <ele>1047.493652</ele>
        <time>2011-03-24T10:58:11Z</time>
      </trkpt>
      <trkpt lat="44.45204" lon="6.12761">
        <ele>1050.377686</ele>
        <time>2011-03-24T10:58:26Z</time>
      </trkpt>
      <trkpt lat="44.45186" lon="6.12795">
        <ele>1049.896973</ele>
        <time>2011-03-24T10:58:38Z</time>
      </trkpt>
      <trkpt lat="44.45184" lon="6.128">
        <ele>1049.896973</ele>
        <time>2011-03-24T10:58:39Z</time>
      </trkpt>
      <trkpt lat="44.45168" lon="6.12836">
        <ele>1047.493652</ele>
        <time>2011-03-24T10:58:46Z</time>
      </trkpt>
      <trkpt lat="44.45141" lon="6.12861">
        <ele>1047.974365</ele>
        <time>2011-03-24T10:58:59Z</time>
      </trkpt>
      <trkpt lat="44.45141" lon="6.12861">
        <ele>1047.012939</ele>
        <time>2011-03-24T10:59:10Z</time>
      </trkpt>
      <trkpt lat="44.45141" lon="6.12861">
        <ele>1048.454834</ele>
        <time>2011-03-24T10:59:13Z</time>
      </trkpt>
      <trkpt lat="44.45141" lon="6.12861">
        <ele>1048.454834</ele>
        <time>2011-03-24T11:00:09Z</time>
      </trkpt>
      <trkpt lat="44.45141" lon="6.12861">
        <ele>1047.974365</ele>
        <time>2011-03-24T11:00:27Z</time>
      </trkpt>
      <trkpt lat="44.45141" lon="6.12861">
        <ele>1049.41626</ele>
        <time>2011-03-24T11:00:29Z</time>
      </trkpt>
      <trkpt lat="44.45141" lon="6.12861">
        <ele>1047.493652</ele>
        <time>2011-03-24T11:00:33Z</time>
      </trkpt>
      <trkpt lat="44.45141" lon="6.12861">
        <ele>1048.935547</ele>
        <time>2011-03-24T11:00:35Z</time>
      </trkpt>
      <trkpt lat="44.45141" lon="6.12861">
        <ele>1050.377686</ele>
        <time>2011-03-24T11:01:34Z</time>
      </trkpt>
      <trkpt lat="44.45141" lon="6.12861">
        <ele>1049.896973</ele>
        <time>2011-03-24T11:02:13Z</time>
      </trkpt>
      <trkpt lat="44.45146" lon="6.12859">
        <ele>1049.41626</ele>
        <time>2011-03-24T11:02:17Z</time>
      </trkpt>
      <trkpt lat="44.45159" lon="6.12869">
        <ele>1048.935547</ele>
        <time>2011-03-24T11:02:25Z</time>
      </trkpt>
      <trkpt lat="44.45153" lon="6.12856">
        <ele>1047.974365</ele>
        <time>2011-03-24T11:02:30Z</time>
      </trkpt>
      <trkpt lat="44.45143" lon="6.12861">
        <ele>1047.974365</ele>
        <time>2011-03-24T11:02:33Z</time>
      </trkpt>
      <trkpt lat="44.45087" lon="6.12894">
        <ele>1042.687256</ele>
        <time>2011-03-24T11:02:45Z</time>
      </trkpt>
      <trkpt lat="44.45082" lon="6.12897">
        <ele>1041.72583</ele>
        <time>2011-03-24T11:02:46Z</time>
      </trkpt>
      <trkpt lat="44.45063" lon="6.12924">
        <ele>1038.842041</ele>
        <time>2011-03-24T11:02:51Z</time>
      </trkpt>
      <trkpt lat="44.4506" lon="6.12941">
        <ele>1038.842041</ele>
        <time>2011-03-24T11:02:53Z</time>
      </trkpt>
      <trkpt lat="44.45038" lon="6.12967">
        <ele>1040.283936</ele>
        <time>2011-03-24T11:02:58Z</time>
      </trkpt>
      <trkpt lat="44.45027" lon="6.12968">
        <ele>1040.764404</ele>
        <time>2011-03-24T11:03:00Z</time>
      </trkpt>
      <trkpt lat="44.44995" lon="6.1296">
        <ele>1041.245117</ele>
        <time>2011-03-24T11:03:08Z</time>
      </trkpt>
      <trkpt lat="44.44968" lon="6.12931">
        <ele>1039.803223</ele>
        <time>2011-03-24T11:03:15Z</time>
      </trkpt>
      <trkpt lat="44.44948" lon="6.12867">
        <ele>1039.32251</ele>
        <time>2011-03-24T11:03:26Z</time>
      </trkpt>
      <trkpt lat="44.44937" lon="6.12833">
        <ele>1037.399902</ele>
        <time>2011-03-24T11:03:31Z</time>
      </trkpt>
      <trkpt lat="44.4492" lon="6.12784">
        <ele>1034.035156</ele>
        <time>2011-03-24T11:03:37Z</time>
      </trkpt>
      <trkpt lat="44.44873" lon="6.12739">
        <ele>1034.996582</ele>
        <time>2011-03-24T11:03:46Z</time>
      </trkpt>
      <trkpt lat="44.44868" lon="6.12739">
        <ele>1034.996582</ele>
        <time>2011-03-24T11:03:47Z</time>
      </trkpt>
      <trkpt lat="44.44847" lon="6.12739">
        <ele>1037.399902</ele>
        <time>2011-03-24T11:03:52Z</time>
      </trkpt>
      <trkpt lat="44.44814" lon="6.12765">
        <ele>1037.880615</ele>
        <time>2011-03-24T11:04:02Z</time>
      </trkpt>
      <trkpt lat="44.44797" lon="6.12773">
        <ele>1037.399902</ele>
        <time>2011-03-24T11:04:06Z</time>
      </trkpt>
      <trkpt lat="44.44778" lon="6.12778">
        <ele>1037.880615</ele>
        <time>2011-03-24T11:04:10Z</time>
      </trkpt>
      <trkpt lat="44.44762" lon="6.12761">
        <ele>1038.361328</ele>
        <time>2011-03-24T11:04:16Z</time>
      </trkpt>
      <trkpt lat="44.44789" lon="6.12719">
        <ele>1039.32251</ele>
        <time>2011-03-24T11:04:28Z</time>
      </trkpt>
      <trkpt lat="44.44794" lon="6.12641">
        <ele>1040.764404</ele>
        <time>2011-03-24T11:04:45Z</time>
      </trkpt>
      <trkpt lat="44.4479" lon="6.12617">
        <ele>1041.72583</ele>
        <time>2011-03-24T11:04:50Z</time>
      </trkpt>
      <trkpt lat="44.44779" lon="6.12597">
        <ele>1040.283936</ele>
        <time>2011-03-24T11:04:54Z</time>
      </trkpt>
      <trkpt lat="44.4477" lon="6.12587">
        <ele>1038.842041</ele>
        <time>2011-03-24T11:04:56Z</time>
      </trkpt>
      <trkpt lat="44.4476" lon="6.12577">
        <ele>1037.880615</ele>
        <time>2011-03-24T11:04:58Z</time>
      </trkpt>
      <trkpt lat="44.44738" lon="6.1256">
        <ele>1037.399902</ele>
        <time>2011-03-24T11:05:02Z</time>
      </trkpt>
      <trkpt lat="44.44708" lon="6.12552">
        <ele>1035.477051</ele>
        <time>2011-03-24T11:05:06Z</time>
      </trkpt>
      <trkpt lat="44.44691" lon="6.12548">
        <ele>1034.035156</ele>
        <time>2011-03-24T11:05:08Z</time>
      </trkpt>
      <trkpt lat="44.44676" lon="6.12543">
        <ele>1032.112549</ele>
        <time>2011-03-24T11:05:10Z</time>
      </trkpt>
      <trkpt lat="44.4465" lon="6.12536">
        <ele>1033.07373</ele>
        <time>2011-03-24T11:05:14Z</time>
      </trkpt>
      <trkpt lat="44.44641" lon="6.12503">
        <ele>1032.593262</ele>
        <time>2011-03-24T11:05:20Z</time>
      </trkpt>
      <trkpt lat="44.44651" lon="6.12499">
        <ele>1032.112549</ele>
        <time>2011-03-24T11:05:22Z</time>
      </trkpt>
      <trkpt lat="44.44684" lon="6.12488">
        <ele>1031.151367</ele>
        <time>2011-03-24T11:05:28Z</time>
      </trkpt>
      <trkpt lat="44.44706" lon="6.12475">
        <ele>1030.670654</ele>
        <time>2011-03-24T11:05:32Z</time>
      </trkpt>
      <trkpt lat="44.44725" lon="6.12452">
        <ele>1029.228516</ele>
        <time>2011-03-24T11:05:36Z</time>
      </trkpt>
      <trkpt lat="44.44801" lon="6.12419">
        <ele>1028.748047</ele>
        <time>2011-03-24T11:05:50Z</time>
      </trkpt>
      <trkpt lat="44.44831" lon="6.12423">
        <ele>1027.306152</ele>
        <time>2011-03-24T11:05:55Z</time>
      </trkpt>
      <trkpt lat="44.4487" lon="6.12411">
        <ele>1023.460938</ele>
        <time>2011-03-24T11:06:01Z</time>
      </trkpt>
      <trkpt lat="44.44885" lon="6.12406">
        <ele>1021.057617</ele>
        <time>2011-03-24T11:06:03Z</time>
      </trkpt>
      <trkpt lat="44.44922" lon="6.12355">
        <ele>1019.134766</ele>
        <time>2011-03-24T11:06:11Z</time>
      </trkpt>
      <trkpt lat="44.44923" lon="6.12345">
        <ele>1018.17334</ele>
        <time>2011-03-24T11:06:12Z</time>
      </trkpt>
      <trkpt lat="44.44929" lon="6.12286">
        <ele>1014.328125</ele>
        <time>2011-03-24T11:06:17Z</time>
      </trkpt>
      <trkpt lat="44.44931" lon="6.12274">
        <ele>1014.328125</ele>
        <time>2011-03-24T11:06:18Z</time>
      </trkpt>
      <trkpt lat="44.44933" lon="6.1225">
        <ele>1012.88623</ele>
        <time>2011-03-24T11:06:20Z</time>
      </trkpt>
      <trkpt lat="44.44933" lon="6.12238">
        <ele>1012.88623</ele>
        <time>2011-03-24T11:06:21Z</time>
      </trkpt>
      <trkpt lat="44.44927" lon="6.12186">
        <ele>1012.88623</ele>
        <time>2011-03-24T11:06:26Z</time>
      </trkpt>
      <trkpt lat="44.44937" lon="6.12153">
        <ele>1010.48291</ele>
        <time>2011-03-24T11:06:30Z</time>
      </trkpt>
      <trkpt lat="44.4493" lon="6.12118">
        <ele>1008.560303</ele>
        <time>2011-03-24T11:06:34Z</time>
      </trkpt>
      <trkpt lat="44.44896" lon="6.11992">
        <ele>1007.599121</ele>
        <time>2011-03-24T11:06:50Z</time>
      </trkpt>
      <trkpt lat="44.44891" lon="6.11903">
        <ele>1009.041016</ele>
        <time>2011-03-24T11:07:02Z</time>
      </trkpt>
      <trkpt lat="44.44882" lon="6.11839">
        <ele>1012.405518</ele>
        <time>2011-03-24T11:07:17Z</time>
      </trkpt>
      <trkpt lat="44.44857" lon="6.1178">
        <ele>1015.289551</ele>
        <time>2011-03-24T11:07:36Z</time>
      </trkpt>
      <trkpt lat="44.4482" lon="6.1172">
        <ele>1015.289551</ele>
        <time>2011-03-24T11:07:56Z</time>
      </trkpt>
      <trkpt lat="44.44794" lon="6.11747">
        <ele>1015.289551</ele>
        <time>2011-03-24T11:08:05Z</time>
      </trkpt>
      <trkpt lat="44.44784" lon="6.11759">
        <ele>1015.289551</ele>
        <time>2011-03-24T11:08:08Z</time>
      </trkpt>
      <trkpt lat="44.44762" lon="6.11768">
        <ele>1013.366943</ele>
        <time>2011-03-24T11:08:14Z</time>
      </trkpt>
      <trkpt lat="44.44761" lon="6.11752">
        <ele>1013.847412</ele>
        <time>2011-03-24T11:08:16Z</time>
      </trkpt>
      <trkpt lat="44.44766" lon="6.11702">
        <ele>1017.212158</ele>
        <time>2011-03-24T11:08:31Z</time>
      </trkpt>
      <trkpt lat="44.44764" lon="6.11697">
        <ele>1020.096191</ele>
        <time>2011-03-24T11:08:34Z</time>
      </trkpt>
      <trkpt lat="44.44762" lon="6.1169">
        <ele>1017.692627</ele>
        <time>2011-03-24T11:08:36Z</time>
      </trkpt>
      <trkpt lat="44.44753" lon="6.11635">
        <ele>1020.576904</ele>
        <time>2011-03-24T11:08:50Z</time>
      </trkpt>
      <trkpt lat="44.44779" lon="6.11552">
        <ele>1020.096191</ele>
        <time>2011-03-24T11:09:10Z</time>
      </trkpt>
      <trkpt lat="44.44782" lon="6.11541">
        <ele>1020.576904</ele>
        <time>2011-03-24T11:09:12Z</time>
      </trkpt>
      <trkpt lat="44.44785" lon="6.11529">
        <ele>1019.615479</ele>
        <time>2011-03-24T11:09:14Z</time>
      </trkpt>
      <trkpt lat="44.44789" lon="6.11452">
        <ele>1016.250732</ele>
        <time>2011-03-24T11:09:24Z</time>
      </trkpt>
      <trkpt lat="44.44787" lon="6.11419">
        <ele>1014.808838</ele>
        <time>2011-03-24T11:09:28Z</time>
      </trkpt>
      <trkpt lat="44.44778" lon="6.11357">
        <ele>1012.88623</ele>
        <time>2011-03-24T11:09:35Z</time>
      </trkpt>
      <trkpt lat="44.44777" lon="6.11339">
        <ele>1011.925049</ele>
        <time>2011-03-24T11:09:37Z</time>
      </trkpt>
      <trkpt lat="44.44777" lon="6.11319">
        <ele>1010.48291</ele>
        <time>2011-03-24T11:09:39Z</time>
      </trkpt>
      <trkpt lat="44.44777" lon="6.11309">
        <ele>1009.521729</ele>
        <time>2011-03-24T11:09:40Z</time>
      </trkpt>
      <trkpt lat="44.44778" lon="6.11288">
        <ele>1007.599121</ele>
        <time>2011-03-24T11:09:42Z</time>
      </trkpt>
      <trkpt lat="44.4478" lon="6.11159">
        <ele>1004.715088</ele>
        <time>2011-03-24T11:09:54Z</time>
      </trkpt>
      <trkpt lat="44.44785" lon="6.11032">
        <ele>1003.753662</ele>
        <time>2011-03-24T11:10:08Z</time>
      </trkpt>
      <trkpt lat="44.44778" lon="6.10992">
        <ele>1000.869629</ele>
        <time>2011-03-24T11:10:12Z</time>
      </trkpt>
      <trkpt lat="44.4477" lon="6.10966">
        <ele>1001.350342</ele>
        <time>2011-03-24T11:10:15Z</time>
      </trkpt>
      <trkpt lat="44.44766" lon="6.10937">
        <ele>1003.272949</ele>
        <time>2011-03-24T11:10:19Z</time>
      </trkpt>
      <trkpt lat="44.44766" lon="6.10926">
        <ele>1005.676514</ele>
        <time>2011-03-24T11:10:21Z</time>
      </trkpt>
      <trkpt lat="44.44762" lon="6.10875">
        <ele>1008.079834</ele>
        <time>2011-03-24T11:10:34Z</time>
      </trkpt>
      <trkpt lat="44.44721" lon="6.10838">
        <ele>1008.560303</ele>
        <time>2011-03-24T11:10:50Z</time>
      </trkpt>
      <trkpt lat="44.44691" lon="6.10817">
        <ele>1010.963623</ele>
        <time>2011-03-24T11:11:06Z</time>
      </trkpt>
      <trkpt lat="44.4467" lon="6.10801">
        <ele>1012.405518</ele>
        <time>2011-03-24T11:11:17Z</time>
      </trkpt>
      <trkpt lat="44.44669" lon="6.1079">
        <ele>1013.366943</ele>
        <time>2011-03-24T11:11:21Z</time>
      </trkpt>
      <trkpt lat="44.44665" lon="6.10747">
        <ele>1016.731445</ele>
        <time>2011-03-24T11:11:37Z</time>
      </trkpt>
      <trkpt lat="44.44659" lon="6.10704">
        <ele>1018.654053</ele>
        <time>2011-03-24T11:11:52Z</time>
      </trkpt>
      <trkpt lat="44.44658" lon="6.10666">
        <ele>1021.057617</ele>
        <time>2011-03-24T11:12:05Z</time>
      </trkpt>
      <trkpt lat="44.44657" lon="6.10655">
        <ele>1021.057617</ele>
        <time>2011-03-24T11:12:09Z</time>
      </trkpt>
      <trkpt lat="44.44647" lon="6.10606">
        <ele>1024.422119</ele>
        <time>2011-03-24T11:12:28Z</time>
      </trkpt>
      <trkpt lat="44.44619" lon="6.10563">
        <ele>1025.864014</ele>
        <time>2011-03-24T11:12:47Z</time>
      </trkpt>
      <trkpt lat="44.44598" lon="6.10507">
        <ele>1022.980225</ele>
        <time>2011-03-24T11:12:59Z</time>
      </trkpt>
      <trkpt lat="44.4459" lon="6.10487">
        <ele>1022.499512</ele>
        <time>2011-03-24T11:13:02Z</time>
      </trkpt>
      <trkpt lat="44.44548" lon="6.10446">
        <ele>1024.902832</ele>
        <time>2011-03-24T11:13:15Z</time>
      </trkpt>
      <trkpt lat="44.44509" lon="6.10418">
        <ele>1027.306152</ele>
        <time>2011-03-24T11:13:35Z</time>
      </trkpt>
      <trkpt lat="44.44477" lon="6.10405">
        <ele>1030.670654</ele>
        <time>2011-03-24T11:13:52Z</time>
      </trkpt>
      <trkpt lat="44.44441" lon="6.10388">
        <ele>1034.035156</ele>
        <time>2011-03-24T11:14:11Z</time>
      </trkpt>
      <trkpt lat="44.4441" lon="6.10359">
        <ele>1036.919189</ele>
        <time>2011-03-24T11:14:31Z</time>
      </trkpt>
      <trkpt lat="44.44407" lon="6.10358">
        <ele>1037.399902</ele>
        <time>2011-03-24T11:14:32Z</time>
      </trkpt>
      <trkpt lat="44.44382" lon="6.10356">
        <ele>1038.842041</ele>
        <time>2011-03-24T11:14:45Z</time>
      </trkpt>
      <trkpt lat="44.44348" lon="6.1038">
        <ele>1041.72583</ele>
        <time>2011-03-24T11:15:04Z</time>
      </trkpt>
      <trkpt lat="44.44318" lon="6.10403">
        <ele>1044.12915</ele>
        <time>2011-03-24T11:15:22Z</time>
      </trkpt>
      <trkpt lat="44.44298" lon="6.10421">
        <ele>1046.532471</ele>
        <time>2011-03-24T11:15:35Z</time>
      </trkpt>
      <trkpt lat="44.4429" lon="6.10424">
        <ele>1046.532471</ele>
        <time>2011-03-24T11:15:39Z</time>
      </trkpt>
      <trkpt lat="44.44284" lon="6.10403">
        <ele>1047.012939</ele>
        <time>2011-03-24T11:15:45Z</time>
      </trkpt>
      <trkpt lat="44.44298" lon="6.10358">
        <ele>1049.896973</ele>
        <time>2011-03-24T11:16:04Z</time>
      </trkpt>
      <trkpt lat="44.443" lon="6.10308">
        <ele>1051.81958</ele>
        <time>2011-03-24T11:16:23Z</time>
      </trkpt>
      <trkpt lat="44.44284" lon="6.10267">
        <ele>1055.184326</ele>
        <time>2011-03-24T11:16:41Z</time>
      </trkpt>
      <trkpt lat="44.44254" lon="6.1022">
        <ele>1056.626221</ele>
        <time>2011-03-24T11:17:02Z</time>
      </trkpt>
      <trkpt lat="44.44232" lon="6.10174">
        <ele>1055.665039</ele>
        <time>2011-03-24T11:17:17Z</time>
      </trkpt>
      <trkpt lat="44.44237" lon="6.10151">
        <ele>1055.665039</ele>
        <time>2011-03-24T11:17:21Z</time>
      </trkpt>
      <trkpt lat="44.4428" lon="6.10114">
        <ele>1057.587646</ele>
        <time>2011-03-24T11:17:39Z</time>
      </trkpt>
      <trkpt lat="44.44304" lon="6.10076">
        <ele>1060.471436</ele>
        <time>2011-03-24T11:17:53Z</time>
      </trkpt>
      <trkpt lat="44.44333" lon="6.10046">
        <ele>1059.990723</ele>
        <time>2011-03-24T11:18:06Z</time>
      </trkpt>
      <trkpt lat="44.44406" lon="6.10019">
        <ele>1060.471436</ele>
        <time>2011-03-24T11:18:27Z</time>
      </trkpt>
      <trkpt lat="44.44453" lon="6.09979">
        <ele>1060.952148</ele>
        <time>2011-03-24T11:18:42Z</time>
      </trkpt>
      <trkpt lat="44.44473" lon="6.09958">
        <ele>1059.990723</ele>
        <time>2011-03-24T11:18:55Z</time>
      </trkpt>
      <trkpt lat="44.44473" lon="6.09958">
        <ele>1059.510254</ele>
        <time>2011-03-24T11:19:01Z</time>
      </trkpt>
      <trkpt lat="44.44473" lon="6.09958">
        <ele>1060.952148</ele>
        <time>2011-03-24T11:19:51Z</time>
      </trkpt>
      <trkpt lat="44.44473" lon="6.09958">
        <ele>1059.510254</ele>
        <time>2011-03-24T11:19:53Z</time>
      </trkpt>
      <trkpt lat="44.44473" lon="6.09958">
        <ele>1061.432861</ele>
        <time>2011-03-24T11:20:00Z</time>
      </trkpt>
      <trkpt lat="44.44473" lon="6.09958">
        <ele>1060.952148</ele>
        <time>2011-03-24T11:20:31Z</time>
      </trkpt>
      <trkpt lat="44.44475" lon="6.09956">
        <ele>1059.029541</ele>
        <time>2011-03-24T11:20:43Z</time>
      </trkpt>
      <trkpt lat="44.44471" lon="6.09959">
        <ele>1059.029541</ele>
        <time>2011-03-24T11:20:46Z</time>
      </trkpt>
      <trkpt lat="44.44486" lon="6.09936">
        <ele>1057.587646</ele>
        <time>2011-03-24T11:20:50Z</time>
      </trkpt>
      <trkpt lat="44.44505" lon="6.09894">
        <ele>1056.145508</ele>
        <time>2011-03-24T11:21:00Z</time>
      </trkpt>
      <trkpt lat="44.44515" lon="6.09878">
        <ele>1054.703613</ele>
        <time>2011-03-24T11:21:03Z</time>
      </trkpt>
      <trkpt lat="44.44534" lon="6.09849">
        <ele>1051.81958</ele>
        <time>2011-03-24T11:21:08Z</time>
      </trkpt>
      <trkpt lat="44.44538" lon="6.09843">
        <ele>1051.81958</ele>
        <time>2011-03-24T11:21:09Z</time>
      </trkpt>
      <trkpt lat="44.44563" lon="6.09797">
        <ele>1047.974365</ele>
        <time>2011-03-24T11:21:16Z</time>
      </trkpt>
      <trkpt lat="44.44566" lon="6.09789">
        <ele>1047.974365</ele>
        <time>2011-03-24T11:21:17Z</time>
      </trkpt>
      <trkpt lat="44.44592" lon="6.09735">
        <ele>1047.493652</ele>
        <time>2011-03-24T11:21:24Z</time>
      </trkpt>
      <trkpt lat="44.44596" lon="6.09689">
        <ele>1045.571045</ele>
        <time>2011-03-24T11:21:29Z</time>
      </trkpt>
      <trkpt lat="44.44594" lon="6.09657">
        <ele>1044.12915</ele>
        <time>2011-03-24T11:21:32Z</time>
      </trkpt>
      <trkpt lat="44.44592" lon="6.09624">
        <ele>1042.206543</ele>
        <time>2011-03-24T11:21:35Z</time>
      </trkpt>
      <trkpt lat="44.44587" lon="6.09568">
        <ele>1039.803223</ele>
        <time>2011-03-24T11:21:40Z</time>
      </trkpt>
      <trkpt lat="44.44573" lon="6.09501">
        <ele>1038.361328</ele>
        <time>2011-03-24T11:21:47Z</time>
      </trkpt>
      <trkpt lat="44.44584" lon="6.09431">
        <ele>1034.515869</ele>
        <time>2011-03-24T11:21:56Z</time>
      </trkpt>
      <trkpt lat="44.44597" lon="6.09413">
        <ele>1033.554443</ele>
        <time>2011-03-24T11:21:59Z</time>
      </trkpt>
      <trkpt lat="44.44634" lon="6.09397">
        <ele>1031.151367</ele>
        <time>2011-03-24T11:22:05Z</time>
      </trkpt>
      <trkpt lat="44.4467" lon="6.09369">
        <ele>1028.267334</ele>
        <time>2011-03-24T11:22:11Z</time>
      </trkpt>
      <trkpt lat="44.44697" lon="6.09361">
        <ele>1027.786621</ele>
        <time>2011-03-24T11:22:15Z</time>
      </trkpt>
      <trkpt lat="44.44711" lon="6.0936">
        <ele>1026.344727</ele>
        <time>2011-03-24T11:22:17Z</time>
      </trkpt>
      <trkpt lat="44.44776" lon="6.0932">
        <ele>1022.980225</ele>
        <time>2011-03-24T11:22:27Z</time>
      </trkpt>
      <trkpt lat="44.44782" lon="6.09316">
        <ele>1022.980225</ele>
        <time>2011-03-24T11:22:28Z</time>
      </trkpt>
      <trkpt lat="44.44794" lon="6.09308">
        <ele>1022.980225</ele>
        <time>2011-03-24T11:22:30Z</time>
      </trkpt>
      <trkpt lat="44.4482" lon="6.09296">
        <ele>1021.057617</ele>
        <time>2011-03-24T11:22:34Z</time>
      </trkpt>
      <trkpt lat="44.4485" lon="6.0927">
        <ele>1021.057617</ele>
        <time>2011-03-24T11:22:39Z</time>
      </trkpt>
      <trkpt lat="44.4487" lon="6.09221">
        <ele>1018.654053</ele>
        <time>2011-03-24T11:22:45Z</time>
      </trkpt>
      <trkpt lat="44.44879" lon="6.09183">
        <ele>1016.250732</ele>
        <time>2011-03-24T11:22:49Z</time>
      </trkpt>
      <trkpt lat="44.44917" lon="6.09054">
        <ele>1014.328125</ele>
        <time>2011-03-24T11:23:05Z</time>
      </trkpt>
      <trkpt lat="44.44933" lon="6.09019">
        <ele>1012.88623</ele>
        <time>2011-03-24T11:23:10Z</time>
      </trkpt>
      <trkpt lat="44.4495" lon="6.08966">
        <ele>1010.963623</ele>
        <time>2011-03-24T11:23:19Z</time>
      </trkpt>
      <trkpt lat="44.44985" lon="6.08909">
        <ele>1013.366943</ele>
        <time>2011-03-24T11:23:34Z</time>
      </trkpt>
      <trkpt lat="44.45016" lon="6.08853">
        <ele>1012.88623</ele>
        <time>2011-03-24T11:23:47Z</time>
      </trkpt>
      <trkpt lat="44.45024" lon="6.0884">
        <ele>1011.444336</ele>
        <time>2011-03-24T11:23:49Z</time>
      </trkpt>
      <trkpt lat="44.45032" lon="6.08826">
        <ele>1008.560303</ele>
        <time>2011-03-24T11:23:51Z</time>
      </trkpt>
      <trkpt lat="44.4507" lon="6.08795">
        <ele>1009.041016</ele>
        <time>2011-03-24T11:23:57Z</time>
      </trkpt>
      <trkpt lat="44.45093" lon="6.08749">
        <ele>1007.118408</ele>
        <time>2011-03-24T11:24:03Z</time>
      </trkpt>
      <trkpt lat="44.451" lon="6.0872">
        <ele>1005.195801</ele>
        <time>2011-03-24T11:24:06Z</time>
      </trkpt>
      <trkpt lat="44.45102" lon="6.08711">
        <ele>1004.234619</ele>
        <time>2011-03-24T11:24:07Z</time>
      </trkpt>
      <trkpt lat="44.45119" lon="6.08683">
        <ele>1003.753662</ele>
        <time>2011-03-24T11:24:11Z</time>
      </trkpt>
      <trkpt lat="44.45129" lon="6.08672">
        <ele>1002.792236</ele>
        <time>2011-03-24T11:24:13Z</time>
      </trkpt>
      <trkpt lat="44.45141" lon="6.08592">
        <ele>999.427734</ele>
        <time>2011-03-24T11:24:22Z</time>
      </trkpt>
      <trkpt lat="44.45141" lon="6.08561">
        <ele>998.947021</ele>
        <time>2011-03-24T11:24:26Z</time>
      </trkpt>
      <trkpt lat="44.4515" lon="6.08536">
        <ele>997.024414</ele>
        <time>2011-03-24T11:24:29Z</time>
      </trkpt>
      <trkpt lat="44.45157" lon="6.08499">
        <ele>996.063232</ele>
        <time>2011-03-24T11:24:33Z</time>
      </trkpt>
      <trkpt lat="44.45167" lon="6.08473">
        <ele>993.659912</ele>
        <time>2011-03-24T11:24:36Z</time>
      </trkpt>
      <trkpt lat="44.45194" lon="6.08455">
        <ele>991.256592</ele>
        <time>2011-03-24T11:24:40Z</time>
      </trkpt>
      <trkpt lat="44.45206" lon="6.08451">
        <ele>989.333984</ele>
        <time>2011-03-24T11:24:42Z</time>
      </trkpt>
      <trkpt lat="44.45212" lon="6.08449">
        <ele>989.333984</ele>
        <time>2011-03-24T11:24:43Z</time>
      </trkpt>
      <trkpt lat="44.45223" lon="6.08421">
        <ele>987.891846</ele>
        <time>2011-03-24T11:24:47Z</time>
      </trkpt>
      <trkpt lat="44.45226" lon="6.08403">
        <ele>987.411133</ele>
        <time>2011-03-24T11:24:49Z</time>
      </trkpt>
      <trkpt lat="44.45233" lon="6.08365">
        <ele>986.93042</ele>
        <time>2011-03-24T11:24:54Z</time>
      </trkpt>
      <trkpt lat="44.45234" lon="6.08342">
        <ele>986.449951</ele>
        <time>2011-03-24T11:24:57Z</time>
      </trkpt>
      <trkpt lat="44.45234" lon="6.08303">
        <ele>985.969238</ele>
        <time>2011-03-24T11:25:02Z</time>
      </trkpt>
      <trkpt lat="44.45234" lon="6.08287">
        <ele>985.969238</ele>
        <time>2011-03-24T11:25:04Z</time>
      </trkpt>
      <trkpt lat="44.4526" lon="6.08254">
        <ele>983.565918</ele>
        <time>2011-03-24T11:25:12Z</time>
      </trkpt>
      <trkpt lat="44.4528" lon="6.08261">
        <ele>982.124023</ele>
        <time>2011-03-24T11:25:15Z</time>
      </trkpt>
      <trkpt lat="44.45295" lon="6.08265">
        <ele>980.682129</ele>
        <time>2011-03-24T11:25:17Z</time>
      </trkpt>
      <trkpt lat="44.45308" lon="6.08268">
        <ele>979.720703</ele>
        <time>2011-03-24T11:25:19Z</time>
      </trkpt>
      <trkpt lat="44.45337" lon="6.08242">
        <ele>977.317627</ele>
        <time>2011-03-24T11:25:25Z</time>
      </trkpt>
      <trkpt lat="44.45345" lon="6.08226">
        <ele>976.356201</ele>
        <time>2011-03-24T11:25:27Z</time>
      </trkpt>
      <trkpt lat="44.45365" lon="6.08202">
        <ele>973.952881</ele>
        <time>2011-03-24T11:25:31Z</time>
      </trkpt>
      <trkpt lat="44.45396" lon="6.08209">
        <ele>972.030273</ele>
        <time>2011-03-24T11:25:36Z</time>
      </trkpt>
      <trkpt lat="44.45411" lon="6.08218">
        <ele>970.107422</ele>
        <time>2011-03-24T11:25:38Z</time>
      </trkpt>
      <trkpt lat="44.45433" lon="6.08231">
        <ele>967.704102</ele>
        <time>2011-03-24T11:25:41Z</time>
      </trkpt>
      <trkpt lat="44.45447" lon="6.08237">
        <ele>967.704102</ele>
        <time>2011-03-24T11:25:43Z</time>
      </trkpt>
      <trkpt lat="44.45463" lon="6.08243">
        <ele>967.223633</ele>
        <time>2011-03-24T11:25:46Z</time>
      </trkpt>
      <trkpt lat="44.45486" lon="6.08261">
        <ele>964.820313</ele>
        <time>2011-03-24T11:25:50Z</time>
      </trkpt>
      <trkpt lat="44.45498" lon="6.08267">
        <ele>963.858887</ele>
        <time>2011-03-24T11:25:52Z</time>
      </trkpt>
      <trkpt lat="44.45519" lon="6.08249">
        <ele>960.975098</ele>
        <time>2011-03-24T11:25:56Z</time>
      </trkpt>
      <trkpt lat="44.45535" lon="6.08226">
        <ele>959.05249</ele>
        <time>2011-03-24T11:25:59Z</time>
      </trkpt>
      <trkpt lat="44.45545" lon="6.08212">
        <ele>957.610596</ele>
        <time>2011-03-24T11:26:01Z</time>
      </trkpt>
      <trkpt lat="44.45555" lon="6.08168">
        <ele>953.765137</ele>
        <time>2011-03-24T11:26:07Z</time>
      </trkpt>
      <trkpt lat="44.45554" lon="6.0816">
        <ele>953.765137</ele>
        <time>2011-03-24T11:26:08Z</time>
      </trkpt>
      <trkpt lat="44.4555" lon="6.08144">
        <ele>952.322998</ele>
        <time>2011-03-24T11:26:10Z</time>
      </trkpt>
      <trkpt lat="44.45549" lon="6.08135">
        <ele>952.322998</ele>
        <time>2011-03-24T11:26:11Z</time>
      </trkpt>
      <trkpt lat="44.45566" lon="6.08106">
        <ele>948.958496</ele>
        <time>2011-03-24T11:26:17Z</time>
      </trkpt>
      <trkpt lat="44.45573" lon="6.08108">
        <ele>948.958496</ele>
        <time>2011-03-24T11:26:18Z</time>
      </trkpt>
      <trkpt lat="44.4559" lon="6.08123">
        <ele>946.55542</ele>
        <time>2011-03-24T11:26:21Z</time>
      </trkpt>
      <trkpt lat="44.45604" lon="6.08134">
        <ele>945.593994</ele>
        <time>2011-03-24T11:26:23Z</time>
      </trkpt>
      <trkpt lat="44.45634" lon="6.0814">
        <ele>943.190674</ele>
        <time>2011-03-24T11:26:27Z</time>
      </trkpt>
      <trkpt lat="44.45664" lon="6.08135">
        <ele>940.787354</ele>
        <time>2011-03-24T11:26:31Z</time>
      </trkpt>
      <trkpt lat="44.45671" lon="6.08134">
        <ele>940.306885</ele>
        <time>2011-03-24T11:26:32Z</time>
      </trkpt>
      <trkpt lat="44.45692" lon="6.08132">
        <ele>938.864746</ele>
        <time>2011-03-24T11:26:35Z</time>
      </trkpt>
      <trkpt lat="44.45718" lon="6.08146">
        <ele>935.980713</ele>
        <time>2011-03-24T11:26:39Z</time>
      </trkpt>
      <trkpt lat="44.45728" lon="6.0816">
        <ele>935.019531</ele>
        <time>2011-03-24T11:26:41Z</time>
      </trkpt>
      <trkpt lat="44.45739" lon="6.08172">
        <ele>934.058105</ele>
        <time>2011-03-24T11:26:43Z</time>
      </trkpt>
      <trkpt lat="44.45751" lon="6.08182">
        <ele>932.616211</ele>
        <time>2011-03-24T11:26:45Z</time>
      </trkpt>
      <trkpt lat="44.45763" lon="6.08193">
        <ele>930.693604</ele>
        <time>2011-03-24T11:26:47Z</time>
      </trkpt>
      <trkpt lat="44.45781" lon="6.08209">
        <ele>928.770996</ele>
        <time>2011-03-24T11:26:50Z</time>
      </trkpt>
      <trkpt lat="44.45792" lon="6.08219">
        <ele>927.329102</ele>
        <time>2011-03-24T11:26:52Z</time>
      </trkpt>
      <trkpt lat="44.45807" lon="6.08248">
        <ele>925.886963</ele>
        <time>2011-03-24T11:26:57Z</time>
      </trkpt>
      <trkpt lat="44.45806" lon="6.08265">
        <ele>924.925781</ele>
        <time>2011-03-24T11:26:59Z</time>
      </trkpt>
      <trkpt lat="44.45803" lon="6.08292">
        <ele>922.522217</ele>
        <time>2011-03-24T11:27:02Z</time>
      </trkpt>
      <trkpt lat="44.45801" lon="6.0831">
        <ele>921.080322</ele>
        <time>2011-03-24T11:27:04Z</time>
      </trkpt>
      <trkpt lat="44.45801" lon="6.08319">
        <ele>919.638428</ele>
        <time>2011-03-24T11:27:05Z</time>
      </trkpt>
      <trkpt lat="44.4581" lon="6.08358">
        <ele>916.754395</ele>
        <time>2011-03-24T11:27:09Z</time>
      </trkpt>
      <trkpt lat="44.45814" lon="6.08366">
        <ele>915.3125</ele>
        <time>2011-03-24T11:27:10Z</time>
      </trkpt>
      <trkpt lat="44.45848" lon="6.08427">
        <ele>912.428467</ele>
        <time>2011-03-24T11:27:17Z</time>
      </trkpt>
      <trkpt lat="44.45866" lon="6.0845">
        <ele>910.986572</ele>
        <time>2011-03-24T11:27:20Z</time>
      </trkpt>
      <trkpt lat="44.45872" lon="6.08455">
        <ele>910.986572</ele>
        <time>2011-03-24T11:27:21Z</time>
      </trkpt>
      <trkpt lat="44.45908" lon="6.08473">
        <ele>907.621826</ele>
        <time>2011-03-24T11:27:26Z</time>
      </trkpt>
      <trkpt lat="44.45916" lon="6.08473">
        <ele>907.621826</ele>
        <time>2011-03-24T11:27:27Z</time>
      </trkpt>
      <trkpt lat="44.45933" lon="6.08472">
        <ele>906.6604</ele>
        <time>2011-03-24T11:27:29Z</time>
      </trkpt>
      <trkpt lat="44.45942" lon="6.0847">
        <ele>906.179688</ele>
        <time>2011-03-24T11:27:30Z</time>
      </trkpt>
      <trkpt lat="44.45959" lon="6.08466">
        <ele>904.737793</ele>
        <time>2011-03-24T11:27:32Z</time>
      </trkpt>
      <trkpt lat="44.45997" lon="6.08437">
        <ele>903.776611</ele>
        <time>2011-03-24T11:27:37Z</time>
      </trkpt>
      <trkpt lat="44.46046" lon="6.08435">
        <ele>902.815186</ele>
        <time>2011-03-24T11:27:44Z</time>
      </trkpt>
      <trkpt lat="44.46079" lon="6.08451">
        <ele>903.295898</ele>
        <time>2011-03-24T11:27:49Z</time>
      </trkpt>
      <trkpt lat="44.46095" lon="6.08489">
        <ele>903.295898</ele>
        <time>2011-03-24T11:27:58Z</time>
      </trkpt>
      <trkpt lat="44.46089" lon="6.08507">
        <ele>901.854004</ele>
        <time>2011-03-24T11:28:01Z</time>
      </trkpt>
      <trkpt lat="44.46079" lon="6.08529">
        <ele>900.892578</ele>
        <time>2011-03-24T11:28:04Z</time>
      </trkpt>
      <trkpt lat="44.46071" lon="6.08542">
        <ele>899.450684</ele>
        <time>2011-03-24T11:28:06Z</time>
      </trkpt>
      <trkpt lat="44.46062" lon="6.08558">
        <ele>898.008789</ele>
        <time>2011-03-24T11:28:08Z</time>
      </trkpt>
      <trkpt lat="44.46045" lon="6.08603">
        <ele>895.124756</ele>
        <time>2011-03-24T11:28:13Z</time>
      </trkpt>
      <trkpt lat="44.46026" lon="6.08647">
        <ele>894.644043</ele>
        <time>2011-03-24T11:28:18Z</time>
      </trkpt>
      <trkpt lat="44.46018" lon="6.08661">
        <ele>893.202148</ele>
        <time>2011-03-24T11:28:20Z</time>
      </trkpt>
      <trkpt lat="44.46006" lon="6.08673">
        <ele>889.837402</ele>
        <time>2011-03-24T11:28:22Z</time>
      </trkpt>
      <trkpt lat="44.45999" lon="6.08676">
        <ele>889.837402</ele>
        <time>2011-03-24T11:28:23Z</time>
      </trkpt>
      <trkpt lat="44.45957" lon="6.087">
        <ele>885.992188</ele>
        <time>2011-03-24T11:28:29Z</time>
      </trkpt>
      <trkpt lat="44.4595" lon="6.08705">
        <ele>885.992188</ele>
        <time>2011-03-24T11:28:30Z</time>
      </trkpt>
      <trkpt lat="44.45937" lon="6.08713">
        <ele>884.06958</ele>
        <time>2011-03-24T11:28:32Z</time>
      </trkpt>
      <trkpt lat="44.45931" lon="6.08715">
        <ele>885.031006</ele>
        <time>2011-03-24T11:28:33Z</time>
      </trkpt>
      <trkpt lat="44.45926" lon="6.08746">
        <ele>883.108154</ele>
        <time>2011-03-24T11:28:39Z</time>
      </trkpt>
      <trkpt lat="44.45948" lon="6.08755">
        <ele>883.108154</ele>
        <time>2011-03-24T11:28:43Z</time>
      </trkpt>
      <trkpt lat="44.45967" lon="6.08756">
        <ele>880.705078</ele>
        <time>2011-03-24T11:28:46Z</time>
      </trkpt>
      <trkpt lat="44.45981" lon="6.08758">
        <ele>880.705078</ele>
        <time>2011-03-24T11:28:48Z</time>
      </trkpt>
      <trkpt lat="44.46005" lon="6.08795">
        <ele>879.743652</ele>
        <time>2011-03-24T11:28:55Z</time>
      </trkpt>
      <trkpt lat="44.46002" lon="6.0881">
        <ele>879.262939</ele>
        <time>2011-03-24T11:28:57Z</time>
      </trkpt>
      <trkpt lat="44.45998" lon="6.08833">
        <ele>879.262939</ele>
        <time>2011-03-24T11:29:00Z</time>
      </trkpt>
      <trkpt lat="44.4601" lon="6.0889">
        <ele>877.340576</ele>
        <time>2011-03-24T11:29:07Z</time>
      </trkpt>
      <trkpt lat="44.4604" lon="6.08928">
        <ele>876.37915</ele>
        <time>2011-03-24T11:29:13Z</time>
      </trkpt>
      <trkpt lat="44.46059" lon="6.08969">
        <ele>874.456299</ele>
        <time>2011-03-24T11:29:18Z</time>
      </trkpt>
      <trkpt lat="44.46071" lon="6.09006">
        <ele>871.091797</ele>
        <time>2011-03-24T11:29:22Z</time>
      </trkpt>
      <trkpt lat="44.46075" lon="6.09014">
        <ele>871.091797</ele>
        <time>2011-03-24T11:29:23Z</time>
      </trkpt>
      <trkpt lat="44.46079" lon="6.09024">
        <ele>868.207764</ele>
        <time>2011-03-24T11:29:24Z</time>
      </trkpt>
      <trkpt lat="44.46083" lon="6.09034">
        <ele>868.207764</ele>
        <time>2011-03-24T11:29:25Z</time>
      </trkpt>
      <trkpt lat="44.46092" lon="6.09053">
        <ele>865.804688</ele>
        <time>2011-03-24T11:29:27Z</time>
      </trkpt>
      <trkpt lat="44.46101" lon="6.09071">
        <ele>862.920654</ele>
        <time>2011-03-24T11:29:29Z</time>
      </trkpt>
      <trkpt lat="44.4612" lon="6.09091">
        <ele>861.47876</ele>
        <time>2011-03-24T11:29:32Z</time>
      </trkpt>
      <trkpt lat="44.46126" lon="6.09097">
        <ele>860.036621</ele>
        <time>2011-03-24T11:29:33Z</time>
      </trkpt>
      <trkpt lat="44.46139" lon="6.0914">
        <ele>858.114014</ele>
        <time>2011-03-24T11:29:39Z</time>
      </trkpt>
      <trkpt lat="44.46139" lon="6.09162">
        <ele>856.671875</ele>
        <time>2011-03-24T11:29:41Z</time>
      </trkpt>
      <trkpt lat="44.46146" lon="6.09178">
        <ele>854.268799</ele>
        <time>2011-03-24T11:29:43Z</time>
      </trkpt>
      <trkpt lat="44.46168" lon="6.09187">
        <ele>852.345947</ele>
        <time>2011-03-24T11:29:46Z</time>
      </trkpt>
      <trkpt lat="44.46176" lon="6.09189">
        <ele>850.423584</ele>
        <time>2011-03-24T11:29:47Z</time>
      </trkpt>
      <trkpt lat="44.46193" lon="6.09194">
        <ele>849.942871</ele>
        <time>2011-03-24T11:29:49Z</time>
      </trkpt>
      <trkpt lat="44.46223" lon="6.09225">
        <ele>846.578369</ele>
        <time>2011-03-24T11:29:54Z</time>
      </trkpt>
      <trkpt lat="44.46228" lon="6.09233">
        <ele>846.578369</ele>
        <time>2011-03-24T11:29:55Z</time>
      </trkpt>
      <trkpt lat="44.4624" lon="6.09264">
        <ele>843.694092</ele>
        <time>2011-03-24T11:29:58Z</time>
      </trkpt>
      <trkpt lat="44.4625" lon="6.09294">
        <ele>841.771484</ele>
        <time>2011-03-24T11:30:01Z</time>
      </trkpt>
      <trkpt lat="44.46256" lon="6.09324">
        <ele>841.290771</ele>
        <time>2011-03-24T11:30:04Z</time>
      </trkpt>
      <trkpt lat="44.46263" lon="6.09354">
        <ele>839.368164</ele>
        <time>2011-03-24T11:30:07Z</time>
      </trkpt>
      <trkpt lat="44.46279" lon="6.09379">
        <ele>837.92627</ele>
        <time>2011-03-24T11:30:10Z</time>
      </trkpt>
      <trkpt lat="44.463" lon="6.09411">
        <ele>837.445557</ele>
        <time>2011-03-24T11:30:14Z</time>
      </trkpt>
      <trkpt lat="44.463" lon="6.09459">
        <ele>834.081055</ele>
        <time>2011-03-24T11:30:20Z</time>
      </trkpt>
      <trkpt lat="44.46295" lon="6.09477">
        <ele>832.63916</ele>
        <time>2011-03-24T11:30:22Z</time>
      </trkpt>
      <trkpt lat="44.46308" lon="6.09533">
        <ele>830.23584</ele>
        <time>2011-03-24T11:30:28Z</time>
      </trkpt>
      <trkpt lat="44.46318" lon="6.09552">
        <ele>827.832275</ele>
        <time>2011-03-24T11:30:30Z</time>
      </trkpt>
      <trkpt lat="44.46329" lon="6.0957">
        <ele>825.909668</ele>
        <time>2011-03-24T11:30:32Z</time>
      </trkpt>
      <trkpt lat="44.46347" lon="6.09605">
        <ele>823.987061</ele>
        <time>2011-03-24T11:30:36Z</time>
      </trkpt>
      <trkpt lat="44.46365" lon="6.09625">
        <ele>821.58374</ele>
        <time>2011-03-24T11:30:39Z</time>
      </trkpt>
      <trkpt lat="44.46385" lon="6.09631">
        <ele>819.180664</ele>
        <time>2011-03-24T11:30:42Z</time>
      </trkpt>
      <trkpt lat="44.464" lon="6.09625">
        <ele>817.738525</ele>
        <time>2011-03-24T11:30:44Z</time>
      </trkpt>
      <trkpt lat="44.46415" lon="6.09616">
        <ele>814.854736</ele>
        <time>2011-03-24T11:30:46Z</time>
      </trkpt>
      <trkpt lat="44.46432" lon="6.09605">
        <ele>811.48999</ele>
        <time>2011-03-24T11:30:48Z</time>
      </trkpt>
      <trkpt lat="44.46465" lon="6.09581">
        <ele>811.48999</ele>
        <time>2011-03-24T11:30:53Z</time>
      </trkpt>
      <trkpt lat="44.46496" lon="6.09611">
        <ele>809.08667</ele>
        <time>2011-03-24T11:31:00Z</time>
      </trkpt>
      <trkpt lat="44.46518" lon="6.09636">
        <ele>805.722168</ele>
        <time>2011-03-24T11:31:07Z</time>
      </trkpt>
      <trkpt lat="44.4653" lon="6.09638">
        <ele>804.280273</ele>
        <time>2011-03-24T11:31:09Z</time>
      </trkpt>
      <trkpt lat="44.46536" lon="6.0964">
        <ele>802.838135</ele>
        <time>2011-03-24T11:31:10Z</time>
      </trkpt>
      <trkpt lat="44.4655" lon="6.09671">
        <ele>801.39624</ele>
        <time>2011-03-24T11:31:16Z</time>
      </trkpt>
      <trkpt lat="44.46549" lon="6.09679">
        <ele>799.954346</ele>
        <time>2011-03-24T11:31:17Z</time>
      </trkpt>
      <trkpt lat="44.46554" lon="6.09715">
        <ele>797.070313</ele>
        <time>2011-03-24T11:31:21Z</time>
      </trkpt>
      <trkpt lat="44.46557" lon="6.09722">
        <ele>796.589844</ele>
        <time>2011-03-24T11:31:22Z</time>
      </trkpt>
      <trkpt lat="44.46547" lon="6.09762">
        <ele>794.186279</ele>
        <time>2011-03-24T11:31:29Z</time>
      </trkpt>
      <trkpt lat="44.46559" lon="6.0979">
        <ele>791.302246</ele>
        <time>2011-03-24T11:31:34Z</time>
      </trkpt>
      <trkpt lat="44.46565" lon="6.09792">
        <ele>791.302246</ele>
        <time>2011-03-24T11:31:35Z</time>
      </trkpt>
      <trkpt lat="44.46578" lon="6.09793">
        <ele>788.89917</ele>
        <time>2011-03-24T11:31:37Z</time>
      </trkpt>
      <trkpt lat="44.4659" lon="6.09793">
        <ele>786.976318</ele>
        <time>2011-03-24T11:31:39Z</time>
      </trkpt>
      <trkpt lat="44.46597" lon="6.09793">
        <ele>786.015137</ele>
        <time>2011-03-24T11:31:40Z</time>
      </trkpt>
      <trkpt lat="44.46634" lon="6.09835">
        <ele>782.169922</ele>
        <time>2011-03-24T11:31:48Z</time>
      </trkpt>
      <trkpt lat="44.46642" lon="6.09876">
        <ele>780.728027</ele>
        <time>2011-03-24T11:31:53Z</time>
      </trkpt>
      <trkpt lat="44.46644" lon="6.09888">
        <ele>779.285645</ele>
        <time>2011-03-24T11:31:55Z</time>
      </trkpt>
      <trkpt lat="44.4666" lon="6.09888">
        <ele>776.882568</ele>
        <time>2011-03-24T11:32:00Z</time>
      </trkpt>
      <trkpt lat="44.46664" lon="6.09883">
        <ele>773.998535</ele>
        <time>2011-03-24T11:32:01Z</time>
      </trkpt>
      <trkpt lat="44.46672" lon="6.09869">
        <ele>772.075928</ele>
        <time>2011-03-24T11:32:03Z</time>
      </trkpt>
      <trkpt lat="44.46677" lon="6.09853">
        <ele>770.634033</ele>
        <time>2011-03-24T11:32:05Z</time>
      </trkpt>
      <trkpt lat="44.46681" lon="6.09834">
        <ele>768.711426</ele>
        <time>2011-03-24T11:32:07Z</time>
      </trkpt>
      <trkpt lat="44.46682" lon="6.09825">
        <ele>767.75</ele>
        <time>2011-03-24T11:32:08Z</time>
      </trkpt>
      <trkpt lat="44.46685" lon="6.09809">
        <ele>767.269531</ele>
        <time>2011-03-24T11:32:10Z</time>
      </trkpt>
      <trkpt lat="44.46688" lon="6.09793">
        <ele>766.788818</ele>
        <time>2011-03-24T11:32:12Z</time>
      </trkpt>
      <trkpt lat="44.46716" lon="6.09782">
        <ele>763.424072</ele>
        <time>2011-03-24T11:32:19Z</time>
      </trkpt>
      <trkpt lat="44.46721" lon="6.09797">
        <ele>761.982178</ele>
        <time>2011-03-24T11:32:21Z</time>
      </trkpt>
      <trkpt lat="44.46721" lon="6.09816">
        <ele>761.020752</ele>
        <time>2011-03-24T11:32:23Z</time>
      </trkpt>
      <trkpt lat="44.46721" lon="6.09846">
        <ele>758.136963</ele>
        <time>2011-03-24T11:32:26Z</time>
      </trkpt>
      <trkpt lat="44.46721" lon="6.09855">
        <ele>756.694824</ele>
        <time>2011-03-24T11:32:27Z</time>
      </trkpt>
      <trkpt lat="44.46706" lon="6.09903">
        <ele>752.368896</ele>
        <time>2011-03-24T11:32:32Z</time>
      </trkpt>
      <trkpt lat="44.46702" lon="6.09911">
        <ele>752.368896</ele>
        <time>2011-03-24T11:32:33Z</time>
      </trkpt>
      <trkpt lat="44.46697" lon="6.09919">
        <ele>751.407715</ele>
        <time>2011-03-24T11:32:34Z</time>
      </trkpt>
      <trkpt lat="44.46684" lon="6.09935">
        <ele>750.927002</ele>
        <time>2011-03-24T11:32:37Z</time>
      </trkpt>
      <trkpt lat="44.46694" lon="6.09962">
        <ele>747.081543</ele>
        <time>2011-03-24T11:32:43Z</time>
      </trkpt>
      <trkpt lat="44.46699" lon="6.09962">
        <ele>747.081543</ele>
        <time>2011-03-24T11:32:44Z</time>
      </trkpt>
      <trkpt lat="44.46721" lon="6.0997">
        <ele>744.678223</ele>
        <time>2011-03-24T11:32:47Z</time>
      </trkpt>
      <trkpt lat="44.46732" lon="6.09971">
        <ele>742.755859</ele>
        <time>2011-03-24T11:32:49Z</time>
      </trkpt>
      <trkpt lat="44.46745" lon="6.09966">
        <ele>742.275146</ele>
        <time>2011-03-24T11:32:51Z</time>
      </trkpt>
      <trkpt lat="44.46765" lon="6.09954">
        <ele>741.313721</ele>
        <time>2011-03-24T11:32:54Z</time>
      </trkpt>
      <trkpt lat="44.46781" lon="6.09941">
        <ele>740.833008</ele>
        <time>2011-03-24T11:32:57Z</time>
      </trkpt>
      <trkpt lat="44.46818" lon="6.09957">
        <ele>739.871826</ele>
        <time>2011-03-24T11:33:05Z</time>
      </trkpt>
      <trkpt lat="44.46821" lon="6.09965">
        <ele>738.910645</ele>
        <time>2011-03-24T11:33:06Z</time>
      </trkpt>
      <trkpt lat="44.46834" lon="6.10003">
        <ele>736.987793</ele>
        <time>2011-03-24T11:33:11Z</time>
      </trkpt>
      <trkpt lat="44.46849" lon="6.10053">
        <ele>735.545898</ele>
        <time>2011-03-24T11:33:18Z</time>
      </trkpt>
      <trkpt lat="44.46848" lon="6.10108">
        <ele>733.623291</ele>
        <time>2011-03-24T11:33:24Z</time>
      </trkpt>
      <trkpt lat="44.46826" lon="6.10209">
        <ele>729.777832</ele>
        <time>2011-03-24T11:33:34Z</time>
      </trkpt>
      <trkpt lat="44.46816" lon="6.10273">
        <ele>726.894043</ele>
        <time>2011-03-24T11:33:40Z</time>
      </trkpt>
      <trkpt lat="44.46814" lon="6.10284">
        <ele>726.41333</ele>
        <time>2011-03-24T11:33:41Z</time>
      </trkpt>
      <trkpt lat="44.46808" lon="6.10325">
        <ele>725.451904</ele>
        <time>2011-03-24T11:33:45Z</time>
      </trkpt>
      <trkpt lat="44.46805" lon="6.10345">
        <ele>724.490723</ele>
        <time>2011-03-24T11:33:47Z</time>
      </trkpt>
      <trkpt lat="44.46799" lon="6.10412">
        <ele>721.606689</ele>
        <time>2011-03-24T11:33:53Z</time>
      </trkpt>
      <trkpt lat="44.46798" lon="6.10424">
        <ele>721.606689</ele>
        <time>2011-03-24T11:33:54Z</time>
      </trkpt>
      <trkpt lat="44.46795" lon="6.10444">
        <ele>721.606689</ele>
        <time>2011-03-24T11:33:56Z</time>
      </trkpt>
      <trkpt lat="44.46789" lon="6.10486">
        <ele>719.203613</ele>
        <time>2011-03-24T11:34:00Z</time>
      </trkpt>
      <trkpt lat="44.46783" lon="6.10529">
        <ele>718.7229</ele>
        <time>2011-03-24T11:34:04Z</time>
      </trkpt>
      <trkpt lat="44.46777" lon="6.10571">
        <ele>716.800293</ele>
        <time>2011-03-24T11:34:08Z</time>
      </trkpt>
      <trkpt lat="44.46778" lon="6.10615">
        <ele>714.877441</ele>
        <time>2011-03-24T11:34:12Z</time>
      </trkpt>
      <trkpt lat="44.46779" lon="6.10645">
        <ele>714.877441</ele>
        <time>2011-03-24T11:34:15Z</time>
      </trkpt>
      <trkpt lat="44.46779" lon="6.10723">
        <ele>711.032227</ele>
        <time>2011-03-24T11:34:23Z</time>
      </trkpt>
      <trkpt lat="44.46796" lon="6.10755">
        <ele>709.590332</ele>
        <time>2011-03-24T11:34:28Z</time>
      </trkpt>
      <trkpt lat="44.46811" lon="6.10758">
        <ele>705.264404</ele>
        <time>2011-03-24T11:34:30Z</time>
      </trkpt>
      <trkpt lat="44.46819" lon="6.10757">
        <ele>705.264404</ele>
        <time>2011-03-24T11:34:31Z</time>
      </trkpt>
      <trkpt lat="44.46827" lon="6.10756">
        <ele>704.303223</ele>
        <time>2011-03-24T11:34:32Z</time>
      </trkpt>
      <trkpt lat="44.46853" lon="6.10754">
        <ele>702.861084</ele>
        <time>2011-03-24T11:34:35Z</time>
      </trkpt>
      <trkpt lat="44.46873" lon="6.10748">
        <ele>704.303223</ele>
        <time>2011-03-24T11:34:38Z</time>
      </trkpt>
      <trkpt lat="44.46882" lon="6.10744">
        <ele>704.783691</ele>
        <time>2011-03-24T11:34:40Z</time>
      </trkpt>
      <trkpt lat="44.46891" lon="6.10692">
        <ele>703.341797</ele>
        <time>2011-03-24T11:34:45Z</time>
      </trkpt>
      <trkpt lat="44.46898" lon="6.10676">
        <ele>701.419189</ele>
        <time>2011-03-24T11:34:47Z</time>
      </trkpt>
      <trkpt lat="44.46909" lon="6.10638">
        <ele>698.054443</ele>
        <time>2011-03-24T11:34:51Z</time>
      </trkpt>
      <trkpt lat="44.46911" lon="6.10627">
        <ele>698.054443</ele>
        <time>2011-03-24T11:34:52Z</time>
      </trkpt>
      <trkpt lat="44.46914" lon="6.10593">
        <ele>694.689697</ele>
        <time>2011-03-24T11:34:55Z</time>
      </trkpt>
      <trkpt lat="44.46914" lon="6.10581">
        <ele>694.689697</ele>
        <time>2011-03-24T11:34:56Z</time>
      </trkpt>
      <trkpt lat="44.4691" lon="6.10546">
        <ele>693.247803</ele>
        <time>2011-03-24T11:34:59Z</time>
      </trkpt>
      <trkpt lat="44.4691" lon="6.10523">
        <ele>691.805908</ele>
        <time>2011-03-24T11:35:01Z</time>
      </trkpt>
      <trkpt lat="44.46916" lon="6.10433">
        <ele>689.402588</ele>
        <time>2011-03-24T11:35:09Z</time>
      </trkpt>
      <trkpt lat="44.46914" lon="6.10381">
        <ele>688.922119</ele>
        <time>2011-03-24T11:35:14Z</time>
      </trkpt>
      <trkpt lat="44.46917" lon="6.1035">
        <ele>687.960693</ele>
        <time>2011-03-24T11:35:17Z</time>
      </trkpt>
      <trkpt lat="44.46925" lon="6.10309">
        <ele>685.557373</ele>
        <time>2011-03-24T11:35:21Z</time>
      </trkpt>
      <trkpt lat="44.4693" lon="6.10289">
        <ele>684.596191</ele>
        <time>2011-03-24T11:35:23Z</time>
      </trkpt>
      <trkpt lat="44.46941" lon="6.10237">
        <ele>681.711914</ele>
        <time>2011-03-24T11:35:28Z</time>
      </trkpt>
      <trkpt lat="44.46955" lon="6.10176">
        <ele>678.347412</ele>
        <time>2011-03-24T11:35:34Z</time>
      </trkpt>
      <trkpt lat="44.46957" lon="6.10165">
        <ele>677.866699</ele>
        <time>2011-03-24T11:35:35Z</time>
      </trkpt>
      <trkpt lat="44.46974" lon="6.10114">
        <ele>675.944092</ele>
        <time>2011-03-24T11:35:40Z</time>
      </trkpt>
      <trkpt lat="44.46984" lon="6.10096">
        <ele>674.502197</ele>
        <time>2011-03-24T11:35:42Z</time>
      </trkpt>
      <trkpt lat="44.47001" lon="6.10068">
        <ele>672.098877</ele>
        <time>2011-03-24T11:35:45Z</time>
      </trkpt>
      <trkpt lat="44.4702" lon="6.10029">
        <ele>669.215088</ele>
        <time>2011-03-24T11:35:49Z</time>
      </trkpt>
      <trkpt lat="44.4703" lon="6.10004">
        <ele>669.695801</ele>
        <time>2011-03-24T11:35:52Z</time>
      </trkpt>
      <trkpt lat="44.47033" lon="6.09956">
        <ele>670.17627</ele>
        <time>2011-03-24T11:35:58Z</time>
      </trkpt>
      <trkpt lat="44.47021" lon="6.09938">
        <ele>671.137695</ele>
        <time>2011-03-24T11:36:01Z</time>
      </trkpt>
      <trkpt lat="44.47005" lon="6.09915">
        <ele>667.292236</ele>
        <time>2011-03-24T11:36:05Z</time>
      </trkpt>
      <trkpt lat="44.47004" lon="6.09904">
        <ele>667.292236</ele>
        <time>2011-03-24T11:36:06Z</time>
      </trkpt>
      <trkpt lat="44.47013" lon="6.09884">
        <ele>665.850342</ele>
        <time>2011-03-24T11:36:08Z</time>
      </trkpt>
      <trkpt lat="44.47022" lon="6.09869">
        <ele>663.92749</ele>
        <time>2011-03-24T11:36:10Z</time>
      </trkpt>
      <trkpt lat="44.47041" lon="6.09848">
        <ele>661.043701</ele>
        <time>2011-03-24T11:36:13Z</time>
      </trkpt>
      <trkpt lat="44.47066" lon="6.09808">
        <ele>658.159912</ele>
        <time>2011-03-24T11:36:18Z</time>
      </trkpt>
      <trkpt lat="44.47116" lon="6.09618">
        <ele>656.237061</ele>
        <time>2011-03-24T11:36:38Z</time>
      </trkpt>
      <trkpt lat="44.47124" lon="6.09593">
        <ele>654.795166</ele>
        <time>2011-03-24T11:36:41Z</time>
      </trkpt>
      <trkpt lat="44.47125" lon="6.09544">
        <ele>656.237061</ele>
        <time>2011-03-24T11:36:47Z</time>
      </trkpt>
      <trkpt lat="44.47124" lon="6.09528">
        <ele>656.237061</ele>
        <time>2011-03-24T11:36:49Z</time>
      </trkpt>
      <trkpt lat="44.47124" lon="6.09504">
        <ele>655.756592</ele>
        <time>2011-03-24T11:36:52Z</time>
      </trkpt>
      <trkpt lat="44.47124" lon="6.09428">
        <ele>654.314697</ele>
        <time>2011-03-24T11:37:01Z</time>
      </trkpt>
      <trkpt lat="44.47133" lon="6.09388">
        <ele>655.275879</ele>
        <time>2011-03-24T11:37:06Z</time>
      </trkpt>
      <trkpt lat="44.47149" lon="6.09322">
        <ele>654.795166</ele>
        <time>2011-03-24T11:37:15Z</time>
      </trkpt>
      <trkpt lat="44.47153" lon="6.09298">
        <ele>653.353271</ele>
        <time>2011-03-24T11:37:18Z</time>
      </trkpt>
      <trkpt lat="44.47152" lon="6.09214">
        <ele>650.469238</ele>
        <time>2011-03-24T11:37:27Z</time>
      </trkpt>
      <trkpt lat="44.47156" lon="6.09161">
        <ele>648.065918</ele>
        <time>2011-03-24T11:37:32Z</time>
      </trkpt>
      <trkpt lat="44.47155" lon="6.0914">
        <ele>646.624023</ele>
        <time>2011-03-24T11:37:34Z</time>
      </trkpt>
      <trkpt lat="44.47154" lon="6.09129">
        <ele>647.104492</ele>
        <time>2011-03-24T11:37:35Z</time>
      </trkpt>
      <trkpt lat="44.47149" lon="6.09065">
        <ele>645.662598</ele>
        <time>2011-03-24T11:37:41Z</time>
      </trkpt>
      <trkpt lat="44.47148" lon="6.09042">
        <ele>644.701172</ele>
        <time>2011-03-24T11:37:43Z</time>
      </trkpt>
      <trkpt lat="44.47165" lon="6.08993">
        <ele>643.73999</ele>
        <time>2011-03-24T11:37:48Z</time>
      </trkpt>
      <trkpt lat="44.47181" lon="6.08973">
        <ele>644.220703</ele>
        <time>2011-03-24T11:37:51Z</time>
      </trkpt>
      <trkpt lat="44.4719" lon="6.08952">
        <ele>642.298096</ele>
        <time>2011-03-24T11:37:54Z</time>
      </trkpt>
      <trkpt lat="44.47193" lon="6.08945">
        <ele>642.298096</ele>
        <time>2011-03-24T11:37:55Z</time>
      </trkpt>
      <trkpt lat="44.47195" lon="6.08929">
        <ele>643.73999</ele>
        <time>2011-03-24T11:37:57Z</time>
      </trkpt>
      <trkpt lat="44.47202" lon="6.08894">
        <ele>642.298096</ele>
        <time>2011-03-24T11:38:01Z</time>
      </trkpt>
      <trkpt lat="44.47203" lon="6.08865">
        <ele>639.414063</ele>
        <time>2011-03-24T11:38:04Z</time>
      </trkpt>
      <trkpt lat="44.47203" lon="6.08843">
        <ele>637.972168</ele>
        <time>2011-03-24T11:38:06Z</time>
      </trkpt>
      <trkpt lat="44.47199" lon="6.08809">
        <ele>633.645996</ele>
        <time>2011-03-24T11:38:09Z</time>
      </trkpt>
      <trkpt lat="44.47196" lon="6.08787">
        <ele>631.24292</ele>
        <time>2011-03-24T11:38:11Z</time>
      </trkpt>
      <trkpt lat="44.47193" lon="6.08764">
        <ele>632.684814</ele>
        <time>2011-03-24T11:38:13Z</time>
      </trkpt>
      <trkpt lat="44.47187" lon="6.08706">
        <ele>630.281494</ele>
        <time>2011-03-24T11:38:18Z</time>
      </trkpt>
      <trkpt lat="44.47184" lon="6.08682">
        <ele>628.8396</ele>
        <time>2011-03-24T11:38:20Z</time>
      </trkpt>
      <trkpt lat="44.47179" lon="6.08633">
        <ele>623.55249</ele>
        <time>2011-03-24T11:38:24Z</time>
      </trkpt>
      <trkpt lat="44.47178" lon="6.08621">
        <ele>623.55249</ele>
        <time>2011-03-24T11:38:25Z</time>
      </trkpt>
      <trkpt lat="44.47162" lon="6.08466">
        <ele>623.55249</ele>
        <time>2011-03-24T11:38:40Z</time>
      </trkpt>
      <trkpt lat="44.47149" lon="6.0842">
        <ele>623.55249</ele>
        <time>2011-03-24T11:38:46Z</time>
      </trkpt>
      <trkpt lat="44.47104" lon="6.08285">
        <ele>623.071777</ele>
        <time>2011-03-24T11:39:05Z</time>
      </trkpt>
      <trkpt lat="44.47064" lon="6.08166">
        <ele>622.110352</ele>
        <time>2011-03-24T11:39:22Z</time>
      </trkpt>
      <trkpt lat="44.47008" lon="6.08058">
        <ele>621.629639</ele>
        <time>2011-03-24T11:39:39Z</time>
      </trkpt>
      <trkpt lat="44.47002" lon="6.08047">
        <ele>620.187744</ele>
        <time>2011-03-24T11:39:41Z</time>
      </trkpt>
      <trkpt lat="44.4697" lon="6.07965">
        <ele>623.071777</ele>
        <time>2011-03-24T11:39:56Z</time>
      </trkpt>
      <trkpt lat="44.46967" lon="6.07961">
        <ele>623.071777</ele>
        <time>2011-03-24T11:39:57Z</time>
      </trkpt>
      <trkpt lat="44.46958" lon="6.07949">
        <ele>621.14917</ele>
        <time>2011-03-24T11:40:00Z</time>
      </trkpt>
      <trkpt lat="44.46913" lon="6.07884">
        <ele>622.591064</ele>
        <time>2011-03-24T11:40:16Z</time>
      </trkpt>
      <trkpt lat="44.469" lon="6.07854">
        <ele>620.668457</ele>
        <time>2011-03-24T11:40:23Z</time>
      </trkpt>
      <trkpt lat="44.46898" lon="6.07849">
        <ele>620.187744</ele>
        <time>2011-03-24T11:40:24Z</time>
      </trkpt>
      <trkpt lat="44.46887" lon="6.0784">
        <ele>621.629639</ele>
        <time>2011-03-24T11:40:27Z</time>
      </trkpt>
      <trkpt lat="44.46874" lon="6.0785">
        <ele>620.668457</ele>
        <time>2011-03-24T11:40:30Z</time>
      </trkpt>
      <trkpt lat="44.46865" lon="6.07858">
        <ele>620.668457</ele>
        <time>2011-03-24T11:40:32Z</time>
      </trkpt>
      <trkpt lat="44.46847" lon="6.07866">
        <ele>620.668457</ele>
        <time>2011-03-24T11:40:36Z</time>
      </trkpt>
      <trkpt lat="44.46819" lon="6.07838">
        <ele>616.822998</ele>
        <time>2011-03-24T11:40:43Z</time>
      </trkpt>
      <trkpt lat="44.46819" lon="6.0783">
        <ele>616.822998</ele>
        <time>2011-03-24T11:40:44Z</time>
      </trkpt>
      <trkpt lat="44.46824" lon="6.07822">
        <ele>616.342285</ele>
        <time>2011-03-24T11:40:46Z</time>
      </trkpt>
      <trkpt lat="44.468" lon="6.07765">
        <ele>611.055176</ele>
        <time>2011-03-24T11:40:52Z</time>
      </trkpt>
      <trkpt lat="44.46793" lon="6.07761">
        <ele>611.055176</ele>
        <time>2011-03-24T11:40:53Z</time>
      </trkpt>
      <trkpt lat="44.46786" lon="6.07757">
        <ele>608.171387</ele>
        <time>2011-03-24T11:40:54Z</time>
      </trkpt>
      <trkpt lat="44.46764" lon="6.07745">
        <ele>606.729248</ele>
        <time>2011-03-24T11:40:57Z</time>
      </trkpt>
      <trkpt lat="44.46741" lon="6.07733">
        <ele>604.326172</ele>
        <time>2011-03-24T11:41:00Z</time>
      </trkpt>
      <trkpt lat="44.46691" lon="6.07693">
        <ele>606.248535</ele>
        <time>2011-03-24T11:41:08Z</time>
      </trkpt>
      <trkpt lat="44.46677" lon="6.07679">
        <ele>607.690674</ele>
        <time>2011-03-24T11:41:11Z</time>
      </trkpt>
      <trkpt lat="44.46639" lon="6.07658">
        <ele>605.768066</ele>
        <time>2011-03-24T11:41:18Z</time>
      </trkpt>
      <trkpt lat="44.4662" lon="6.07644">
        <ele>603.364502</ele>
        <time>2011-03-24T11:41:21Z</time>
      </trkpt>
      <trkpt lat="44.46599" lon="6.07624">
        <ele>604.806641</ele>
        <time>2011-03-24T11:41:25Z</time>
      </trkpt>
      <trkpt lat="44.46585" lon="6.0761">
        <ele>606.729248</ele>
        <time>2011-03-24T11:41:28Z</time>
      </trkpt>
      <trkpt lat="44.46534" lon="6.07534">
        <ele>606.248535</ele>
        <time>2011-03-24T11:41:41Z</time>
      </trkpt>
      <trkpt lat="44.46489" lon="6.07432">
        <ele>605.768066</ele>
        <time>2011-03-24T11:41:56Z</time>
      </trkpt>
      <trkpt lat="44.46458" lon="6.07341">
        <ele>605.768066</ele>
        <time>2011-03-24T11:42:09Z</time>
      </trkpt>
      <trkpt lat="44.46431" lon="6.0721">
        <ele>608.171387</ele>
        <time>2011-03-24T11:42:29Z</time>
      </trkpt>
      <trkpt lat="44.46427" lon="6.07188">
        <ele>606.248535</ele>
        <time>2011-03-24T11:42:32Z</time>
      </trkpt>
      <trkpt lat="44.46423" lon="6.07173">
        <ele>608.171387</ele>
        <time>2011-03-24T11:42:35Z</time>
      </trkpt>
      <trkpt lat="44.46413" lon="6.07133">
        <ele>612.016602</ele>
        <time>2011-03-24T11:42:45Z</time>
      </trkpt>
      <trkpt lat="44.46386" lon="6.07095">
        <ele>613.458496</ele>
        <time>2011-03-24T11:43:00Z</time>
      </trkpt>
      <trkpt lat="44.46357" lon="6.07065">
        <ele>614.900391</ele>
        <time>2011-03-24T11:43:15Z</time>
      </trkpt>
      <trkpt lat="44.46351" lon="6.07059">
        <ele>616.342285</ele>
        <time>2011-03-24T11:43:18Z</time>
      </trkpt>
      <trkpt lat="44.46307" lon="6.07022">
        <ele>620.187744</ele>
        <time>2011-03-24T11:43:38Z</time>
      </trkpt>
      <trkpt lat="44.46305" lon="6.0702">
        <ele>620.187744</ele>
        <time>2011-03-24T11:43:39Z</time>
      </trkpt>
      <trkpt lat="44.46284" lon="6.06994">
        <ele>623.071777</ele>
        <time>2011-03-24T11:43:50Z</time>
      </trkpt>
      <trkpt lat="44.46275" lon="6.06934">
        <ele>624.994385</ele>
        <time>2011-03-24T11:44:07Z</time>
      </trkpt>
      <trkpt lat="44.46276" lon="6.0688">
        <ele>627.397705</ele>
        <time>2011-03-24T11:44:22Z</time>
      </trkpt>
      <trkpt lat="44.46245" lon="6.06823">
        <ele>628.8396</ele>
        <time>2011-03-24T11:44:41Z</time>
      </trkpt>
      <trkpt lat="44.46197" lon="6.06756">
        <ele>627.397705</ele>
        <time>2011-03-24T11:45:00Z</time>
      </trkpt>
      <trkpt lat="44.46168" lon="6.06659">
        <ele>628.358887</ele>
        <time>2011-03-24T11:45:19Z</time>
      </trkpt>
      <trkpt lat="44.46157" lon="6.06627">
        <ele>628.8396</ele>
        <time>2011-03-24T11:45:25Z</time>
      </trkpt>
      <trkpt lat="44.46153" lon="6.06617">
        <ele>629.320068</ele>
        <time>2011-03-24T11:45:27Z</time>
      </trkpt>
      <trkpt lat="44.46137" lon="6.06595">
        <ele>628.8396</ele>
        <time>2011-03-24T11:45:32Z</time>
      </trkpt>
      <trkpt lat="44.46076" lon="6.06555">
        <ele>629.320068</ele>
        <time>2011-03-24T11:45:49Z</time>
      </trkpt>
      <trkpt lat="44.46069" lon="6.06547">
        <ele>629.320068</ele>
        <time>2011-03-24T11:45:51Z</time>
      </trkpt>
      <trkpt lat="44.46053" lon="6.06531">
        <ele>627.397705</ele>
        <time>2011-03-24T11:45:55Z</time>
      </trkpt>
      <trkpt lat="44.4605" lon="6.06494">
        <ele>625.955566</ele>
        <time>2011-03-24T11:46:02Z</time>
      </trkpt>
      <trkpt lat="44.46063" lon="6.06476">
        <ele>625.474854</ele>
        <time>2011-03-24T11:46:05Z</time>
      </trkpt>
      <trkpt lat="44.46082" lon="6.06452">
        <ele>621.14917</ele>
        <time>2011-03-24T11:46:09Z</time>
      </trkpt>
      <trkpt lat="44.46088" lon="6.06446">
        <ele>621.14917</ele>
        <time>2011-03-24T11:46:10Z</time>
      </trkpt>
      <trkpt lat="44.461" lon="6.06433">
        <ele>619.226318</ele>
        <time>2011-03-24T11:46:12Z</time>
      </trkpt>
      <trkpt lat="44.4613" lon="6.06398">
        <ele>617.303711</ele>
        <time>2011-03-24T11:46:18Z</time>
      </trkpt>
      <trkpt lat="44.46182" lon="6.06336">
        <ele>612.977783</ele>
        <time>2011-03-24T11:46:29Z</time>
      </trkpt>
      <trkpt lat="44.46211" lon="6.063">
        <ele>613.458496</ele>
        <time>2011-03-24T11:46:36Z</time>
      </trkpt>
      <trkpt lat="44.46216" lon="6.06274">
        <ele>611.535889</ele>
        <time>2011-03-24T11:46:40Z</time>
      </trkpt>
      <trkpt lat="44.46205" lon="6.06247">
        <ele>609.132568</ele>
        <time>2011-03-24T11:46:44Z</time>
      </trkpt>
      <trkpt lat="44.46198" lon="6.06232">
        <ele>607.209961</ele>
        <time>2011-03-24T11:46:46Z</time>
      </trkpt>
      <trkpt lat="44.46186" lon="6.06209">
        <ele>607.209961</ele>
        <time>2011-03-24T11:46:49Z</time>
      </trkpt>
      <trkpt lat="44.46178" lon="6.06165">
        <ele>603.845215</ele>
        <time>2011-03-24T11:46:53Z</time>
      </trkpt>
      <trkpt lat="44.46178" lon="6.06128">
        <ele>602.403076</ele>
        <time>2011-03-24T11:46:56Z</time>
      </trkpt>
      <trkpt lat="44.46178" lon="6.06101">
        <ele>600.480713</ele>
        <time>2011-03-24T11:46:58Z</time>
      </trkpt>
      <trkpt lat="44.46178" lon="6.05995">
        <ele>601.922607</ele>
        <time>2011-03-24T11:47:07Z</time>
      </trkpt>
      <trkpt lat="44.46198" lon="6.05891">
        <ele>598.077393</ele>
        <time>2011-03-24T11:47:18Z</time>
      </trkpt>
      <trkpt lat="44.46217" lon="6.05795">
        <ele>598.077393</ele>
        <time>2011-03-24T11:47:28Z</time>
      </trkpt>
      <trkpt lat="44.46233" lon="6.05769">
        <ele>599.038574</ele>
        <time>2011-03-24T11:47:32Z</time>
      </trkpt>
      <trkpt lat="44.46296" lon="6.05728">
        <ele>601.922607</ele>
        <time>2011-03-24T11:47:49Z</time>
      </trkpt>
      <trkpt lat="44.46321" lon="6.05729">
        <ele>603.364502</ele>
        <time>2011-03-24T11:47:57Z</time>
      </trkpt>
      <trkpt lat="44.46316" lon="6.0571">
        <ele>604.326172</ele>
        <time>2011-03-24T11:48:05Z</time>
      </trkpt>
      <trkpt lat="44.46311" lon="6.05707">
        <ele>604.806641</ele>
        <time>2011-03-24T11:48:07Z</time>
      </trkpt>
      <trkpt lat="44.46304" lon="6.05702">
        <ele>604.806641</ele>
        <time>2011-03-24T11:48:10Z</time>
      </trkpt>
      <trkpt lat="44.46271" lon="6.05659">
        <ele>607.690674</ele>
        <time>2011-03-24T11:48:26Z</time>
      </trkpt>
      <trkpt lat="44.46264" lon="6.05643">
        <ele>608.171387</ele>
        <time>2011-03-24T11:48:31Z</time>
      </trkpt>
      <trkpt lat="44.46283" lon="6.05652">
        <ele>608.171387</ele>
        <time>2011-03-24T11:48:35Z</time>
      </trkpt>
      <trkpt lat="44.46254" lon="6.05623">
        <ele>610.09375</ele>
        <time>2011-03-24T11:48:43Z</time>
      </trkpt>
      <trkpt lat="44.4627" lon="6.05586">
        <ele>609.613281</ele>
        <time>2011-03-24T11:48:48Z</time>
      </trkpt>
      <trkpt lat="44.46204" lon="6.05524">
        <ele>610.574463</ele>
        <time>2011-03-24T11:49:12Z</time>
      </trkpt>
      <trkpt lat="44.46191" lon="6.05518">
        <ele>610.574463</ele>
        <time>2011-03-24T11:49:16Z</time>
      </trkpt>
      <trkpt lat="44.46191" lon="6.05465">
        <ele>613.458496</ele>
        <time>2011-03-24T11:49:26Z</time>
      </trkpt>
      <trkpt lat="44.46231" lon="6.0542">
        <ele>616.342285</ele>
        <time>2011-03-24T11:49:44Z</time>
      </trkpt>
      <trkpt lat="44.46272" lon="6.05377">
        <ele>619.707031</ele>
        <time>2011-03-24T11:50:03Z</time>
      </trkpt>
      <trkpt lat="44.46319" lon="6.05326">
        <ele>622.110352</ele>
        <time>2011-03-24T11:50:24Z</time>
      </trkpt>
      <trkpt lat="44.46362" lon="6.05282">
        <ele>623.55249</ele>
        <time>2011-03-24T11:50:42Z</time>
      </trkpt>
      <trkpt lat="44.46395" lon="6.05218">
        <ele>624.994385</ele>
        <time>2011-03-24T11:51:01Z</time>
      </trkpt>
      <trkpt lat="44.46396" lon="6.052">
        <ele>624.994385</ele>
        <time>2011-03-24T11:51:04Z</time>
      </trkpt>
      <trkpt lat="44.46405" lon="6.05064">
        <ele>620.668457</ele>
        <time>2011-03-24T11:51:23Z</time>
      </trkpt>
      <trkpt lat="44.46409" lon="6.04932">
        <ele>621.14917</ele>
        <time>2011-03-24T11:51:42Z</time>
      </trkpt>
      <trkpt lat="44.46409" lon="6.04889">
        <ele>623.071777</ele>
        <time>2011-03-24T11:51:48Z</time>
      </trkpt>
      <trkpt lat="44.46405" lon="6.04755">
        <ele>623.071777</ele>
        <time>2011-03-24T11:52:08Z</time>
      </trkpt>
      <trkpt lat="44.4638" lon="6.04616">
        <ele>623.071777</ele>
        <time>2011-03-24T11:52:31Z</time>
      </trkpt>
      <trkpt lat="44.46371" lon="6.04576">
        <ele>624.994385</ele>
        <time>2011-03-24T11:52:39Z</time>
      </trkpt>
      <trkpt lat="44.46349" lon="6.0448">
        <ele>624.994385</ele>
        <time>2011-03-24T11:52:57Z</time>
      </trkpt>
      <trkpt lat="44.46324" lon="6.04406">
        <ele>621.629639</ele>
        <time>2011-03-24T11:53:07Z</time>
      </trkpt>
      <trkpt lat="44.46318" lon="6.0439">
        <ele>618.745605</ele>
        <time>2011-03-24T11:53:09Z</time>
      </trkpt>
      <trkpt lat="44.46293" lon="6.04346">
        <ele>618.264893</ele>
        <time>2011-03-24T11:53:15Z</time>
      </trkpt>
      <trkpt lat="44.46276" lon="6.0431">
        <ele>615.861816</ele>
        <time>2011-03-24T11:53:20Z</time>
      </trkpt>
      <trkpt lat="44.46235" lon="6.04215">
        <ele>617.78418</ele>
        <time>2011-03-24T11:53:35Z</time>
      </trkpt>
      <trkpt lat="44.46204" lon="6.0407">
        <ele>616.342285</ele>
        <time>2011-03-24T11:53:54Z</time>
      </trkpt>
      <trkpt lat="44.46193" lon="6.04021">
        <ele>614.900391</ele>
        <time>2011-03-24T11:54:00Z</time>
      </trkpt>
      <trkpt lat="44.46176" lon="6.03968">
        <ele>615.381104</ele>
        <time>2011-03-24T11:54:07Z</time>
      </trkpt>
      <trkpt lat="44.46172" lon="6.03952">
        <ele>613.938965</ele>
        <time>2011-03-24T11:54:09Z</time>
      </trkpt>
      <trkpt lat="44.46156" lon="6.039">
        <ele>613.938965</ele>
        <time>2011-03-24T11:54:16Z</time>
      </trkpt>
      <trkpt lat="44.46116" lon="6.03749">
        <ele>613.458496</ele>
        <time>2011-03-24T11:54:37Z</time>
      </trkpt>
      <trkpt lat="44.46085" lon="6.03605">
        <ele>614.419678</ele>
        <time>2011-03-24T11:54:57Z</time>
      </trkpt>
      <trkpt lat="44.46081" lon="6.0354">
        <ele>615.381104</ele>
        <time>2011-03-24T11:55:07Z</time>
      </trkpt>
      <trkpt lat="44.46089" lon="6.0344">
        <ele>618.264893</ele>
        <time>2011-03-24T11:55:25Z</time>
      </trkpt>
      <trkpt lat="44.46124" lon="6.03407">
        <ele>618.264893</ele>
        <time>2011-03-24T11:55:37Z</time>
      </trkpt>
      <trkpt lat="44.46182" lon="6.03409">
        <ele>620.668457</ele>
        <time>2011-03-24T11:55:55Z</time>
      </trkpt>
      <trkpt lat="44.46289" lon="6.03423">
        <ele>623.071777</ele>
        <time>2011-03-24T11:56:25Z</time>
      </trkpt>
      <trkpt lat="44.46383" lon="6.03434">
        <ele>624.513672</ele>
        <time>2011-03-24T11:56:45Z</time>
      </trkpt>
      <trkpt lat="44.46492" lon="6.03443">
        <ele>622.110352</ele>
        <time>2011-03-24T11:57:03Z</time>
      </trkpt>
      <trkpt lat="44.46569" lon="6.03433">
        <ele>624.994385</ele>
        <time>2011-03-24T11:57:18Z</time>
      </trkpt>
      <trkpt lat="44.46596" lon="6.03429">
        <ele>625.474854</ele>
        <time>2011-03-24T11:57:24Z</time>
      </trkpt>
      <trkpt lat="44.46707" lon="6.03411">
        <ele>625.955566</ele>
        <time>2011-03-24T11:57:46Z</time>
      </trkpt>
      <trkpt lat="44.46849" lon="6.03389">
        <ele>623.55249</ele>
        <time>2011-03-24T11:58:10Z</time>
      </trkpt>
      <trkpt lat="44.46939" lon="6.03374">
        <ele>620.668457</ele>
        <time>2011-03-24T11:58:22Z</time>
      </trkpt>
      <trkpt lat="44.47061" lon="6.03365">
        <ele>622.591064</ele>
        <time>2011-03-24T11:58:40Z</time>
      </trkpt>
      <trkpt lat="44.47149" lon="6.03379">
        <ele>624.513672</ele>
        <time>2011-03-24T11:58:58Z</time>
      </trkpt>
      <trkpt lat="44.47158" lon="6.0338">
        <ele>624.994385</ele>
        <time>2011-03-24T11:59:00Z</time>
      </trkpt>
      <trkpt lat="44.47228" lon="6.03386">
        <ele>626.436279</ele>
        <time>2011-03-24T11:59:15Z</time>
      </trkpt>
      <trkpt lat="44.47296" lon="6.03399">
        <ele>628.358887</ele>
        <time>2011-03-24T11:59:32Z</time>
      </trkpt>
      <trkpt lat="44.47302" lon="6.03382">
        <ele>628.358887</ele>
        <time>2011-03-24T11:59:36Z</time>
      </trkpt>
      <trkpt lat="44.47319" lon="6.03347">
        <ele>627.878174</ele>
        <time>2011-03-24T11:59:41Z</time>
      </trkpt>
      <trkpt lat="44.47351" lon="6.03334">
        <ele>628.358887</ele>
        <time>2011-03-24T11:59:48Z</time>
      </trkpt>
      <trkpt lat="44.47436" lon="6.03296">
        <ele>628.358887</ele>
        <time>2011-03-24T12:00:05Z</time>
      </trkpt>
      <trkpt lat="44.47509" lon="6.03245">
        <ele>627.878174</ele>
        <time>2011-03-24T12:00:20Z</time>
      </trkpt>
      <trkpt lat="44.47528" lon="6.03236">
        <ele>629.320068</ele>
        <time>2011-03-24T12:00:24Z</time>
      </trkpt>
      <trkpt lat="44.47611" lon="6.03242">
        <ele>630.281494</ele>
        <time>2011-03-24T12:00:40Z</time>
      </trkpt>
      <trkpt lat="44.47629" lon="6.03244">
        <ele>631.24292</ele>
        <time>2011-03-24T12:00:44Z</time>
      </trkpt>
      <trkpt lat="44.47686" lon="6.03252">
        <ele>633.165283</ele>
        <time>2011-03-24T12:01:01Z</time>
      </trkpt>
      <trkpt lat="44.47743" lon="6.03263">
        <ele>635.568604</ele>
        <time>2011-03-24T12:01:19Z</time>
      </trkpt>
      <trkpt lat="44.47782" lon="6.03261">
        <ele>638.452881</ele>
        <time>2011-03-24T12:01:32Z</time>
      </trkpt>
      <trkpt lat="44.47827" lon="6.03261">
        <ele>642.298096</ele>
        <time>2011-03-24T12:01:49Z</time>
      </trkpt>
      <trkpt lat="44.47867" lon="6.03262">
        <ele>642.298096</ele>
        <time>2011-03-24T12:02:02Z</time>
      </trkpt>
      <trkpt lat="44.47898" lon="6.03263">
        <ele>639.894775</ele>
        <time>2011-03-24T12:02:08Z</time>
      </trkpt>
      <trkpt lat="44.47937" lon="6.03263">
        <ele>637.972168</ele>
        <time>2011-03-24T12:02:14Z</time>
      </trkpt>
      <trkpt lat="44.47964" lon="6.03236">
        <ele>636.049561</ele>
        <time>2011-03-24T12:02:19Z</time>
      </trkpt>
      <trkpt lat="44.47985" lon="6.03195">
        <ele>635.088135</ele>
        <time>2011-03-24T12:02:24Z</time>
      </trkpt>
      <trkpt lat="44.48005" lon="6.03173">
        <ele>636.530273</ele>
        <time>2011-03-24T12:02:28Z</time>
      </trkpt>
      <trkpt lat="44.48042" lon="6.03164">
        <ele>638.933594</ele>
        <time>2011-03-24T12:02:36Z</time>
      </trkpt>
      <trkpt lat="44.48087" lon="6.03145">
        <ele>640.375488</ele>
        <time>2011-03-24T12:02:50Z</time>
      </trkpt>
      <trkpt lat="44.48139" lon="6.03122">
        <ele>641.817383</ele>
        <time>2011-03-24T12:03:05Z</time>
      </trkpt>
      <trkpt lat="44.4818" lon="6.03104">
        <ele>643.73999</ele>
        <time>2011-03-24T12:03:19Z</time>
      </trkpt>
      <trkpt lat="44.4823" lon="6.03091">
        <ele>644.701172</ele>
        <time>2011-03-24T12:03:36Z</time>
      </trkpt>
      <trkpt lat="44.48244" lon="6.03065">
        <ele>643.259277</ele>
        <time>2011-03-24T12:03:41Z</time>
      </trkpt>
      <trkpt lat="44.48279" lon="6.02947">
        <ele>639.894775</ele>
        <time>2011-03-24T12:03:56Z</time>
      </trkpt>
      <trkpt lat="44.48329" lon="6.02831">
        <ele>640.855957</ele>
        <time>2011-03-24T12:04:13Z</time>
      </trkpt>
      <trkpt lat="44.48351" lon="6.02811">
        <ele>644.220703</ele>
        <time>2011-03-24T12:04:23Z</time>
      </trkpt>
      <trkpt lat="44.48356" lon="6.02808">
        <ele>644.220703</ele>
        <time>2011-03-24T12:04:25Z</time>
      </trkpt>
      <trkpt lat="44.48403" lon="6.02792">
        <ele>648.065918</ele>
        <time>2011-03-24T12:04:44Z</time>
      </trkpt>
      <trkpt lat="44.48431" lon="6.02763">
        <ele>650.949707</ele>
        <time>2011-03-24T12:04:59Z</time>
      </trkpt>
      <trkpt lat="44.48457" lon="6.02711">
        <ele>653.833984</ele>
        <time>2011-03-24T12:05:19Z</time>
      </trkpt>
      <trkpt lat="44.48467" lon="6.02673">
        <ele>657.198486</ele>
        <time>2011-03-24T12:05:32Z</time>
      </trkpt>
      <trkpt lat="44.48471" lon="6.02661">
        <ele>658.159912</ele>
        <time>2011-03-24T12:05:37Z</time>
      </trkpt>
      <trkpt lat="44.48474" lon="6.02654">
        <ele>658.640381</ele>
        <time>2011-03-24T12:05:40Z</time>
      </trkpt>
      <trkpt lat="44.48479" lon="6.02643">
        <ele>659.121094</ele>
        <time>2011-03-24T12:05:44Z</time>
      </trkpt>
      <trkpt lat="44.48502" lon="6.02605">
        <ele>662.485596</ele>
        <time>2011-03-24T12:06:01Z</time>
      </trkpt>
      <trkpt lat="44.48523" lon="6.0258">
        <ele>663.447021</ele>
        <time>2011-03-24T12:06:15Z</time>
      </trkpt>
      <trkpt lat="44.48551" lon="6.02547">
        <ele>665.369629</ele>
        <time>2011-03-24T12:06:33Z</time>
      </trkpt>
      <trkpt lat="44.48585" lon="6.02504">
        <ele>668.734375</ele>
        <time>2011-03-24T12:06:55Z</time>
      </trkpt>
      <trkpt lat="44.48612" lon="6.02458">
        <ele>672.098877</ele>
        <time>2011-03-24T12:07:18Z</time>
      </trkpt>
      <trkpt lat="44.48629" lon="6.02422">
        <ele>674.98291</ele>
        <time>2011-03-24T12:07:35Z</time>
      </trkpt>
      <trkpt lat="44.48654" lon="6.02384">
        <ele>677.866699</ele>
        <time>2011-03-24T12:07:55Z</time>
      </trkpt>
      <trkpt lat="44.48688" lon="6.02372">
        <ele>680.27002</ele>
        <time>2011-03-24T12:08:12Z</time>
      </trkpt>
      <trkpt lat="44.48697" lon="6.02369">
        <ele>680.27002</ele>
        <time>2011-03-24T12:08:16Z</time>
      </trkpt>
      <trkpt lat="44.48733" lon="6.0236">
        <ele>682.67334</ele>
        <time>2011-03-24T12:08:33Z</time>
      </trkpt>
      <trkpt lat="44.48779" lon="6.02351">
        <ele>684.115479</ele>
        <time>2011-03-24T12:08:54Z</time>
      </trkpt>
      <trkpt lat="44.48821" lon="6.02352">
        <ele>685.557373</ele>
        <time>2011-03-24T12:09:13Z</time>
      </trkpt>
      <trkpt lat="44.48858" lon="6.02359">
        <ele>687.960693</ele>
        <time>2011-03-24T12:09:32Z</time>
      </trkpt>
      <trkpt lat="44.48884" lon="6.02367">
        <ele>689.402588</ele>
        <time>2011-03-24T12:09:45Z</time>
      </trkpt>
      <trkpt lat="44.48918" lon="6.02374">
        <ele>692.286621</ele>
        <time>2011-03-24T12:10:03Z</time>
      </trkpt>
      <trkpt lat="44.48951" lon="6.02377">
        <ele>695.651123</ele>
        <time>2011-03-24T12:10:21Z</time>
      </trkpt>
      <trkpt lat="44.48987" lon="6.0237">
        <ele>697.57373</ele>
        <time>2011-03-24T12:10:40Z</time>
      </trkpt>
      <trkpt lat="44.49019" lon="6.02352">
        <ele>699.496338</ele>
        <time>2011-03-24T12:10:57Z</time>
      </trkpt>
      <trkpt lat="44.49052" lon="6.02336">
        <ele>702.861084</ele>
        <time>2011-03-24T12:11:16Z</time>
      </trkpt>
      <trkpt lat="44.49077" lon="6.02321">
        <ele>705.745117</ele>
        <time>2011-03-24T12:11:31Z</time>
      </trkpt>
      <trkpt lat="44.49088" lon="6.02315">
        <ele>706.706299</ele>
        <time>2011-03-24T12:11:38Z</time>
      </trkpt>
      <trkpt lat="44.49125" lon="6.02297">
        <ele>710.551514</ele>
        <time>2011-03-24T12:12:00Z</time>
      </trkpt>
      <trkpt lat="44.49146" lon="6.0229">
        <ele>712.474121</ele>
        <time>2011-03-24T12:12:12Z</time>
      </trkpt>
      <trkpt lat="44.49191" lon="6.02296">
        <ele>714.396729</ele>
        <time>2011-03-24T12:12:32Z</time>
      </trkpt>
      <trkpt lat="44.49244" lon="6.02291">
        <ele>714.396729</ele>
        <time>2011-03-24T12:12:50Z</time>
      </trkpt>
      <trkpt lat="44.49283" lon="6.02263">
        <ele>715.838867</ele>
        <time>2011-03-24T12:13:05Z</time>
      </trkpt>
      <trkpt lat="44.49344" lon="6.02259">
        <ele>716.31958</ele>
        <time>2011-03-24T12:13:22Z</time>
      </trkpt>
      <trkpt lat="44.49423" lon="6.02265">
        <ele>717.761475</ele>
        <time>2011-03-24T12:13:45Z</time>
      </trkpt>
      <trkpt lat="44.49453" lon="6.02272">
        <ele>717.281006</ele>
        <time>2011-03-24T12:13:53Z</time>
      </trkpt>
      <trkpt lat="44.4948" lon="6.02296">
        <ele>715.838867</ele>
        <time>2011-03-24T12:14:00Z</time>
      </trkpt>
      <trkpt lat="44.49504" lon="6.02317">
        <ele>713.916016</ele>
        <time>2011-03-24T12:14:05Z</time>
      </trkpt>
      <trkpt lat="44.49547" lon="6.02345">
        <ele>710.551514</ele>
        <time>2011-03-24T12:14:12Z</time>
      </trkpt>
      <trkpt lat="44.49559" lon="6.02353">
        <ele>710.070801</ele>
        <time>2011-03-24T12:14:14Z</time>
      </trkpt>
      <trkpt lat="44.49591" lon="6.02377">
        <ele>707.667725</ele>
        <time>2011-03-24T12:14:20Z</time>
      </trkpt>
      <trkpt lat="44.4964" lon="6.02403">
        <ele>704.303223</ele>
        <time>2011-03-24T12:14:27Z</time>
      </trkpt>
      <trkpt lat="44.49648" lon="6.02407">
        <ele>704.303223</ele>
        <time>2011-03-24T12:14:28Z</time>
      </trkpt>
      <trkpt lat="44.49732" lon="6.02416">
        <ele>702.380371</ele>
        <time>2011-03-24T12:14:39Z</time>
      </trkpt>
      <trkpt lat="44.4976" lon="6.02417">
        <ele>701.899902</ele>
        <time>2011-03-24T12:14:43Z</time>
      </trkpt>
      <trkpt lat="44.49783" lon="6.02379">
        <ele>701.419189</ele>
        <time>2011-03-24T12:14:50Z</time>
      </trkpt>
      <trkpt lat="44.49793" lon="6.02331">
        <ele>699.496338</ele>
        <time>2011-03-24T12:14:56Z</time>
      </trkpt>
      <trkpt lat="44.49813" lon="6.02293">
        <ele>699.496338</ele>
        <time>2011-03-24T12:15:02Z</time>
      </trkpt>
      <trkpt lat="44.499" lon="6.02253">
        <ele>699.496338</ele>
        <time>2011-03-24T12:15:19Z</time>
      </trkpt>
      <trkpt lat="44.49916" lon="6.02248">
        <ele>699.496338</ele>
        <time>2011-03-24T12:15:23Z</time>
      </trkpt>
      <trkpt lat="44.49949" lon="6.0228">
        <ele>699.977051</ele>
        <time>2011-03-24T12:15:31Z</time>
      </trkpt>
      <trkpt lat="44.4995" lon="6.02285">
        <ele>699.977051</ele>
        <time>2011-03-24T12:15:32Z</time>
      </trkpt>
      <trkpt lat="44.4995" lon="6.02287">
        <ele>701.899902</ele>
        <time>2011-03-24T12:15:37Z</time>
      </trkpt>
      <trkpt lat="44.49946" lon="6.02355">
        <ele>705.264404</ele>
        <time>2011-03-24T12:15:54Z</time>
      </trkpt>
      <trkpt lat="44.4996" lon="6.02381">
        <ele>707.667725</ele>
        <time>2011-03-24T12:16:05Z</time>
      </trkpt>
      <trkpt lat="44.5" lon="6.02388">
        <ele>711.512939</ele>
        <time>2011-03-24T12:16:25Z</time>
      </trkpt>
      <trkpt lat="44.50037" lon="6.02384">
        <ele>714.396729</ele>
        <time>2011-03-24T12:16:43Z</time>
      </trkpt>
      <trkpt lat="44.50072" lon="6.02378">
        <ele>717.761475</ele>
        <time>2011-03-24T12:17:02Z</time>
      </trkpt>
      <trkpt lat="44.50103" lon="6.02372">
        <ele>720.645508</ele>
        <time>2011-03-24T12:17:19Z</time>
      </trkpt>
      <trkpt lat="44.50141" lon="6.02357">
        <ele>724.01001</ele>
        <time>2011-03-24T12:17:40Z</time>
      </trkpt>
      <trkpt lat="44.50177" lon="6.02344">
        <ele>727.374756</ele>
        <time>2011-03-24T12:17:59Z</time>
      </trkpt>
      <trkpt lat="44.50209" lon="6.02341">
        <ele>730.258545</ele>
        <time>2011-03-24T12:18:16Z</time>
      </trkpt>
      <trkpt lat="44.50249" lon="6.02358">
        <ele>732.181396</ele>
        <time>2011-03-24T12:18:36Z</time>
      </trkpt>
      <trkpt lat="44.50292" lon="6.02395">
        <ele>734.584717</ele>
        <time>2011-03-24T12:18:55Z</time>
      </trkpt>
      <trkpt lat="44.50344" lon="6.02438">
        <ele>736.507324</ele>
        <time>2011-03-24T12:19:18Z</time>
      </trkpt>
      <trkpt lat="44.5039" lon="6.02483">
        <ele>738.910645</ele>
        <time>2011-03-24T12:19:41Z</time>
      </trkpt>
      <trkpt lat="44.50422" lon="6.02519">
        <ele>739.871826</ele>
        <time>2011-03-24T12:19:57Z</time>
      </trkpt>
      <trkpt lat="44.50425" lon="6.0252">
        <ele>739.871826</ele>
        <time>2011-03-24T12:20:49Z</time>
      </trkpt>
      <trkpt lat="44.50467" lon="6.0254">
        <ele>740.833008</ele>
        <time>2011-03-24T12:21:05Z</time>
      </trkpt>
      <trkpt lat="44.50517" lon="6.02554">
        <ele>741.313721</ele>
        <time>2011-03-24T12:21:19Z</time>
      </trkpt>
      <trkpt lat="44.50581" lon="6.02593">
        <ele>741.794434</ele>
        <time>2011-03-24T12:21:38Z</time>
      </trkpt>
      <trkpt lat="44.50614" lon="6.02608">
        <ele>741.313721</ele>
        <time>2011-03-24T12:21:46Z</time>
      </trkpt>
      <trkpt lat="44.50679" lon="6.02682">
        <ele>738.910645</ele>
        <time>2011-03-24T12:22:00Z</time>
      </trkpt>
      <trkpt lat="44.50727" lon="6.02751">
        <ele>742.275146</ele>
        <time>2011-03-24T12:22:15Z</time>
      </trkpt>
      <trkpt lat="44.50745" lon="6.0278">
        <ele>742.275146</ele>
        <time>2011-03-24T12:22:22Z</time>
      </trkpt>
      <trkpt lat="44.50767" lon="6.02817">
        <ele>742.275146</ele>
        <time>2011-03-24T12:22:30Z</time>
      </trkpt>
      <trkpt lat="44.5081" lon="6.02864">
        <ele>738.429932</ele>
        <time>2011-03-24T12:22:39Z</time>
      </trkpt>
      <trkpt lat="44.50823" lon="6.02876">
        <ele>735.06543</ele>
        <time>2011-03-24T12:22:41Z</time>
      </trkpt>
      <trkpt lat="44.50829" lon="6.02884">
        <ele>735.06543</ele>
        <time>2011-03-24T12:22:42Z</time>
      </trkpt>
      <trkpt lat="44.5084" lon="6.02903">
        <ele>733.623291</ele>
        <time>2011-03-24T12:22:44Z</time>
      </trkpt>
      <trkpt lat="44.50854" lon="6.02921">
        <ele>731.700439</ele>
        <time>2011-03-24T12:22:46Z</time>
      </trkpt>
      <trkpt lat="44.50869" lon="6.02956">
        <ele>729.297119</ele>
        <time>2011-03-24T12:22:49Z</time>
      </trkpt>
      <trkpt lat="44.50891" lon="6.03003">
        <ele>726.894043</ele>
        <time>2011-03-24T12:22:53Z</time>
      </trkpt>
      <trkpt lat="44.509" lon="6.03026">
        <ele>724.971436</ele>
        <time>2011-03-24T12:22:55Z</time>
      </trkpt>
      <trkpt lat="44.5096" lon="6.03113">
        <ele>727.855225</ele>
        <time>2011-03-24T12:23:06Z</time>
      </trkpt>
      <trkpt lat="44.51015" lon="6.03163">
        <ele>731.219971</ele>
        <time>2011-03-24T12:23:18Z</time>
      </trkpt>
      <trkpt lat="44.51056" lon="6.03211">
        <ele>734.104004</ele>
        <time>2011-03-24T12:23:31Z</time>
      </trkpt>
      <trkpt lat="44.51115" lon="6.03267">
        <ele>737.468506</ele>
        <time>2011-03-24T12:23:52Z</time>
      </trkpt>
      <trkpt lat="44.51183" lon="6.03304">
        <ele>735.545898</ele>
        <time>2011-03-24T12:24:09Z</time>
      </trkpt>
      <trkpt lat="44.51232" lon="6.03329">
        <ele>732.662109</ele>
        <time>2011-03-24T12:24:17Z</time>
      </trkpt>
      <trkpt lat="44.51263" lon="6.03342">
        <ele>729.777832</ele>
        <time>2011-03-24T12:24:21Z</time>
      </trkpt>
      <trkpt lat="44.5128" lon="6.0335">
        <ele>726.41333</ele>
        <time>2011-03-24T12:24:23Z</time>
      </trkpt>
      <trkpt lat="44.51289" lon="6.03353">
        <ele>726.41333</ele>
        <time>2011-03-24T12:24:24Z</time>
      </trkpt>
      <trkpt lat="44.51307" lon="6.03364">
        <ele>724.490723</ele>
        <time>2011-03-24T12:24:26Z</time>
      </trkpt>
      <trkpt lat="44.51345" lon="6.0339">
        <ele>718.7229</ele>
        <time>2011-03-24T12:24:30Z</time>
      </trkpt>
      <trkpt lat="44.51354" lon="6.03398">
        <ele>718.7229</ele>
        <time>2011-03-24T12:24:31Z</time>
      </trkpt>
      <trkpt lat="44.51431" lon="6.03465">
        <ele>718.7229</ele>
        <time>2011-03-24T12:24:40Z</time>
      </trkpt>
      <trkpt lat="44.51517" lon="6.03504">
        <ele>715.358154</ele>
        <time>2011-03-24T12:24:50Z</time>
      </trkpt>
      <trkpt lat="44.51644" lon="6.03535">
        <ele>717.281006</ele>
        <time>2011-03-24T12:25:06Z</time>
      </trkpt>
      <trkpt lat="44.51658" lon="6.03537">
        <ele>717.761475</ele>
        <time>2011-03-24T12:25:08Z</time>
      </trkpt>
      <trkpt lat="44.51707" lon="6.03546">
        <ele>718.242188</ele>
        <time>2011-03-24T12:25:16Z</time>
      </trkpt>
      <trkpt lat="44.51788" lon="6.03534">
        <ele>721.126221</ele>
        <time>2011-03-24T12:25:32Z</time>
      </trkpt>
      <trkpt lat="44.51811" lon="6.03539">
        <ele>721.126221</ele>
        <time>2011-03-24T12:25:37Z</time>
      </trkpt>
      <trkpt lat="44.51902" lon="6.03591">
        <ele>720.645508</ele>
        <time>2011-03-24T12:25:56Z</time>
      </trkpt>
      <trkpt lat="44.52029" lon="6.03629">
        <ele>721.126221</ele>
        <time>2011-03-24T12:26:18Z</time>
      </trkpt>
      <trkpt lat="44.52087" lon="6.03639">
        <ele>722.568115</ele>
        <time>2011-03-24T12:26:29Z</time>
      </trkpt>
      <trkpt lat="44.52164" lon="6.03672">
        <ele>723.529541</ele>
        <time>2011-03-24T12:26:46Z</time>
      </trkpt>
      <trkpt lat="44.52254" lon="6.03759">
        <ele>725.451904</ele>
        <time>2011-03-24T12:27:06Z</time>
      </trkpt>
      <trkpt lat="44.52347" lon="6.03826">
        <ele>726.894043</ele>
        <time>2011-03-24T12:27:28Z</time>
      </trkpt>
      <trkpt lat="44.52436" lon="6.03867">
        <ele>726.894043</ele>
        <time>2011-03-24T12:27:46Z</time>
      </trkpt>
      <trkpt lat="44.52528" lon="6.03938">
        <ele>727.374756</ele>
        <time>2011-03-24T12:28:06Z</time>
      </trkpt>
      <trkpt lat="44.52607" lon="6.04023">
        <ele>729.297119</ele>
        <time>2011-03-24T12:28:28Z</time>
      </trkpt>
      <trkpt lat="44.52655" lon="6.0407">
        <ele>730.258545</ele>
        <time>2011-03-24T12:28:46Z</time>
      </trkpt>
      <trkpt lat="44.5272" lon="6.04102">
        <ele>733.142578</ele>
        <time>2011-03-24T12:29:08Z</time>
      </trkpt>
      <trkpt lat="44.5278" lon="6.04124">
        <ele>736.507324</ele>
        <time>2011-03-24T12:29:29Z</time>
      </trkpt>
      <trkpt lat="44.52837" lon="6.0415">
        <ele>739.871826</ele>
        <time>2011-03-24T12:29:50Z</time>
      </trkpt>
      <trkpt lat="44.5289" lon="6.0418">
        <ele>742.275146</ele>
        <time>2011-03-24T12:30:11Z</time>
      </trkpt>
      <trkpt lat="44.52941" lon="6.04212">
        <ele>745.158936</ele>
        <time>2011-03-24T12:30:31Z</time>
      </trkpt>
      <trkpt lat="44.52987" lon="6.04241">
        <ele>748.523682</ele>
        <time>2011-03-24T12:30:48Z</time>
      </trkpt>
      <trkpt lat="44.53057" lon="6.04285">
        <ele>750.927002</ele>
        <time>2011-03-24T12:31:14Z</time>
      </trkpt>
      <trkpt lat="44.53105" lon="6.04308">
        <ele>751.407715</ele>
        <time>2011-03-24T12:31:29Z</time>
      </trkpt>
      <trkpt lat="44.53188" lon="6.0434">
        <ele>753.811035</ele>
        <time>2011-03-24T12:31:54Z</time>
      </trkpt>
      <trkpt lat="44.53232" lon="6.04354">
        <ele>757.175537</ele>
        <time>2011-03-24T12:32:09Z</time>
      </trkpt>
      <trkpt lat="44.53288" lon="6.04366">
        <ele>760.059326</ele>
        <time>2011-03-24T12:32:29Z</time>
      </trkpt>
      <trkpt lat="44.53323" lon="6.04383">
        <ele>761.501465</ele>
        <time>2011-03-24T12:32:46Z</time>
      </trkpt>
      <trkpt lat="44.53323" lon="6.04383">
        <ele>761.501465</ele>
        <time>2011-03-24T12:33:17Z</time>
      </trkpt>
      <trkpt lat="44.5332" lon="6.04381">
        <ele>761.501465</ele>
        <time>2011-03-24T12:33:40Z</time>
      </trkpt>
      <trkpt lat="44.53358" lon="6.04415">
        <ele>761.020752</ele>
        <time>2011-03-24T12:33:53Z</time>
      </trkpt>
      <trkpt lat="44.53424" lon="6.04482">
        <ele>761.020752</ele>
        <time>2011-03-24T12:34:10Z</time>
      </trkpt>
      <trkpt lat="44.53493" lon="6.04584">
        <ele>759.578857</ele>
        <time>2011-03-24T12:34:31Z</time>
      </trkpt>
      <trkpt lat="44.53551" lon="6.04676">
        <ele>760.059326</ele>
        <time>2011-03-24T12:34:50Z</time>
      </trkpt>
      <trkpt lat="44.53586" lon="6.04736">
        <ele>761.501465</ele>
        <time>2011-03-24T12:35:02Z</time>
      </trkpt>
      <trkpt lat="44.53611" lon="6.04786">
        <ele>763.424072</ele>
        <time>2011-03-24T12:35:12Z</time>
      </trkpt>
      <trkpt lat="44.53675" lon="6.04893">
        <ele>764.385498</ele>
        <time>2011-03-24T12:35:37Z</time>
      </trkpt>
      <trkpt lat="44.53725" lon="6.0495">
        <ele>767.269531</ele>
        <time>2011-03-24T12:35:54Z</time>
      </trkpt>
      <trkpt lat="44.53762" lon="6.0503">
        <ele>769.672852</ele>
        <time>2011-03-24T12:36:14Z</time>
      </trkpt>
      <trkpt lat="44.53763" lon="6.05121">
        <ele>769.192139</ele>
        <time>2011-03-24T12:36:31Z</time>
      </trkpt>
      <trkpt lat="44.53759" lon="6.05153">
        <ele>768.711426</ele>
        <time>2011-03-24T12:36:41Z</time>
      </trkpt>
      <trkpt lat="44.53759" lon="6.05158">
        <ele>769.192139</ele>
        <time>2011-03-24T12:36:44Z</time>
      </trkpt>
      <trkpt lat="44.53757" lon="6.05181">
        <ele>767.75</ele>
        <time>2011-03-24T12:36:47Z</time>
      </trkpt>
      <trkpt lat="44.53769" lon="6.05216">
        <ele>766.308105</ele>
        <time>2011-03-24T12:36:51Z</time>
      </trkpt>
      <trkpt lat="44.53774" lon="6.05232">
        <ele>765.827637</ele>
        <time>2011-03-24T12:36:53Z</time>
      </trkpt>
      <trkpt lat="44.53764" lon="6.05277">
        <ele>765.827637</ele>
        <time>2011-03-24T12:36:59Z</time>
      </trkpt>
      <trkpt lat="44.53748" lon="6.05315">
        <ele>764.385498</ele>
        <time>2011-03-24T12:37:12Z</time>
      </trkpt>
      <trkpt lat="44.53777" lon="6.05367">
        <ele>762.462646</ele>
        <time>2011-03-24T12:37:26Z</time>
      </trkpt>
      <trkpt lat="44.53833" lon="6.05441">
        <ele>758.617432</ele>
        <time>2011-03-24T12:37:42Z</time>
      </trkpt>
      <trkpt lat="44.53875" lon="6.05493">
        <ele>756.694824</ele>
        <time>2011-03-24T12:37:50Z</time>
      </trkpt>
      <trkpt lat="44.53951" lon="6.05585">
        <ele>754.291748</ele>
        <time>2011-03-24T12:38:05Z</time>
      </trkpt>
      <trkpt lat="44.53991" lon="6.05634">
        <ele>752.368896</ele>
        <time>2011-03-24T12:38:17Z</time>
      </trkpt>
      <trkpt lat="44.54024" lon="6.05674">
        <ele>749.485107</ele>
        <time>2011-03-24T12:38:25Z</time>
      </trkpt>
      <trkpt lat="44.54034" lon="6.05685">
        <ele>748.523682</ele>
        <time>2011-03-24T12:38:27Z</time>
      </trkpt>
      <trkpt lat="44.54058" lon="6.05714">
        <ele>748.523682</ele>
        <time>2011-03-24T12:38:33Z</time>
      </trkpt>
      <trkpt lat="44.54089" lon="6.0575">
        <ele>746.120361</ele>
        <time>2011-03-24T12:38:41Z</time>
      </trkpt>
      <trkpt lat="44.54096" lon="6.05759">
        <ele>746.120361</ele>
        <time>2011-03-24T12:38:43Z</time>
      </trkpt>
      <trkpt lat="44.54111" lon="6.05776">
        <ele>745.639648</ele>
        <time>2011-03-24T12:38:47Z</time>
      </trkpt>
      <trkpt lat="44.54161" lon="6.05837">
        <ele>743.236328</ele>
        <time>2011-03-24T12:39:00Z</time>
      </trkpt>
      <trkpt lat="44.54202" lon="6.0589">
        <ele>740.352539</ele>
        <time>2011-03-24T12:39:10Z</time>
      </trkpt>
      <trkpt lat="44.54244" lon="6.0594">
        <ele>737.949219</ele>
        <time>2011-03-24T12:39:18Z</time>
      </trkpt>
      <trkpt lat="44.54303" lon="6.06017">
        <ele>736.987793</ele>
        <time>2011-03-24T12:39:30Z</time>
      </trkpt>
      <trkpt lat="44.54315" lon="6.06033">
        <ele>737.949219</ele>
        <time>2011-03-24T12:39:33Z</time>
      </trkpt>
      <trkpt lat="44.54385" lon="6.06115">
        <ele>740.352539</ele>
        <time>2011-03-24T12:39:51Z</time>
      </trkpt>
      <trkpt lat="44.54434" lon="6.06172">
        <ele>743.236328</ele>
        <time>2011-03-24T12:40:08Z</time>
      </trkpt>
      <trkpt lat="44.54496" lon="6.06249">
        <ele>742.275146</ele>
        <time>2011-03-24T12:40:27Z</time>
      </trkpt>
      <trkpt lat="44.54518" lon="6.06277">
        <ele>742.275146</ele>
        <time>2011-03-24T12:40:33Z</time>
      </trkpt>
      <trkpt lat="44.54555" lon="6.06292">
        <ele>742.275146</ele>
        <time>2011-03-24T12:40:45Z</time>
      </trkpt>
      <trkpt lat="44.54571" lon="6.06313">
        <ele>741.794434</ele>
        <time>2011-03-24T12:40:56Z</time>
      </trkpt>
      <trkpt lat="44.54584" lon="6.06333">
        <ele>741.313721</ele>
        <time>2011-03-24T12:41:02Z</time>
      </trkpt>
      <trkpt lat="44.54634" lon="6.06411">
        <ele>739.871826</ele>
        <time>2011-03-24T12:41:18Z</time>
      </trkpt>
      <trkpt lat="44.54729" lon="6.0653">
        <ele>738.910645</ele>
        <time>2011-03-24T12:41:43Z</time>
      </trkpt>
      <trkpt lat="44.54736" lon="6.06539">
        <ele>740.352539</ele>
        <time>2011-03-24T12:41:45Z</time>
      </trkpt>
      <trkpt lat="44.5477" lon="6.06577">
        <ele>739.871826</ele>
        <time>2011-03-24T12:41:57Z</time>
      </trkpt>
      <trkpt lat="44.54848" lon="6.06667">
        <ele>739.391113</ele>
        <time>2011-03-24T12:42:18Z</time>
      </trkpt>
      <trkpt lat="44.54908" lon="6.06749">
        <ele>738.910645</ele>
        <time>2011-03-24T12:42:36Z</time>
      </trkpt>
      <trkpt lat="44.54999" lon="6.06859">
        <ele>739.391113</ele>
        <time>2011-03-24T12:43:01Z</time>
      </trkpt>
      <trkpt lat="44.55068" lon="6.06943">
        <ele>739.391113</ele>
        <time>2011-03-24T12:43:20Z</time>
      </trkpt>
      <trkpt lat="44.55139" lon="6.07032">
        <ele>737.468506</ele>
        <time>2011-03-24T12:43:39Z</time>
      </trkpt>
      <trkpt lat="44.55182" lon="6.07087">
        <ele>737.949219</ele>
        <time>2011-03-24T12:43:52Z</time>
      </trkpt>
      <trkpt lat="44.5525" lon="6.07176">
        <ele>735.545898</ele>
        <time>2011-03-24T12:44:10Z</time>
      </trkpt>
      <trkpt lat="44.55342" lon="6.07288">
        <ele>734.584717</ele>
        <time>2011-03-24T12:44:32Z</time>
      </trkpt>
      <trkpt lat="44.55368" lon="6.0732">
        <ele>735.545898</ele>
        <time>2011-03-24T12:44:42Z</time>
      </trkpt>
      <trkpt lat="44.5545" lon="6.07417">
        <ele>733.142578</ele>
        <time>2011-03-24T12:45:05Z</time>
      </trkpt>
      <trkpt lat="44.55494" lon="6.07466">
        <ele>733.623291</ele>
        <time>2011-03-24T12:45:18Z</time>
      </trkpt>
      <trkpt lat="44.55526" lon="6.07497">
        <ele>732.181396</ele>
        <time>2011-03-24T12:45:29Z</time>
      </trkpt>
      <trkpt lat="44.55573" lon="6.07547">
        <ele>733.142578</ele>
        <time>2011-03-24T12:45:44Z</time>
      </trkpt>
      <trkpt lat="44.55595" lon="6.07574">
        <ele>733.623291</ele>
        <time>2011-03-24T12:45:53Z</time>
      </trkpt>
      <trkpt lat="44.55598" lon="6.07569">
        <ele>732.662109</ele>
        <time>2011-03-24T12:45:58Z</time>
      </trkpt>
      <trkpt lat="44.5562" lon="6.07529">
        <ele>733.142578</ele>
        <time>2011-03-24T12:46:09Z</time>
      </trkpt>
      <trkpt lat="44.55632" lon="6.07531">
        <ele>734.104004</ele>
        <time>2011-03-24T12:46:13Z</time>
      </trkpt>
      <trkpt lat="44.55647" lon="6.07544">
        <ele>734.104004</ele>
        <time>2011-03-24T12:46:18Z</time>
      </trkpt>
      <trkpt lat="44.55661" lon="6.07558">
        <ele>734.584717</ele>
        <time>2011-03-24T12:46:22Z</time>
      </trkpt>
      <trkpt lat="44.55685" lon="6.07581">
        <ele>735.545898</ele>
        <time>2011-03-24T12:46:31Z</time>
      </trkpt>
      <trkpt lat="44.55726" lon="6.07515">
        <ele>737.468506</ele>
        <time>2011-03-24T12:46:47Z</time>
      </trkpt>
      <trkpt lat="44.55754" lon="6.0747">
        <ele>740.352539</ele>
        <time>2011-03-24T12:47:03Z</time>
      </trkpt>
      <trkpt lat="44.55756" lon="6.07467">
        <ele>740.352539</ele>
        <time>2011-03-24T12:47:16Z</time>
      </trkpt>
      <trkpt lat="44.55784" lon="6.07453">
        <ele>740.833008</ele>
        <time>2011-03-24T12:47:27Z</time>
      </trkpt>
      <trkpt lat="44.55801" lon="6.07445">
        <ele>742.275146</ele>
        <time>2011-03-24T12:47:33Z</time>
      </trkpt>
      <trkpt lat="44.55802" lon="6.07445">
        <ele>743.236328</ele>
        <time>2011-03-24T12:47:42Z</time>
      </trkpt>
      <trkpt lat="44.55798" lon="6.07447">
        <ele>743.236328</ele>
        <time>2011-03-24T12:47:45Z</time>
      </trkpt>
      <trkpt lat="44.55819" lon="6.07443">
        <ele>743.717041</ele>
        <time>2011-03-24T12:48:03Z</time>
      </trkpt>
      <trkpt lat="44.55834" lon="6.07452">
        <ele>743.717041</ele>
        <time>2011-03-24T12:48:12Z</time>
      </trkpt>
      <trkpt lat="44.55848" lon="6.07465">
        <ele>744.197754</ele>
        <time>2011-03-24T12:48:24Z</time>
      </trkpt>
      <trkpt lat="44.55876" lon="6.07492">
        <ele>745.158936</ele>
        <time>2011-03-24T12:48:37Z</time>
      </trkpt>
      <trkpt lat="44.55879" lon="6.07495">
        <ele>745.639648</ele>
        <time>2011-03-24T12:48:47Z</time>
      </trkpt>
      <trkpt lat="44.55879" lon="6.07495">
        <ele>745.639648</ele>
        <time>2011-03-24T12:48:49Z</time>
      </trkpt>
      <trkpt lat="44.55879" lon="6.07495">
        <ele>745.158936</ele>
        <time>2011-03-24T12:48:59Z</time>
      </trkpt>
    </trkseg>
  </trk>
</gpx>